Provisional Data: North Branch Muddy Creek near Muddy Creek Forks, PA


Please select a monitoring station.
Please select start date.
Please select start date.

Toggle Unit: C/F Toggle Unit: C/F
Sample Time Temperature (C) Temperature (F) Specific Conductivity (mS/cm) pH   Turbidity (NTU+) DO (mg/L)
6/3/2022 12:00:00 AM 19.81 67.658 0.163 7.18 168.2 7.94
6/3/2022 12:15:00 AM 19.76 67.568 0.163 7.18 212.7 7.9
6/3/2022 12:30:00 AM 19.71 67.478 0.163 7.18 524.6 7.89
6/3/2022 12:45:00 AM 19.66 67.388 0.163 7.18 299.6 7.88
6/3/2022 1:00:00 AM 19.62 67.316 0.163 7.18 541.8 7.86
6/3/2022 1:15:00 AM 19.58 67.244 0.163 7.19 330 7.84
6/3/2022 1:30:00 AM 19.53 67.154 0.163 7.17 295.3 7.87
6/3/2022 1:45:00 AM 19.49 67.082 0.163 7.18 3065 7.96
6/3/2022 2:00:00 AM 19.44 66.992 0.163 7.18 239.2 7.87
6/3/2022 2:15:00 AM 19.39 66.902 0.163 7.18 334.2 8
6/3/2022 2:30:00 AM 19.33 66.794 0.163 7.18 246.9 7.96
6/3/2022 2:45:00 AM 19.27 66.686 0.163 7.18 239 7.99
6/3/2022 3:00:00 AM 19.22 66.596 0.163 7.17 216.9 8.08
6/3/2022 3:15:00 AM 19.16 66.488 0.163 7.18 205.1 8.07
6/3/2022 3:30:00 AM 19.11 66.398 0.163 7.18 215.7 7.97
6/3/2022 3:45:00 AM 19.04 66.272 0.163 7.17 206.5 7.92
6/3/2022 4:00:00 AM 18.98 66.164 0.168 7.19 225 7.95
6/3/2022 4:15:00 AM 18.92 66.056 0.163 7.18 207.8 7.98
6/3/2022 4:30:00 AM 18.85 65.93 0.163 7.18 224.7 8.04
6/3/2022 4:45:00 AM 18.78 65.804 0.163 7.17 242.6 8.05
6/3/2022 5:00:00 AM 18.73 65.714 0.163 7.18 239.6 7.91
6/3/2022 5:15:00 AM 18.68 65.624 0.163 7.17 250.9 8.02
6/3/2022 5:30:00 AM 18.63 65.534 0.167 7.17 219.6 8.06
6/3/2022 5:45:00 AM 18.59 65.462 0.164 7.17 218.5 8.07
6/3/2022 6:00:00 AM 18.54 65.372 0.163 7.19 222.8 8.08
6/3/2022 6:15:00 AM 18.5 65.3 0.163 7.18 225 8.16
6/3/2022 6:30:00 AM 18.45 65.21 0.163 7.19 216 8.19
6/3/2022 6:45:00 AM 18.41 65.138 0.163 7.21 221.1 8.23
6/3/2022 7:00:00 AM 18.36 65.048 0.163 7.22 208 8.26
6/3/2022 7:15:00 AM 18.3 64.94 0.164 7.22 196.5 8.33
6/3/2022 7:30:00 AM 18.24 64.832 0.164 7.22 210 8.34
6/3/2022 7:45:00 AM 18.19 64.742 0.164 7.24 199.1 8.45
6/3/2022 8:00:00 AM 18.15 64.67 0.164 7.25 190.6 8.39
6/3/2022 8:15:00 AM 18.13 64.634 0.163 7.26 194.9 8.43
6/3/2022 8:30:00 AM 18.1 64.58 0.163 7.27 217.7 8.47
6/3/2022 8:45:00 AM 18.08 64.544 0.163 7.27 204.3 8.49
6/3/2022 9:00:00 AM 18.06 64.508 0.163 7.29 199.8 8.55
6/3/2022 9:15:00 AM 18.06 64.508 0.163 7.29 212.2 8.56
6/3/2022 9:30:00 AM 18.07 64.526 0.163 7.31 208 8.57
6/3/2022 9:45:00 AM 18.08 64.544 0.163 7.31 214.3 8.64
6/3/2022 10:00:00 AM 18.11 64.598 0.163 7.32 206.7 8.75
6/3/2022 10:15:00 AM 18.17 64.706 0.163 7.35 205.4 8.8
6/3/2022 10:30:00 AM 18.24 64.832 0.163 7.36 199.3 8.91
6/3/2022 10:45:00 AM 18.33 64.994 0.163 7.38 206.6 8.89
6/3/2022 11:00:00 AM 18.44 65.192 0.163 7.39 211.8 8.91
6/3/2022 11:15:00 AM 18.58 65.444 0.163 7.41 204.4 8.99
6/3/2022 11:30:00 AM 18.73 65.714 0.163 7.44 203.5 8.99
6/3/2022 11:45:00 AM 18.89 66.002 0.163 7.45 216 9.04
6/3/2022 12:00:00 PM 19.06 66.308 0.163 7.48 218.4 9.1
6/3/2022 12:15:00 PM 19.24 66.632 0.163 7.51 224.2 9.03
6/3/2022 12:30:00 PM 19.48 67.064 0.163 7.52 235 9.15
6/3/2022 12:45:00 PM 19.72 67.496 0.162 7.54 272.5 9.02
6/3/2022 1:00:00 PM 19.96 67.92799 0.163 7.54 261.4 9.09
6/3/2022 1:15:00 PM 20.22 68.396 0.162 7.56 253.9 9.17
6/3/2022 1:30:00 PM 20.5 68.9 0.162 7.58 283 9.13
6/3/2022 1:45:00 PM 20.66 69.188 0.163 7.6 279.9 9
6/3/2022 2:00:00 PM 20.77 69.386 0.163 7.61 282.7 9.07
6/3/2022 2:15:00 PM 20.87 69.566 0.162 7.62 249.5 9.01
6/3/2022 2:30:00 PM 20.98 69.764 0.163 7.65 236.6 9.03
6/3/2022 2:45:00 PM 21.07 69.926 0.163 7.66 261.5 9.01
6/3/2022 3:00:00 PM 21.16 70.088 0.163 7.66 229.7 8.99
6/3/2022 3:15:00 PM 21.28 70.304 0.163 7.67 235.7 9.03
6/3/2022 3:30:00 PM 21.34 70.412 0.163 7.68 222.5 9.03
6/3/2022 3:45:00 PM 21.32 70.376 0.163 7.68 220.7 8.95
6/3/2022 4:00:00 PM 21.26 70.268 0.163 7.68 219.4 8.98
6/3/2022 4:15:00 PM 21.19 70.142 0.163 7.67 219.7 8.85
6/3/2022 4:30:00 PM 21.12 70.016 0.163 7.67 222.7 8.87
6/3/2022 4:45:00 PM 21.08 69.944 0.163 7.66 220.8 8.87
6/3/2022 5:00:00 PM 21.02 69.836 0.163 7.66 241.8 8.79
6/3/2022 5:15:00 PM 20.96 69.728 0.163 7.65 213.7 8.83
6/3/2022 5:30:00 PM 20.92 69.656 0.163 7.65 211.1 8.75
6/3/2022 5:45:00 PM 20.87 69.566 0.163 7.63 268.8 8.75
6/3/2022 6:00:00 PM 20.79 69.422 0.163 7.62 215 8.74
6/3/2022 6:15:00 PM 20.71 69.278 0.163 7.59 218.7 8.68
6/3/2022 6:30:00 PM 20.64 69.152 0.163 7.58 219.4 8.61
6/3/2022 6:45:00 PM 20.55 68.99 0.163 7.56 229 8.57
6/3/2022 7:00:00 PM 20.48 68.864 0.163 7.55 228.1 8.42
6/3/2022 7:15:00 PM 20.4 68.72 0.163 7.52 223.2 8.49
6/3/2022 7:30:00 PM 20.32 68.576 0.163 7.5 219.1 8.4
6/3/2022 7:45:00 PM 20.24 68.432 0.163 7.48 206.9 8.39
6/3/2022 8:00:00 PM 20.16 68.288 0.163 7.47 212.2 8.3
6/3/2022 8:15:00 PM 20.06 68.108 0.163 7.43 204.7 8.27
6/3/2022 8:30:00 PM 19.96 67.92799 0.163 7.41 206.2 8.21
6/3/2022 8:45:00 PM 19.87 67.766 0.163 7.4 189.4 8.19
6/3/2022 9:00:00 PM 19.77 67.586 0.166 7.38 195.1 8.18
6/3/2022 9:15:00 PM 19.68 67.424 0.164 7.37 196.8 8.16
6/3/2022 9:30:00 PM 19.57 67.226 0.164 7.36 200.6 8.11
6/3/2022 9:45:00 PM 19.46 67.028 0.164 7.33 205.3 8.05
6/3/2022 10:00:00 PM 19.35 66.83 0.156 7.32 194 8.13
6/3/2022 10:15:00 PM 19.25 66.65 0.161 7.32 199.2 8.03
6/3/2022 10:30:00 PM 19.15 66.47 0.156 7.3 187.7 8.09
6/3/2022 10:45:00 PM 19.06 66.308 0.153 7.3 215.7 8.12
6/3/2022 11:00:00 PM 18.97 66.146 0.153 7.29 208.4 8.13
6/3/2022 11:15:00 PM 18.87 65.966 0.161 7.28 209.2 8.12
6/3/2022 11:30:00 PM 18.78 65.804 0.16 7.29 211.3 8.17
6/3/2022 11:45:00 PM 18.69 65.642 0.161 7.28 211.2 8.09
6/4/2022 12:00:00 AM 18.61 65.498 0.164 7.28 209.4 8.03
6/4/2022 12:15:00 AM 18.52 65.336 0.156 7.27 218.9 8.16
6/4/2022 12:30:00 AM 18.44 65.192 0.16 7.27 213.5 8.3
6/4/2022 12:45:00 AM 18.35 65.03 0.163 7.25 201.5 8.18
6/4/2022 1:00:00 AM 18.26 64.868 0.157 7.24 201 8.18
6/4/2022 1:15:00 AM 18.18 64.724 0.161 7.25 212 8.18
6/4/2022 1:30:00 AM 18.09 64.562 0.161 7.24 198.9 8.24
6/4/2022 1:45:00 AM 18.01 64.418 0.161 7.24 200.2 8.21
6/4/2022 2:00:00 AM 17.93 64.274 0.157 7.24 249.9 8.23
6/4/2022 2:15:00 AM 17.85 64.13 0.149 7.24 227.7 8.21
6/4/2022 2:30:00 AM 17.76 63.968 0.15 7.25 217.6 8.21
6/4/2022 2:45:00 AM 17.67 63.806 0.159 7.25 219.8 8.3
6/4/2022 3:00:00 AM 17.6 63.68 0.158 7.25 219.8 8.33
6/4/2022 3:15:00 AM 17.51 63.518 0.158 7.25 212.7 8.35
6/4/2022 3:30:00 AM 17.43 63.374 0.158 7.25 202.9 8.31
6/4/2022 3:45:00 AM 17.36 63.248 0.162 7.26 279.8 8.36
6/4/2022 4:00:00 AM 17.26 63.068 0.16 7.26 211.1 8.27
6/4/2022 4:15:00 AM 17.17 62.906 0.16 7.26 211.7 8.46
6/4/2022 4:30:00 AM 17.09 62.762 0.161 7.25 206.3 8.43
6/4/2022 4:45:00 AM 17.01 62.618 0.161 7.26 213.7 8.41
6/4/2022 5:00:00 AM 16.92 62.456 0.164 7.26 216.6 8.36
6/4/2022 5:15:00 AM 16.83 62.294 0.164 7.25 216.2 8.48
6/4/2022 5:30:00 AM 16.75 62.15 0.164 7.26 211.2 8.45
6/4/2022 5:45:00 AM 16.66 61.988 0.164 7.26 201.8 8.59
6/4/2022 6:00:00 AM 16.57 61.826 0.164 7.26 206.3 8.61
6/4/2022 6:15:00 AM 16.49 61.682 0.164 7.27 199.7 8.64
6/4/2022 6:30:00 AM 16.41 61.538 0.164 7.27 191.3 8.63
6/4/2022 6:45:00 AM 16.33 61.394 0.164 7.27 189 8.6
6/4/2022 7:00:00 AM 16.25 61.25 0.164 7.28 186.9 8.86
6/4/2022 7:15:00 AM 16.19 61.142 0.164 7.28 177.5 8.65
6/4/2022 7:30:00 AM 16.13 61.034 0.164 7.28 182.7 8.78
6/4/2022 7:45:00 AM 16.09 60.962 0.164 7.29 178.3 8.85
6/4/2022 8:00:00 AM 16.05 60.89 0.164 7.29 181.8 8.85
6/4/2022 8:15:00 AM 16.03 60.854 0.164 7.3 167.8 8.89
6/4/2022 8:30:00 AM 16.02 60.836 0.164 7.31 167.4 8.95
6/4/2022 8:45:00 AM 16.02 60.836 0.164 7.32 163 8.94
6/4/2022 9:00:00 AM 16.04 60.872 0.164 7.32 176 8.94
6/4/2022 9:15:00 AM 16.07 60.926 0.164 7.33 168.3 9.02
6/4/2022 9:30:00 AM 16.12 61.016 0.164 7.33 161.8 9.08
6/4/2022 9:45:00 AM 16.18 61.124 0.164 7.34 161.8 9.09
6/4/2022 10:00:00 AM 16.26 61.268 0.152 7.35 158.1 9.15
6/4/2022 10:15:00 AM 16.37 61.466 0.161 7.36 155 9.18
6/4/2022 10:30:00 AM 16.51 61.718 0.159 7.37 149.6 9.31
6/4/2022 10:45:00 AM 16.67 62.006 0.16 7.38 155.7 9.26
6/4/2022 11:00:00 AM 16.86 62.348 0.161 7.39 159.8 9.31
6/4/2022 11:15:00 AM 17.07 62.726 0.16 7.41 175 9.4
6/4/2022 11:30:00 AM 17.29 63.122 0.159 7.43 169.9 9.32
6/4/2022 11:45:00 AM 17.56 63.608 0.158 7.43 171.5 9.33
6/4/2022 12:00:00 PM 17.84 64.112 0.158 7.45 166.8 9.31
6/4/2022 12:15:00 PM 18.14 64.652 0.158 7.46 166.7 9.35
6/4/2022 12:30:00 PM 18.43 65.174 0.16 7.48 165.9 8.82
6/4/2022 12:45:00 PM 18.69 65.642 0.157 7.51 164.2 9.36
6/4/2022 1:00:00 PM 18.91 66.038 0.161 7.51 165.1 9.31
6/4/2022 1:15:00 PM 19.23 66.614 0.16 7.53 160.6 9.3
6/4/2022 1:30:00 PM 19.62 67.316 0.159 7.54 163.3 9.33
6/4/2022 1:45:00 PM 19.9 67.82 0.158 7.56 160 9.31
6/4/2022 2:00:00 PM 20.21 68.378 0.158 7.56 145.1 9.31
6/4/2022 2:15:00 PM 20.5 68.9 0.158 7.58 142 9.07
6/4/2022 2:30:00 PM 20.78 69.404 0.158 7.58 148.5 9.15
6/4/2022 2:45:00 PM 21.03 69.854 0.157 7.59 143 9.23
6/4/2022 3:00:00 PM 21.15 70.07 0.158 7.59 141.3 9.16
6/4/2022 3:15:00 PM 21.25 70.25 0.158 7.61 137.4 9.09
6/4/2022 3:30:00 PM 21.32 70.376 0.157 7.6 145.3 8.99
6/4/2022 3:45:00 PM 21.38 70.484 0.154 7.61 140 8.85
6/4/2022 4:00:00 PM 21.33 70.394 0.156 7.61 152.3 9.01
6/4/2022 4:15:00 PM 21.32 70.376 0.154 7.59 135.9 8.95
6/4/2022 4:30:00 PM 21.26 70.268 0.156 7.59 139 8.82
6/4/2022 4:45:00 PM 21.15 70.07 0.156 7.59 141.6 8.75
6/4/2022 5:00:00 PM 21.08 69.944 0.151 7.56 148 8.71
6/4/2022 5:15:00 PM 21.03 69.854 0.15 7.56 138.4 8.74
6/4/2022 5:30:00 PM 20.96 69.728 0.151 7.55 142.3 8.67
6/4/2022 5:45:00 PM 20.89 69.602 0.152 7.53 146.2 8.61
6/4/2022 6:00:00 PM 20.83 69.494 0.151 7.53 138.6 8.57
6/4/2022 6:15:00 PM 20.73 69.314 0.153 7.51 152.5 8.57
6/4/2022 6:30:00 PM 20.59 69.062 0.152 7.5 148.1 8.52
6/4/2022 6:45:00 PM 20.47 68.846 0.164 7.47 147.9 8.42
6/4/2022 7:00:00 PM 20.36 68.648 0.164 7.46 160.9 8.27
6/4/2022 7:15:00 PM 20.24 68.432 0.164 7.44 158.6 8.31
6/4/2022 7:30:00 PM 20.14 68.252 0.158 7.41 150.8 8.29
6/4/2022 7:45:00 PM 20.04 68.07201 0.158 7.4 152.2 8.18
6/4/2022 8:00:00 PM 19.93 67.874 0.152 7.38 154.9 8.1
6/4/2022 8:15:00 PM 19.82 67.676 0.151 7.38 152.5 8.2
6/4/2022 8:30:00 PM 19.73 67.514 0.15 7.37 153.7 8.17
6/4/2022 8:45:00 PM 19.63 67.334 0.148 7.35 160.8 8.1
6/4/2022 9:00:00 PM 19.52 67.136 0.149 7.33 160.6 8.12
6/4/2022 9:15:00 PM 19.4 66.92 0.163 7.32 167.6 8.03
6/4/2022 9:30:00 PM 19.29 66.722 0.164 7.31 162.4 8.07
6/4/2022 9:45:00 PM 19.18 66.524 0.164 7.3 168.6 8
6/4/2022 10:00:00 PM 19.06 66.308 0.164 7.3 166.6 8.02
6/4/2022 10:15:00 PM 18.95 66.11 0.164 7.28 170.2 7.94
6/4/2022 10:30:00 PM 18.84 65.912 0.165 7.29 180.3 7.97
6/4/2022 10:45:00 PM 18.73 65.714 0.165 7.28 154 8.07
6/4/2022 11:00:00 PM 18.62 65.516 0.165 7.28 171.3 8.02
6/4/2022 11:15:00 PM 18.52 65.336 0.165 7.27 172.2 8.1
6/4/2022 11:30:00 PM 18.41 65.138 0.165 7.27 177.7 8.14
6/4/2022 11:45:00 PM 18.31 64.958 0.165 7.27 173.7 8.17
6/5/2022 12:00:00 AM 18.21 64.778 0.165 7.26 172.5 8.15
6/5/2022 12:15:00 AM 18.11 64.598 0.165 7.27 174 7.99
6/5/2022 12:30:00 AM 18.01 64.418 0.165 7.26 175.1 8.05
6/5/2022 12:45:00 AM 17.92 64.256 0.165 7.26 171.6 8.15
6/5/2022 1:00:00 AM 17.83 64.094 0.165 7.26 182.5 8.17
6/5/2022 1:15:00 AM 17.74 63.932 0.165 7.26 176 8.33
6/5/2022 1:30:00 AM 17.66 63.788 0.165 7.24 174.7 8.16
6/5/2022 1:45:00 AM 17.58 63.644 0.165 7.24 176.9 8.17
6/5/2022 2:00:00 AM 17.49 63.482 0.165 7.25 179.1 8.26
6/5/2022 2:15:00 AM 17.41 63.338 0.165 7.23 182.7 8.32
6/5/2022 2:30:00 AM 17.34 63.212 0.165 7.22 178.7 8.2
6/5/2022 2:45:00 AM 17.26 63.068 0.165 7.22 181.4 8.22
6/5/2022 3:00:00 AM 17.18 62.924 0.165 7.25 183.7 8.06
6/5/2022 3:15:00 AM 17.1 62.78 0.165 7.24 166.6 8.37
6/5/2022 3:30:00 AM 17.01 62.618 0.165 7.22 178.1 8.43
6/5/2022 3:45:00 AM 16.94 62.492 0.165 7.24 178.8 8.43
6/5/2022 4:00:00 AM 16.87 62.366 0.165 7.24 184 7.99
6/5/2022 4:15:00 AM 16.79 62.222 0.165 7.23 177.4 8.47
6/5/2022 4:30:00 AM 16.7 62.06 0.165 7.24 224.1 8.45
6/5/2022 4:45:00 AM 16.62 61.916 0.165 7.23 187.4 8.32
6/5/2022 5:00:00 AM 16.54 61.772 0.165 7.22 183 8.46
6/5/2022 5:15:00 AM 16.46 61.628 0.165 7.25 181.6 8.35
6/5/2022 5:30:00 AM 16.38 61.484 0.165 7.25 186.2 8.51
6/5/2022 5:45:00 AM 16.28 61.304 0.165 7.24 184.2 8.56
6/5/2022 6:00:00 AM 16.2 61.16 0.165 7.24 191 8.72
6/5/2022 6:15:00 AM 16.12 61.016 0.165 7.24 187.2 8.55
6/5/2022 6:30:00 AM 16.02 60.836 0.165 7.24 191.6 8.68
6/5/2022 6:45:00 AM 15.94 60.692 0.165 7.25 189.3 8.79
6/5/2022 7:00:00 AM 15.86 60.548 0.165 7.26 192.6 8.8
6/5/2022 7:15:00 AM 15.77 60.386 0.165 7.25 191.6 8.81
6/5/2022 7:30:00 AM 15.7 60.26 0.165 7.25 185.7 8.98
6/5/2022 7:45:00 AM 15.65 60.17 0.165 7.27 184.3 8.8
6/5/2022 8:00:00 AM 15.6 60.08 0.165 7.26 184.2 8.95
6/5/2022 8:15:00 AM 15.57 60.026 0.165 7.28 188.8 8.91
6/5/2022 8:30:00 AM 15.55 59.99 0.165 7.28 192 8.92
6/5/2022 8:45:00 AM 15.54 59.972 0.165 7.27 190.9 8.85
6/5/2022 9:00:00 AM 15.55 59.99 0.165 7.29 197.3 9.05
6/5/2022 9:15:00 AM 15.56 60.008 0.165 7.3 182.4 8.93
6/5/2022 9:30:00 AM 15.58 60.044 0.165 7.32 189.8 9.11
6/5/2022 9:45:00 AM 15.63 60.134 0.165 7.33 241.6 9.04
6/5/2022 10:00:00 AM 15.68 60.224 0.165 7.32 184.5 9.07
6/5/2022 10:15:00 AM 15.77 60.386 0.165 7.33 183.8 8.88
6/5/2022 10:30:00 AM 15.88 60.584 0.164 7.35 187.6 8.98
6/5/2022 10:45:00 AM 16.02 60.836 0.165 7.36 190.1 9.19
6/5/2022 11:00:00 AM 16.18 61.124 0.164 7.37 180.8 8.49
6/5/2022 11:15:00 AM 16.37 61.466 0.164 7.38 188.2 8.57
6/5/2022 11:30:00 AM 16.57 61.826 0.164 7.39 227 9.35
6/5/2022 11:45:00 AM 16.81 62.258 0.164 7.41 175 9.02
6/5/2022 12:00:00 PM 17.08 62.744 0.164 7.41 177.8 9.33
6/5/2022 12:15:00 PM 17.38 63.284 0.164 7.43 177.5 9.26
6/5/2022 12:30:00 PM 17.7 63.86 0.164 7.44 181 8.74
6/5/2022 12:45:00 PM 18.03 64.454 0.164 7.46 177.8 9.22
6/5/2022 1:00:00 PM 18.34 65.012 0.164 7.48 178.8 9.13
6/5/2022 1:15:00 PM 18.67 65.606 0.164 7.48 180.9 9.43
6/5/2022 1:30:00 PM 19.05 66.29 0.164 7.5 175.3 9.03
6/5/2022 1:45:00 PM 19.37 66.866 0.164 7.51 172.5 9.3
6/5/2022 2:00:00 PM 19.69 67.442 0.164 7.54 172.5 9.1
6/5/2022 2:15:00 PM 19.96 67.92799 0.164 7.55 184 9.3
6/5/2022 2:30:00 PM 20.26 68.468 0.164 7.55 173.8 9.03
6/5/2022 2:45:00 PM 20.47 68.846 0.164 7.57 176.1 9.08
6/5/2022 3:00:00 PM 20.57 69.026 0.164 7.58 175.5 9
6/5/2022 3:15:00 PM 20.68 69.224 0.164 7.57 176.3 9.04
6/5/2022 3:30:00 PM 20.75 69.35 0.164 7.58 179.2 9.16
6/5/2022 3:45:00 PM 20.81 69.458 0.164 7.58 166.7 9.11
6/5/2022 4:00:00 PM 20.79 69.422 0.164 7.58 171 8.95
6/5/2022 4:15:00 PM 20.72 69.296 0.165 7.58 176.3 8.88
6/5/2022 4:30:00 PM 20.64 69.152 0.165 7.57 169.2 8.81
6/5/2022 4:45:00 PM 20.53 68.954 0.165 7.57 175.4 8.98
6/5/2022 5:00:00 PM 20.43 68.774 0.165 7.56 176.2 8.9
6/5/2022 5:15:00 PM 20.35 68.63 0.164 7.55 172.3 8.85
6/5/2022 5:30:00 PM 20.28 68.504 0.164 7.54 174.5 8.75
6/5/2022 5:45:00 PM 20.2 68.36 0.164 7.52 169.5 8.69
6/5/2022 6:00:00 PM 20.11 68.198 0.164 7.52 185.5 8.67
6/5/2022 6:15:00 PM 20.02 68.036 0.164 7.5 174.6 8.67
6/5/2022 6:30:00 PM 19.89 67.802 0.164 7.49 168.6 8.56
6/5/2022 6:45:00 PM 19.78 67.604 0.165 7.48 175.9 8.52
6/5/2022 7:00:00 PM 19.66 67.388 0.165 7.46 176.5 8.51
6/5/2022 7:15:00 PM 19.55 67.19 0.165 7.42 178.6 8.53
6/5/2022 7:30:00 PM 19.43 66.974 0.165 7.42 189.8 8.45
6/5/2022 7:45:00 PM 19.33 66.794 0.165 7.4 182.5 8.43
6/5/2022 8:00:00 PM 19.22 66.596 0.165 7.39 190.2 8.28
6/5/2022 8:15:00 PM 19.11 66.398 0.165 7.37 166.3 8.36
6/5/2022 8:30:00 PM 19 66.2 0.165 7.36 162.4 8.23
6/5/2022 8:45:00 PM 18.9 66.02 0.165 7.35 186 8.3
6/5/2022 9:00:00 PM 18.79 65.82201 0.165 7.34 178.9 8.33
6/5/2022 9:15:00 PM 18.69 65.642 0.165 7.32 172.6 8.34
6/5/2022 9:30:00 PM 18.58 65.444 0.165 7.33 194.1 8.21
6/5/2022 9:45:00 PM 18.48 65.264 0.165 7.31 184.5 8.24
6/5/2022 10:00:00 PM 18.37 65.066 0.165 7.31 192.3 8.26
6/5/2022 10:15:00 PM 18.26 64.868 0.165 7.27 192.9 8.27
6/5/2022 10:30:00 PM 18.15 64.67 0.165 7.29 203.1 8.32
6/5/2022 10:45:00 PM 18.04 64.472 0.165 7.28 190.3 8.26
6/5/2022 11:00:00 PM 17.93 64.274 0.165 7.28 188.6 8.23
6/5/2022 11:15:00 PM 17.83 64.094 0.165 7.26 206.9 8.33
6/5/2022 11:30:00 PM 17.73 63.914 0.165 7.28 199.4 8.3
6/5/2022 11:45:00 PM 17.63 63.734 0.164 7.26 192.1 8.4
6/6/2022 12:00:00 AM 17.53 63.554 0.162 7.26 195.4 8.23
6/6/2022 12:15:00 AM 17.44 63.392 0.162 7.25 218.8 8.27
6/6/2022 12:30:00 AM 17.35 63.23 0.161 7.24 217.1 8.19
6/6/2022 12:45:00 AM 17.26 63.068 0.161 7.25 208.1 8.31
6/6/2022 1:00:00 AM 17.17 62.906 0.162 7.25 202.5 8.34
6/6/2022 1:15:00 AM 17.09 62.762 0.161 7.24 195.8 8.35
6/6/2022 1:30:00 AM 17.01 62.618 0.161 7.24 187.7 8.24
6/6/2022 1:45:00 AM 16.93 62.474 0.161 7.25 184.6 8.37
6/6/2022 2:00:00 AM 16.85 62.33 0.16 7.25 191.2 8.37
6/6/2022 2:15:00 AM 16.78 62.204 0.16 7.24 198.1 8.38
6/6/2022 2:30:00 AM 16.71 62.078 0.161 7.25 177.6 8.39
6/6/2022 2:45:00 AM 16.64 61.952 0.163 7.24 189.8 8.23
6/6/2022 3:00:00 AM 16.58 61.844 0.162 7.24 187.2 8.34
6/6/2022 3:15:00 AM 16.5 61.7 0.162 7.24 186.9 8.37
6/6/2022 3:30:00 AM 16.43 61.574 0.163 7.24 182.2 8.46
6/6/2022 3:45:00 AM 16.36 61.448 0.163 7.23 181.4 8.58
6/6/2022 4:00:00 AM 16.29 61.322 0.163 7.24 186.7 8.45
6/6/2022 4:15:00 AM 16.22 61.196 0.15 7.25 188.7 8.46
6/6/2022 4:30:00 AM 16.15 61.07 0.151 7.24 185.8 8.45
6/6/2022 4:45:00 AM 16.08 60.944 0.15 7.25 201.9 8.38
6/6/2022 5:00:00 AM 16 60.8 0.151 7.22 192.1 8.44
6/6/2022 5:15:00 AM 15.93 60.674 0.152 7.25 171.5 8.54
6/6/2022 5:30:00 AM 15.85 60.53 0.152 7.23 176.8 8.47
6/6/2022 5:45:00 AM 15.78 60.404 0.152 7.24 170 8.62
6/6/2022 6:00:00 AM 15.7 60.26 0.16 7.23 172.4 8.55
6/6/2022 6:15:00 AM 15.63 60.134 0.16 7.24 172.5 8.51
6/6/2022 6:30:00 AM 15.56 60.008 0.16 7.24 176.3 8.5
6/6/2022 6:45:00 AM 15.48 59.864 0.16 7.23 173.2 8.35
6/6/2022 7:00:00 AM 15.41 59.738 0.161 7.25 175.2 8.77
6/6/2022 7:15:00 AM 15.35 59.63 0.161 7.24 177.6 8.49
6/6/2022 7:30:00 AM 15.29 59.522 0.16 7.25 171.7 8.66
6/6/2022 7:45:00 AM 15.24 59.432 0.161 7.25 184.7 8.67
6/6/2022 8:00:00 AM 15.22 59.396 0.161 7.26 172.4 8.71
6/6/2022 8:15:00 AM 15.2 59.36 0.161 7.26 170.6 8.42
6/6/2022 8:30:00 AM 15.19 59.342 0.162 7.28 172.9 8.65
6/6/2022 8:45:00 AM 15.2 59.36 0.162 7.28 173.2 9.15
6/6/2022 9:00:00 AM 15.22 59.396 0.162 7.29 166.6 9.08
6/6/2022 9:15:00 AM 15.25 59.45 0.155 7.29 175.1 8.96
6/6/2022 9:30:00 AM 15.29 59.522 0.154 7.28 168.6 9
6/6/2022 9:45:00 AM 15.35 59.63 0.154 7.3 165.4 9.08
6/6/2022 10:00:00 AM 15.43 59.774 0.154 7.3 169 9.08
6/6/2022 10:15:00 AM 15.53 59.954 0.154 7.32 166.9 9.03
6/6/2022 10:30:00 AM 15.67 60.206 0.158 7.34 171.9 9.13
6/6/2022 10:45:00 AM 15.83 60.494 0.159 7.35 171 9.19
6/6/2022 11:00:00 AM 16.03 60.854 0.158 7.36 172.5 9.09
6/6/2022 11:15:00 AM 16.23 61.214 0.159 7.34 170.4 9.35
6/6/2022 11:30:00 AM 16.46 61.628 0.159 7.39 182.5 9.28
6/6/2022 11:45:00 AM 16.7 62.06 0.16 7.41 168.3 9.26
6/6/2022 12:00:00 PM 17 62.6 0.16 7.41 166.5 9.39
6/6/2022 12:15:00 PM 17.31 63.158 0.16 7.43 172.1 9.29
6/6/2022 12:30:00 PM 17.64 63.752 0.16 7.43 166.6 9.42
6/6/2022 12:45:00 PM 17.97 64.346 0.16 7.45 173.1 9.33
6/6/2022 1:00:00 PM 18.35 65.03 0.16 7.47 167.4 9.38
6/6/2022 1:15:00 PM 18.7 65.66 0.16 7.46 163.1 9.4
6/6/2022 1:30:00 PM 19.06 66.308 0.159 7.49 175.8 9.32
6/6/2022 1:45:00 PM 19.42 66.956 0.159 7.51 159.9 9.37
6/6/2022 2:00:00 PM 19.76 67.568 0.159 7.52 159.1 9.43
6/6/2022 2:15:00 PM 20.08 68.144 0.159 7.52 160.7 9.21
6/6/2022 2:30:00 PM 20.34 68.612 0.159 7.54 163.5 9.39
6/6/2022 2:45:00 PM 20.57 69.026 0.16 7.54 163.1 9.38
6/6/2022 3:00:00 PM 20.73 69.314 0.159 7.56 159.4 9.35
6/6/2022 3:15:00 PM 20.84 69.512 0.159 7.56 163.1 9.22
6/6/2022 3:30:00 PM 20.92 69.656 0.158 7.56 195.6 9.29
6/6/2022 3:45:00 PM 20.98 69.764 0.16 7.56 163.3 9.2
6/6/2022 4:00:00 PM 20.97 69.746 0.16 7.55 154.7 9.21
6/6/2022 4:15:00 PM 20.93 69.674 0.16 7.56 158.8 8.94
6/6/2022 4:30:00 PM 20.86 69.548 0.159 7.55 158.5 8.88
6/6/2022 4:45:00 PM 20.75 69.35 0.16 7.55 162.4 8.93
6/6/2022 5:00:00 PM 20.66 69.188 0.159 7.54 156.9 8.51
6/6/2022 5:15:00 PM 20.58 69.044 0.159 7.54 167.2 8.36
6/6/2022 5:30:00 PM 20.49 68.882 0.159 7.52 161.4 8.84
6/6/2022 5:45:00 PM 20.39 68.702 0.159 7.51 166 8.77
6/6/2022 6:00:00 PM 20.3 68.54 0.158 7.47 165.6 8.58
6/6/2022 6:15:00 PM 20.19 68.342 0.159 7.48 171.6 8.66
6/6/2022 6:30:00 PM 20.09 68.162 0.157 7.47 176.3 8.58
6/6/2022 6:45:00 PM 19.97 67.946 0.157 7.46 179.7 8.61
6/6/2022 7:00:00 PM 19.86 67.748 0.157 7.45 183.4 8.57
6/6/2022 7:15:00 PM 19.74 67.532 0.157 7.43 190.4 8.51
6/6/2022 7:30:00 PM 19.63 67.334 0.15 7.42 200.3 8.39
6/6/2022 7:45:00 PM 19.53 67.154 0.15 7.4 216.8 8.48
6/6/2022 8:00:00 PM 19.44 66.992 0.15 7.38 190.4 8.31
6/6/2022 8:15:00 PM 19.33 66.794 0.149 7.37 193.6 8.3
6/6/2022 8:30:00 PM 19.22 66.596 0.149 7.34 196.6 8.18
6/6/2022 8:45:00 PM 19.12 66.416 0.149 7.34 194.5 8.15
6/6/2022 9:00:00 PM 19.02 66.236 0.164 7.33 201.7 8.18
6/6/2022 9:15:00 PM 18.91 66.038 0.16 7.33 201.6 8.18
6/6/2022 9:30:00 PM 18.81 65.858 0.162 7.31 202.8 8.23
6/6/2022 9:45:00 PM 18.7 65.66 0.161 7.32 203.8 8.25
6/6/2022 10:00:00 PM 18.59 65.462 0.161 7.3 227.8 8.17
6/6/2022 10:15:00 PM 18.49 65.282 0.162 7.29 231.5 8.16
6/6/2022 10:30:00 PM 18.38 65.084 0.162 7.27 272.7 8.17
6/6/2022 10:45:00 PM 18.28 64.904 0.165 7.25 216.7 8.14
6/6/2022 11:00:00 PM 18.18 64.724 0.164 7.27 217.2 8.25
6/6/2022 11:15:00 PM 18.08 64.544 0.166 7.26 219 8.25
6/6/2022 11:30:00 PM 17.99 64.382 0.166 7.27 223.3 8.26
6/6/2022 11:45:00 PM 17.91 64.238 0.166 7.25 224.5 8.29
6/7/2022 12:00:00 AM 17.82 64.076 0.166 7.23 242 8.21
6/7/2022 12:15:00 AM 17.74 63.932 0.163 7.26 225.7 8.14
6/7/2022 12:30:00 AM 17.65 63.77 0.162 7.24 253.5 8.14
6/7/2022 12:45:00 AM 17.58 63.644 0.162 7.23 221.7 8.26
6/7/2022 1:00:00 AM 17.51 63.518 0.161 7.24 224.6 8.18
6/7/2022 1:15:00 AM 17.44 63.392 0.161 7.22 216.4 8.08
6/7/2022 1:30:00 AM 17.37 63.266 0.16 7.24 215.1 8.29
6/7/2022 1:45:00 AM 17.3 63.14 0.161 7.22 221.4 8.29
6/7/2022 2:00:00 AM 17.23 63.014 0.162 7.23 219 8.38
6/7/2022 2:15:00 AM 17.18 62.924 0.164 7.23 226.7 8.31
6/7/2022 2:30:00 AM 17.11 62.798 0.161 7.21 221.6 8.4
6/7/2022 2:45:00 AM 17.06 62.708 0.166 7.23 211.7 8.31
6/7/2022 3:00:00 AM 17 62.6 0.166 7.24 226.9 8.34
6/7/2022 3:15:00 AM 16.95 62.51 0.166 7.21 208.7 8.35
6/7/2022 3:30:00 AM 16.89 62.402 0.166 7.23 217.6 8.27
6/7/2022 3:45:00 AM 16.84 62.312 0.166 7.21 234 8.45
6/7/2022 4:00:00 AM 16.79 62.222 0.166 7.23 307.8 8.41
6/7/2022 4:15:00 AM 16.73 62.114 0.166 7.23 268.3 8.44
6/7/2022 4:30:00 AM 16.67 62.006 0.166 7.24 226.6 8.36
6/7/2022 4:45:00 AM 16.62 61.916 0.166 7.22 220.6 8.42
6/7/2022 5:00:00 AM 16.56 61.808 0.165 7.23 200 8.36
6/7/2022 5:15:00 AM 16.5 61.7 0.163 7.23 194.9 8.38
6/7/2022 5:30:00 AM 16.44 61.592 0.16 7.24 188.9 8.32
6/7/2022 5:45:00 AM 16.38 61.484 0.161 7.23 183.7 8.4
6/7/2022 6:00:00 AM 16.32 61.376 0.162 7.25 182.8 8.31
6/7/2022 6:15:00 AM 16.26 61.268 0.162 7.23 182.3 8.44
6/7/2022 6:30:00 AM 16.21 61.178 0.166 7.26 178.1 8.43
6/7/2022 6:45:00 AM 16.17 61.106 0.158 7.23 181.5 8.52
6/7/2022 7:00:00 AM 16.15 61.07 0.158 7.25 182.4 8.46
6/7/2022 7:15:00 AM 16.13 61.034 0.159 7.25 192.7 8.44
6/7/2022 7:30:00 AM 16.12 61.016 0.158 7.25 204.7 8.6
6/7/2022 7:45:00 AM 16.12 61.016 0.159 7.25 193.8 8.51
6/7/2022 8:00:00 AM 16.12 61.016 0.158 7.29 196.1 8.71
6/7/2022 8:15:00 AM 16.13 61.034 0.159 7.29 230.8 8.77
6/7/2022 8:30:00 AM 16.15 61.07 0.159 7.29 204.9 8.78
6/7/2022 8:45:00 AM 16.18 61.124 0.16 7.31 189.8 9
6/7/2022 9:00:00 AM 16.22 61.196 0.16 7.31 199.2 8.87
6/7/2022 9:15:00 AM 16.26 61.268 0.16 7.33 211.1 8.79
6/7/2022 9:30:00 AM 16.34 61.412 0.16 7.34 189 8.96
6/7/2022 9:45:00 AM 16.42 61.556 0.16 7.34 195.4 9.24
6/7/2022 10:00:00 AM 16.5 61.7 0.16 7.36 193.7 8.79
6/7/2022 10:15:00 AM 16.6 61.88 0.159 7.38 191.4 9.23
6/7/2022 10:30:00 AM 16.71 62.078 0.159 7.4 196.6 9.26
6/7/2022 10:45:00 AM 16.81 62.258 0.16 7.41 195 9.3
6/7/2022 11:00:00 AM 16.97 62.546 0.159 7.43 179.5 9.19
6/7/2022 11:15:00 AM 17.15 62.87 0.159 7.46 155.1 9.02
6/7/2022 11:30:00 AM 17.3 63.14 0.159 7.46 169.3 9.38
6/7/2022 11:45:00 AM 17.42 63.356 0.159 7.48 160.2 9.11
6/7/2022 12:00:00 PM 17.55 63.59 0.159 7.51 145 9.1
6/7/2022 12:15:00 PM 17.67 63.806 0.158 7.5 158.3 9.33
6/7/2022 12:30:00 PM 17.81 64.058 0.158 7.52 154.7 9.26
6/7/2022 12:45:00 PM 17.96 64.328 0.157 7.53 147.2 9.32
6/7/2022 1:00:00 PM 18.1 64.58 0.157 7.55 145.9 9.52
6/7/2022 1:15:00 PM 18.22 64.796 0.157 7.58 153.1 9.58
6/7/2022 1:30:00 PM 18.29 64.922 0.157 7.58 150.1 9.45
6/7/2022 1:45:00 PM 18.33 64.994 0.157 7.59 143.9 9.45
6/7/2022 2:00:00 PM 18.35 65.03 0.157 7.61 153.6 9.45
6/7/2022 2:15:00 PM 18.37 65.066 0.157 7.59 149.1 9.42
6/7/2022 2:30:00 PM 18.4 65.12 0.157 7.59 148.7 9.18
6/7/2022 2:45:00 PM 18.43 65.174 0.157 7.6 154.5 9.39
6/7/2022 3:00:00 PM 18.44 65.192 0.155 7.6 142 9.33
6/7/2022 3:15:00 PM 18.42 65.156 0.155 7.57 135.1 9.2
6/7/2022 3:30:00 PM 18.42 65.156 0.155 7.54 135.5 9.25
6/7/2022 3:45:00 PM 18.41 65.138 0.156 7.56 143.8 9.1
6/7/2022 4:00:00 PM 18.4 65.12 0.155 7.53 151.5 9.19
6/7/2022 4:15:00 PM 18.39 65.102 0.155 7.53 148 9.15
6/7/2022 4:30:00 PM 18.39 65.102 0.155 7.55 157.8 9.04
6/7/2022 4:45:00 PM 18.37 65.066 0.155 7.53 160.7 9.07
6/7/2022 5:00:00 PM 18.34 65.012 0.155 7.51 169.6 8.99
6/7/2022 5:15:00 PM 18.3 64.94 0.154 7.51 156.8 8.91
6/7/2022 5:30:00 PM 18.28 64.904 0.153 7.47 168.3 8.83
6/7/2022 5:45:00 PM 18.24 64.832 0.154 7.45 179.9 8.72
6/7/2022 6:00:00 PM 18.21 64.778 0.154 7.44 146.5 8.66
6/7/2022 6:15:00 PM 18.19 64.742 0.154 7.4 149.1 8.52
6/7/2022 6:30:00 PM 18.15 64.67 0.163 7.38 178.2 8.62
6/7/2022 6:45:00 PM 18.12 64.616 0.163 7.38 151.3 8.51
6/7/2022 7:00:00 PM 18.1 64.58 0.163 7.36 155.4 8.42
6/7/2022 7:15:00 PM 18.07 64.526 0.163 7.36 159.6 8.39
6/7/2022 7:30:00 PM 18.04 64.472 0.151 7.34 153.1 8.41
6/7/2022 7:45:00 PM 18 64.4 0.149 7.33 139.6 8.35
6/7/2022 8:00:00 PM 17.97 64.346 0.163 7.32 142.7 8.42
6/7/2022 8:15:00 PM 17.95 64.31 0.162 7.3 134.1 8.32
6/7/2022 8:30:00 PM 17.92 64.256 0.162 7.29 138.3 8.47
6/7/2022 8:45:00 PM 17.9 64.22 0.161 7.27 152 8.42
6/7/2022 9:00:00 PM 17.87 64.166 0.161 7.28 154.8 8.42
6/7/2022 9:15:00 PM 17.86 64.148 0.16 7.26 137.4 8.4
6/7/2022 9:30:00 PM 17.84 64.112 0.16 7.25 144.6 8.37
6/7/2022 9:45:00 PM 17.82 64.076 0.16 7.24 140.2 8.37
6/7/2022 10:00:00 PM 17.81 64.058 0.16 7.24 132.8 8.39
6/7/2022 10:15:00 PM 17.79 64.022 0.161 7.24 142 8.32
6/7/2022 10:30:00 PM 17.77 63.986 0.161 7.22 135.3 8.3
6/7/2022 10:45:00 PM 17.75 63.95 0.161 7.22 124.6 8.34
6/7/2022 11:00:00 PM 17.73 63.914 0.161 7.22 124.4 8.27
6/7/2022 11:15:00 PM 17.71 63.878 0.161 7.21 122.8 8.25
6/7/2022 11:30:00 PM 17.69 63.842 0.161 7.2 121.4 8.23
6/7/2022 11:45:00 PM 17.67 63.806 0.158 7.19 120.7 8.08
6/8/2022 12:00:00 AM 17.64 63.752 0.157 7.19 119.1 8.29
6/8/2022 12:15:00 AM 17.62 63.716 0.157 7.19 122.8 8.28
6/8/2022 12:30:00 AM 17.6 63.68 0.146 7.19 129.4 8.28
6/8/2022 12:45:00 AM 17.58 63.644 0.148 7.19 122.5 8.16
6/8/2022 1:00:00 AM 17.56 63.608 0.148 7.18 141 8.2
6/8/2022 1:15:00 AM 17.54 63.572 0.148 7.18 141.9 8.12
6/8/2022 1:30:00 AM 17.51 63.518 0.16 7.18 143 8.24
6/8/2022 1:45:00 AM 17.49 63.482 0.16 7.18 128.8 8.26
6/8/2022 2:00:00 AM 17.47 63.446 0.145 7.17 111.7 8.1
6/8/2022 2:15:00 AM 17.45 63.41 0.155 7.18 120.5 8.21
6/8/2022 2:30:00 AM 17.44 63.392 0.156 7.18 127.9 8.23
6/8/2022 2:45:00 AM 17.42 63.356 0.155 7.18 130.4 8.27
6/8/2022 3:00:00 AM 17.4 63.32 0.154 7.18 136.2 8.22
6/8/2022 3:15:00 AM 17.38 63.284 0.154 7.16 167.5 8.32
6/8/2022 3:30:00 AM 17.37 63.266 0.154 7.17 153.8 8.12
6/8/2022 3:45:00 AM 17.36 63.248 0.155 7.16 129.6 8.29
6/8/2022 4:00:00 AM 17.34 63.212 0.154 7.17 121.8 8.25
6/8/2022 4:15:00 AM 17.33 63.194 0.157 7.17 140.3 8.24
6/8/2022 4:30:00 AM 17.32 63.176 0.157 7.17 120.5 8.19
6/8/2022 4:45:00 AM 17.3 63.14 0.157 7.16 133.7 8.27
6/8/2022 5:00:00 AM 17.28 63.104 0.157 7.16 136.8 8.19
6/8/2022 5:15:00 AM 17.26 63.068 0.158 7.17 148.9 8.06
6/8/2022 5:30:00 AM 17.24 63.032 0.158 7.16 316 8.24
6/8/2022 5:45:00 AM 17.22 62.996 0.156 7.17 123.7 8.23
6/8/2022 6:00:00 AM 17.2 62.96 0.155 7.17 122.2 8.29
6/8/2022 6:15:00 AM 17.18 62.924 0.155 7.17 114.1 8.26
6/8/2022 6:30:00 AM 17.16 62.888 0.156 7.17 122.2 8.5
6/8/2022 6:45:00 AM 17.14 62.852 0.156 7.18 123.7 8.31
6/8/2022 7:00:00 AM 17.11 62.798 0.156 7.18 652 8.41
6/8/2022 7:15:00 AM 17.09 62.762 0.156 7.18 1247 8.23
6/8/2022 7:30:00 AM 17.07 62.726 0.157 7.18 142.3 8.51
6/8/2022 7:45:00 AM 17.07 62.726 0.157 7.19 177.2 8.31
6/8/2022 8:00:00 AM 17.08 62.744 0.158 7.2 800.4 8.43
6/8/2022 8:15:00 AM 17.1 62.78 0.156 7.21 741.2 8.54
6/8/2022 8:30:00 AM 17.13 62.834 0.159 7.23 813.8 8.54
6/8/2022 8:45:00 AM 17.17 62.906 0.159 7.25 1121 8.59
6/8/2022 9:00:00 AM 17.23 63.014 0.159 7.27 712.3 8.83
6/8/2022 9:15:00 AM 17.29 63.122 0.158 7.29 453.9 8.7
6/8/2022 9:30:00 AM 17.33 63.194 0.158 7.32 500.3 8.79
6/8/2022 9:45:00 AM 17.41 63.338 0.164 7.32 319.3 8.87
6/8/2022 10:00:00 AM 17.51 63.518 0.163 7.34 269.9 8.89
6/8/2022 10:15:00 AM 17.58 63.644 0.164 7.36 1030 8.97
6/8/2022 10:30:00 AM 17.68 63.824 0.163 7.38 204 8.97
6/8/2022 10:45:00 AM 17.79 64.022 0.163 7.41 97.32 9.15
6/8/2022 11:00:00 AM 17.87 64.166 0.163 7.44 86.7 9.17
6/8/2022 11:15:00 AM 18 64.4 0.163 7.45 74.09 9.22
6/8/2022 11:30:00 AM 18.12 64.616 0.163 7.47 58.83 9.16
6/8/2022 11:45:00 AM 18.26 64.868 0.163 7.5 56.8 9.11
6/8/2022 12:00:00 PM 18.36 65.048 0.163 7.52 57.15 9.23
6/8/2022 12:15:00 PM 18.49 65.282 0.163 7.54 54.88 9.25
6/8/2022 12:30:00 PM 18.83 65.894 0.163 7.54 56.85 9.26
6/8/2022 12:45:00 PM 19.16 66.488 0.164 7.57 55.57 9.08
6/8/2022 1:00:00 PM 19.47 67.046 0.164 7.6 437 9.24
6/8/2022 1:15:00 PM 19.8 67.64 0.164 7.61 3016 9.26
6/8/2022 1:30:00 PM 20.15 68.27 0.164 7.62 2342 9.32
6/8/2022 1:45:00 PM 20.35 68.63 0.164 7.64 4581 9.32
6/8/2022 2:00:00 PM 20.59 69.062 0.164 7.64 3354 9.17
6/8/2022 2:15:00 PM 20.91 69.638 0.164 7.66 2972 9.22
6/8/2022 2:30:00 PM 21.2 70.16 0.164 7.69 3085 9.11
6/8/2022 2:45:00 PM 21.42 70.556 0.164 7.69 2344 9.17
6/8/2022 3:00:00 PM 21.49 70.682 0.164 7.71 1532 8.97
6/8/2022 3:15:00 PM 21.64 70.952 0.164 7.7 1656 9
6/8/2022 3:30:00 PM 21.8 71.24 0.164 7.71 1784 8.92
6/8/2022 3:45:00 PM 22.01 71.618 0.164 7.71 846.1 8.95
6/8/2022 4:00:00 PM 22.1 71.78 0.164 7.71 524.7 8.89
6/8/2022 4:15:00 PM 22.11 71.798 0.165 7.73 406 8.85
6/8/2022 4:30:00 PM 22.07 71.726 0.165 7.72 365.9 8.77
6/8/2022 4:45:00 PM 21.96 71.528 0.165 7.71 526.8 8.68
6/8/2022 5:00:00 PM 21.85 71.33 0.165 7.7 586.1 8.67
6/8/2022 5:15:00 PM 21.76 71.168 0.165 7.68 1115 8.6
6/8/2022 5:30:00 PM 21.68 71.024 0.165 7.66 608.2 8.58
6/8/2022 5:45:00 PM 21.62 70.916 0.165 7.63 1136 8.4
6/8/2022 6:00:00 PM 21.57 70.826 0.165 7.62 1440 8.47
6/8/2022 6:15:00 PM 21.5 70.7 0.165 7.59 1418 8.52
6/8/2022 6:30:00 PM 21.42 70.556 0.165 7.58 1383 8.51
6/8/2022 6:45:00 PM 21.33 70.394 0.165 7.57 1155 8.4
6/8/2022 7:00:00 PM 21.24 70.232 0.165 7.54 442.9 8.27
6/8/2022 7:15:00 PM 21.14 70.052 0.165 7.53 713.9 8.08
6/8/2022 7:30:00 PM 21.07 69.926 0.165 7.48 722.2 8.17
6/8/2022 7:45:00 PM 20.99 69.782 0.165 7.46 636.6 8.07
6/8/2022 8:00:00 PM 20.91 69.638 0.166 7.43 561.7 7.97
6/8/2022 8:15:00 PM 20.85 69.53 0.166 7.41 921.1 7.87
6/8/2022 8:30:00 PM 20.8 69.44 0.166 7.37 650.7 7.8
6/8/2022 8:45:00 PM 20.75 69.35 0.166 7.36 864.6 7.84
6/8/2022 9:00:00 PM 20.7 69.26 0.166 7.33 849.2 7.82
6/8/2022 9:15:00 PM 20.64 69.152 0.166 7.3 575.5 7.69
6/8/2022 9:30:00 PM 20.59 69.062 0.166 7.3 385.5 7.74
6/8/2022 9:45:00 PM 20.53 68.954 0.166 7.29 318.4 7.74
6/8/2022 10:00:00 PM 20.47 68.846 0.166 7.29 1886 7.71
6/8/2022 10:15:00 PM 20.41 68.738 0.166 7.26 2373 7.68
6/8/2022 10:30:00 PM 20.35 68.63 0.166 7.26 2008 7.71
6/8/2022 10:45:00 PM 20.28 68.504 0.166 7.25 2439 7.68
6/8/2022 11:00:00 PM 20.22 68.396 0.166 7.24 3331 7.68
6/8/2022 11:15:00 PM 20.15 68.27 0.166 7.24 3871 7.7
6/8/2022 11:30:00 PM 20.09 68.162 0.166 7.21 3882 7.46
6/8/2022 11:45:00 PM 20.02 68.036 0.166 7.23 4528 7.72
6/9/2022 12:00:00 AM 19.97 67.946 0.166 7.22 4580 7.68
6/9/2022 12:15:00 AM 19.92 67.856 0.166 7.22 2286 7.71
6/9/2022 12:30:00 AM 19.88 67.784 0.166 7.22 99.89 7.59
6/9/2022 12:45:00 AM 19.83 67.694 0.166 7.22 100.8 7.71
6/9/2022 1:00:00 AM 19.8 67.64 0.166 7.2 89.24 7.67
6/9/2022 1:15:00 AM 19.76 67.568 0.165 7.23 77.89 7.66
6/9/2022 1:30:00 AM 19.73 67.514 0.165 7.23 66.61 7.73
6/9/2022 1:45:00 AM 19.7 67.46 0.165 7.23 70.75 7.72
6/9/2022 2:00:00 AM 19.67 67.406 0.165 7.22 61.32 7.79
6/9/2022 2:15:00 AM 19.65 67.37 0.162 7.22 60.62 7.8
6/9/2022 2:30:00 AM 19.62 67.316 0.161 7.22 58.49 7.69
6/9/2022 2:45:00 AM 19.6 67.28 0.16 7.22 53.56 7.75
6/9/2022 3:00:00 AM 19.58 67.244 0.159 7.21 53.45 7.83
6/9/2022 3:15:00 AM 19.55 67.19 0.158 7.2 65.56 7.5
6/9/2022 3:30:00 AM 19.53 67.154 0.159 7.21 51.24 7.62
6/9/2022 3:45:00 AM 19.5 67.1 0.16 7.2 51.22 7.01
6/9/2022 4:00:00 AM 19.47 67.046 0.159 7.22 81.92 7.68
6/9/2022 4:15:00 AM 19.44 66.992 0.162 7.21 54.2 7.67
6/9/2022 4:30:00 AM 19.41 66.938 0.161 7.23 79.41 7.71
6/9/2022 4:45:00 AM 19.38 66.884 0.162 7.21 54.39 7.67
6/9/2022 5:00:00 AM 19.35 66.83 0.161 7.21 54.65 7.64
6/9/2022 5:15:00 AM 19.31 66.758 0.165 7.2 63.55 7.76
6/9/2022 5:30:00 AM 19.28 66.704 0.161 7.22 55.62 7.78
6/9/2022 5:45:00 AM 19.23 66.614 0.165 7.21 72.48 7.81
6/9/2022 6:00:00 AM 19.2 66.56 0.165 7.21 64.18 7.8
6/9/2022 6:15:00 AM 19.15 66.47 0.165 7.21 54.06 7.76
6/9/2022 6:30:00 AM 19.11 66.398 0.165 7.23 57.74 7.79
6/9/2022 6:45:00 AM 19.07 66.326 0.165 7.21 74.19 7.79
6/9/2022 7:00:00 AM 19.03 66.254 0.164 7.22 61.14 7.94
6/9/2022 7:15:00 AM 18.99 66.182 0.165 7.21 82.87 7.87
6/9/2022 7:30:00 AM 18.96 66.128 0.165 7.22 74.33 8
6/9/2022 7:45:00 AM 18.92 66.056 0.165 7.22 54.41 7.87
6/9/2022 8:00:00 AM 18.9 66.02 0.165 7.24 78.5 8.05
6/9/2022 8:15:00 AM 18.88 65.984 0.165 7.25 60.35 8.03
6/9/2022 8:30:00 AM 18.87 65.966 0.165 7.26 56.28 8.04
6/9/2022 8:45:00 AM 18.86 65.948 0.165 7.27 52.74 8.15
6/9/2022 9:00:00 AM 18.86 65.948 0.165 7.27 75.38 7.97
6/9/2022 9:15:00 AM 18.87 65.966 0.165 7.27 62.92 8.17
6/9/2022 9:30:00 AM 18.9 66.02 0.165 7.27 49.04 8.24
6/9/2022 9:45:00 AM 18.95 66.11 0.165 7.29 53.55 8.33
6/9/2022 10:00:00 AM 19.02 66.236 0.165 7.31 79.91 8.37
6/9/2022 10:15:00 AM 19.09 66.362 0.165 7.32 53.97 8.39
6/9/2022 10:30:00 AM 19.15 66.47 0.165 7.34 52.41 8.5
6/9/2022 10:45:00 AM 19.24 66.632 0.165 7.37 64.35 8.58
6/9/2022 11:00:00 AM 19.36 66.848 0.165 7.38 57.28 8.61
6/9/2022 11:15:00 AM 19.52 67.136 0.165 7.4 105.3 8.7
6/9/2022 11:30:00 AM 19.64 67.352 0.165 7.41 57.82 8.75
6/9/2022 11:45:00 AM 19.81 67.658 0.165 7.43 51.43 8.79
6/9/2022 12:00:00 PM 20.02 68.036 0.165 7.44 50.62 8.74
6/9/2022 12:15:00 PM 20.25 68.45 0.165 7.47 56.58 8.86
6/9/2022 12:30:00 PM 20.5 68.9 0.165 7.49 51.27 9
6/9/2022 12:45:00 PM 20.82 69.476 0.165 7.51 49.81 8.92
6/9/2022 1:00:00 PM 21.09 69.962 0.164 7.52 64.27 8.91
6/9/2022 1:15:00 PM 21.36 70.448 0.165 7.55 41.87 8.89
6/9/2022 1:30:00 PM 21.65 70.97 0.165 7.56 46.95 8.92
6/9/2022 1:45:00 PM 21.98 71.564 0.165 7.59 41.43 8.93
6/9/2022 2:00:00 PM 22.24 72.032 0.165 7.59 70.98 8.95
6/9/2022 2:15:00 PM 22.44 72.392 0.165 7.62 65.84 8.91
6/9/2022 2:30:00 PM 22.57 72.626 0.165 7.65 38.92 8.83
6/9/2022 2:45:00 PM 22.57 72.626 0.165 7.65 41.17 8.88
6/9/2022 3:00:00 PM 22.56 72.608 0.165 7.65 52.96 8.74
6/9/2022 3:15:00 PM 22.72 72.896 0.165 7.64 54.79 8.71
6/9/2022 3:30:00 PM 22.9 73.22 0.165 7.66 46.99 8.61
6/9/2022 3:45:00 PM 22.93 73.274 0.165 7.68 66.88 8.7
6/9/2022 4:00:00 PM 22.83 73.094 0.165 7.67 48.76 8.67
6/9/2022 4:15:00 PM 22.76 72.968 0.165 7.68 57.01 8.58
6/9/2022 4:30:00 PM 22.64 72.752 0.165 7.68 60.38 8.61
6/9/2022 4:45:00 PM 22.42 72.356 0.165 7.7 46.25 8.56
6/9/2022 5:00:00 PM 22.23 72.014 0.165 7.66 47.87 8.5
6/9/2022 5:15:00 PM 22.09 71.762 0.146 7.63 58.36 8.5
6/9/2022 5:30:00 PM 21.97 71.546 0.165 7.63 1565 8.42
6/9/2022 5:45:00 PM 21.87 71.366 0.165 7.62 56.51 8.31
6/9/2022 6:00:00 PM 21.73 71.114 0.17 7.62 54.83 8.26
6/9/2022 6:15:00 PM 21.59 70.862 0.166 7.59 62.88 8.3
6/9/2022 6:30:00 PM 21.47 70.646 0.166 7.56 91.23 8.12
6/9/2022 6:45:00 PM 21.35 70.43 0.166 7.55 68.38 8.16
6/9/2022 7:00:00 PM 21.21 70.17799 0.153 7.54 73.45 8.15
6/9/2022 7:15:00 PM 21.07 69.926 0.149 7.49 68.16 8.04
6/9/2022 7:30:00 PM 20.94 69.692 0.152 7.49 55.78 8.1
6/9/2022 7:45:00 PM 20.83 69.494 0.166 7.46 55.23 7.99
6/9/2022 8:00:00 PM 20.7 69.26 0.166 7.44 54.78 7.96
6/9/2022 8:15:00 PM 20.58 69.044 0.166 7.43 45.77 7.92
6/9/2022 8:30:00 PM 20.46 68.828 0.166 7.39 53.08 7.82
6/9/2022 8:45:00 PM 20.36 68.648 0.166 7.39 54.55 7.85
6/9/2022 9:00:00 PM 20.26 68.468 0.166 7.37 65.89 7.82
6/9/2022 9:15:00 PM 20.17 68.306 0.166 7.37 55.34 7.76
6/9/2022 9:30:00 PM 20.07 68.126 0.166 7.33 49.87 7.75
6/9/2022 9:45:00 PM 19.96 67.92799 0.166 7.33 65.16 7.69
6/9/2022 10:00:00 PM 19.86 67.748 0.166 7.33 47.46 7.78
6/9/2022 10:15:00 PM 19.76 67.568 0.166 7.32 48.25 7.79
6/9/2022 10:30:00 PM 19.65 67.37 0.166 7.32 43.77 7.81
6/9/2022 10:45:00 PM 19.54 67.172 0.167 7.31 47.7 7.79
6/9/2022 11:00:00 PM 19.42 66.956 0.167 7.29 74.57 7.84
6/9/2022 11:15:00 PM 19.33 66.794 0.167 7.29 63.9 7.8
6/9/2022 11:30:00 PM 19.21 66.578 0.167 7.29 44.53 7.88
6/9/2022 11:45:00 PM 19.1 66.38 0.167 7.29 49.72 7.88
6/10/2022 12:00:00 AM 19 66.2 0.167 7.3 40.78 7.94
6/10/2022 12:15:00 AM 18.88 65.984 0.167 7.28 51.39 7.91
6/10/2022 12:30:00 AM 18.78 65.804 0.167 7.29 45 7.91
6/10/2022 12:45:00 AM 18.66 65.588 0.167 7.27 61.03 7.97
6/10/2022 1:00:00 AM 18.55 65.39 0.167 7.28 42.39 7.89
6/10/2022 1:15:00 AM 18.44 65.192 0.167 7.28 41.46 7.92
6/10/2022 1:30:00 AM 18.34 65.012 0.167 7.27 108.1 8.1
6/10/2022 1:45:00 AM 18.25 64.85 0.167 7.28 67.49 8.1
6/10/2022 2:00:00 AM 18.15 64.67 0.167 7.3 68.72 8.09
6/10/2022 2:15:00 AM 18.05 64.49 0.167 7.28 176.7 8.09
6/10/2022 2:30:00 AM 17.97 64.346 0.167 7.3 68.33 8.17
6/10/2022 2:45:00 AM 17.89 64.202 0.167 7.28 44.24 7.97
6/10/2022 3:00:00 AM 17.79 64.022 0.167 7.28 48.67 7.87
6/10/2022 3:15:00 AM 17.71 63.878 0.167 7.26 58.09 7.98
6/10/2022 3:30:00 AM 17.62 63.716 0.167 7.28 57 8
6/10/2022 3:45:00 AM 17.54 63.572 0.167 7.27 113.1 8.03
6/10/2022 4:00:00 AM 17.45 63.41 0.167 7.28 51.79 8.03
6/10/2022 4:15:00 AM 17.36 63.248 0.167 7.27 52 8.18
6/10/2022 4:30:00 AM 17.27 63.086 0.167 7.26 75.89 8.18
6/10/2022 4:45:00 AM 17.19 62.942 0.167 7.28 61.58 8.18
6/10/2022 5:00:00 AM 17.1 62.78 0.167 7.28 69.92 8.21
6/10/2022 5:15:00 AM 17.01 62.618 0.167 7.29 82.2 8.26
6/10/2022 5:30:00 AM 16.93 62.474 0.167 7.27 106 8.35
6/10/2022 5:45:00 AM 16.85 62.33 0.167 7.28 96.77 8.34
6/10/2022 6:00:00 AM 16.77 62.186 0.167 7.29 109 8.39
6/10/2022 6:15:00 AM 16.69 62.042 0.167 7.27 110.1 8.36
6/10/2022 6:30:00 AM 16.6 61.88 0.166 7.28 100.7 8.42
6/10/2022 6:45:00 AM 16.53 61.754 0.166 7.29 71.59 8.29
6/10/2022 7:00:00 AM 16.46 61.628 0.166 7.29 84.84 8.24
6/10/2022 7:15:00 AM 16.39 61.502 0.166 7.29 78.65 8.44
6/10/2022 7:30:00 AM 16.33 61.394 0.166 7.3 113.3 8.34
6/10/2022 7:45:00 AM 16.3 61.34 0.166 7.3 93.99 8.32
6/10/2022 8:00:00 AM 16.27 61.286 0.166 7.31 129.1 8.41
6/10/2022 8:15:00 AM 16.26 61.268 0.166 7.31 62.23 8.35
6/10/2022 8:30:00 AM 16.25 61.25 0.166 7.35 83.92 8.51
6/10/2022 8:45:00 AM 16.27 61.286 0.166 7.33 78.47 8.57
6/10/2022 9:00:00 AM 16.29 61.322 0.166 7.34 112.1 8.53
6/10/2022 9:15:00 AM 16.32 61.376 0.166 7.35 204 8.58
6/10/2022 9:30:00 AM 16.36 61.448 0.166 7.36 120.9 8.69
6/10/2022 9:45:00 AM 16.41 61.538 0.166 7.38 89.74 8.75
6/10/2022 10:00:00 AM 16.48 61.664 0.166 7.41 75.25 8.66
6/10/2022 10:15:00 AM 16.57 61.826 0.165 7.4 92.11 8.64
6/10/2022 10:30:00 AM 16.69 62.042 0.165 7.41 104.8 8.75
6/10/2022 10:45:00 AM 16.83 62.294 0.165 7.46 87.87 8.84
6/10/2022 11:00:00 AM 16.98 62.564 0.165 7.47 153 8.81
6/10/2022 11:15:00 AM 17.13 62.834 0.165 7.5 89.06 8.93
6/10/2022 11:30:00 AM 17.3 63.14 0.165 7.5 101 8.9
6/10/2022 11:45:00 AM 17.49 63.482 0.165 7.52 104.7 9.08
6/10/2022 12:00:00 PM 17.73 63.914 0.165 7.54 105.4 9.09
6/10/2022 12:15:00 PM 18.02 64.436 0.165 7.54 97.59 9.25
6/10/2022 12:30:00 PM 18.33 64.994 0.165 7.58 86.34 9.19
6/10/2022 12:45:00 PM 18.67 65.606 0.165 7.57 101.1 9.06
6/10/2022 1:00:00 PM 19 66.2 0.165 7.6 100.2 9.14
6/10/2022 1:15:00 PM 19.29 66.722 0.165 7.62 86.57 9.1
6/10/2022 1:30:00 PM 19.61 67.298 0.165 7.63 161.6 9.16
6/10/2022 1:45:00 PM 19.98 67.964 0.165 7.65 116.6 9.01
6/10/2022 2:00:00 PM 20.26 68.468 0.165 7.68 109.7 8.88
6/10/2022 2:15:00 PM 20.43 68.774 0.165 7.68 87.64 8.93
6/10/2022 2:30:00 PM 20.57 69.026 0.165 7.7 115.4 9.03
6/10/2022 2:45:00 PM 20.77 69.386 0.165 7.72 100.9 8.93
6/10/2022 3:00:00 PM 20.91 69.638 0.165 7.7 134.3 8.98
6/10/2022 3:15:00 PM 21.04 69.872 0.165 7.73 128 9.01
6/10/2022 3:30:00 PM 21.05 69.89 0.165 7.74 714.6 9.01
6/10/2022 3:45:00 PM 21.04 69.872 0.165 7.75 113.5 8.94
6/10/2022 4:00:00 PM 21 69.8 0.165 7.78 108.5 8.78
6/10/2022 4:15:00 PM 20.96 69.728 0.166 7.78 111.1 8.7
6/10/2022 4:30:00 PM 20.91 69.638 0.166 7.77 82.48 8.88
6/10/2022 4:45:00 PM 20.84 69.512 0.166 7.77 116 8.83
6/10/2022 5:00:00 PM 20.78 69.404 0.166 7.76 3085 8.81
6/10/2022 5:15:00 PM 20.72 69.296 0.166 7.78 182 8.83
6/10/2022 5:30:00 PM 20.66 69.188 0.166 7.75 115.2 8.74
6/10/2022 5:45:00 PM 20.55 68.99 0.166 7.75 85.77 8.75
6/10/2022 6:00:00 PM 20.47 68.846 0.166 7.72 116.6 8.69
6/10/2022 6:15:00 PM 20.38 68.684 0.166 7.72 62.98 8.66
6/10/2022 6:30:00 PM 20.29 68.522 0.166 7.69 63.49 8.52
6/10/2022 6:45:00 PM 20.17 68.306 0.166 7.68 65.95 8.41
6/10/2022 7:00:00 PM 20.07 68.126 0.166 7.62 56.37 8.31
6/10/2022 7:15:00 PM 19.98 67.964 0.166 7.63 44.17 8.44
6/10/2022 7:30:00 PM 19.89 67.802 0.166 7.6 53.78 8.39
6/10/2022 7:45:00 PM 19.8 67.64 0.166 7.56 68.47 8.27
6/10/2022 8:00:00 PM 19.72 67.496 0.166 7.56 50.82 8.27
6/10/2022 8:15:00 PM 19.64 67.352 0.166 7.51 65.98 8.2
6/10/2022 8:30:00 PM 19.55 67.19 0.166 7.49 45.06 8.09
6/10/2022 8:45:00 PM 19.48 67.064 0.166 7.45 69.9 8.05
6/10/2022 9:00:00 PM 19.4 66.92 0.166 7.44 57.04 8.08
6/10/2022 9:15:00 PM 19.32 66.776 0.166 7.44 127.8 8
6/10/2022 9:30:00 PM 19.25 66.65 0.166 7.42 66.07 7.95
6/10/2022 9:45:00 PM 19.18 66.524 0.166 7.39 74.68 7.98
6/10/2022 10:00:00 PM 19.1 66.38 0.166 7.39 62.4 7.86
6/10/2022 10:15:00 PM 19.02 66.236 0.166 7.39 59.7 7.73
6/10/2022 10:30:00 PM 18.95 66.11 0.167 7.38 48.07 7.98
6/10/2022 10:45:00 PM 18.88 65.984 0.167 7.36 49.74 7.93
6/10/2022 11:00:00 PM 18.81 65.858 0.167 7.35 78.55 7.98
6/10/2022 11:15:00 PM 18.74 65.732 0.167 7.35 62.83 7.97
6/10/2022 11:30:00 PM 18.67 65.606 0.167 7.34 72.68 7.86
6/10/2022 11:45:00 PM 18.61 65.498 0.167 7.34 86.27 7.86
6/11/2022 12:00:00 AM 18.55 65.39 0.167 7.32 66.02 7.81
6/11/2022 12:15:00 AM 18.49 65.282 0.167 7.32 70.76 7.53
6/11/2022 12:30:00 AM 18.44 65.192 0.167 7.32 80.06 7.83
6/11/2022 12:45:00 AM 18.38 65.084 0.167 7.31 62.63 7.92
6/11/2022 1:00:00 AM 18.34 65.012 0.167 7.32 94.67 7.91
6/11/2022 1:15:00 AM 18.28 64.904 0.167 7.31 63.7 7.79
6/11/2022 1:30:00 AM 18.24 64.832 0.167 7.3 74.98 7.88
6/11/2022 1:45:00 AM 18.19 64.742 0.167 7.31 83.26 7.62
6/11/2022 2:00:00 AM 18.14 64.652 0.166 7.31 65.92 7.62
6/11/2022 2:15:00 AM 18.1 64.58 0.167 7.3 54.35 7.76
6/11/2022 2:30:00 AM 18.06 64.508 0.166 7.29 40.63 7.88
6/11/2022 2:45:00 AM 18.02 64.436 0.166 7.29 24.39 7.84
6/11/2022 3:00:00 AM 17.98 64.364 0.166 7.29 57.06 7.78
6/11/2022 3:15:00 AM 17.93 64.274 0.166 7.28 43.75 7.93
6/11/2022 3:30:00 AM 17.89 64.202 0.166 7.27 62.28 7.88
6/11/2022 3:45:00 AM 17.84 64.112 0.166 7.25 40.72 7.72
6/11/2022 4:00:00 AM 17.8 64.04 0.166 7.26 35.85 7.92
6/11/2022 4:15:00 AM 17.76 63.968 0.167 7.26 31.52 7.7
6/11/2022 4:30:00 AM 17.71 63.878 0.167 7.25 28.97 7.81
6/11/2022 4:45:00 AM 17.67 63.806 0.167 7.25 171.4 7.84
6/11/2022 5:00:00 AM 17.62 63.716 0.167 7.25 41.82 7.57
6/11/2022 5:15:00 AM 17.57 63.626 0.167 7.23 44.21 7.53
6/11/2022 5:30:00 AM 17.52 63.536 0.167 7.24 56.84 8.07
6/11/2022 5:45:00 AM 17.47 63.446 0.167 7.25 45.28 8.13
6/11/2022 6:00:00 AM 17.42 63.356 0.167 7.26 41.87 8.17
6/11/2022 6:15:00 AM 17.38 63.284 0.167 7.24 45.85 7.82
6/11/2022 6:30:00 AM 17.34 63.212 0.167 7.26 44.55 8.14
6/11/2022 6:45:00 AM 17.31 63.158 0.167 7.26 49.52 8.04
6/11/2022 7:00:00 AM 17.28 63.104 0.167 7.25 46.54 8.1
6/11/2022 7:15:00 AM 17.26 63.068 0.167 7.26 32.81 8.16
6/11/2022 7:30:00 AM 17.24 63.032 0.167 7.26 46.51 8.11
6/11/2022 7:45:00 AM 17.22 62.996 0.167 7.27 50.01 8.09
6/11/2022 8:00:00 AM 17.2 62.96 0.167 7.28 47.29 8.17
6/11/2022 8:15:00 AM 17.19 62.942 0.167 7.3 46.04 8.15
6/11/2022 8:30:00 AM 17.17 62.906 0.167 7.3 63.39 7.94
6/11/2022 8:45:00 AM 17.15 62.87 0.167 7.31 57.04 8.26
6/11/2022 9:00:00 AM 17.14 62.852 0.167 7.31 35.71 7.97
6/11/2022 9:15:00 AM 17.13 62.834 0.167 7.31 35.09 8.03
6/11/2022 9:30:00 AM 17.12 62.816 0.167 7.3 55.3 8.11
6/11/2022 9:45:00 AM 17.12 62.816 0.158 7.33 37.5 8.53
6/11/2022 10:00:00 AM 17.12 62.816 0.167 7.32 40.7 8.57
6/11/2022 10:15:00 AM 17.14 62.852 0.166 7.33 37.62 8.52
6/11/2022 10:30:00 AM 17.15 62.87 0.166 7.35 40.87 8.6
6/11/2022 10:45:00 AM 17.19 62.942 0.158 7.37 45.42 8.7
6/11/2022 11:00:00 AM 17.23 63.014 0.157 7.37 46.42 8.46
6/11/2022 11:15:00 AM 17.27 63.086 0.166 7.42 55.34 9.15
6/11/2022 11:30:00 AM 17.31 63.158 0.166 7.44 51.61 9.05
6/11/2022 11:45:00 AM 17.31 63.158 0.166 7.45 39.32 8.79
6/11/2022 12:00:00 PM 17.32 63.176 0.166 7.44 39.46 8.86
6/11/2022 12:15:00 PM 17.32 63.176 0.166 7.47 34.46 8.95
6/11/2022 12:30:00 PM 17.34 63.212 0.166 7.48 41.61 8.92
6/11/2022 12:45:00 PM 17.37 63.266 0.166 7.47 38.23 9.15
6/11/2022 1:00:00 PM 17.38 63.284 0.166 7.49 46.97 9.14
6/11/2022 1:15:00 PM 17.38 63.284 0.166 7.49 41.67 8.89
6/11/2022 1:30:00 PM 17.37 63.266 0.166 7.51 37.96 8.97
6/11/2022 1:45:00 PM 17.36 63.248 0.166 7.51 37.54 8.74
6/11/2022 2:00:00 PM 17.34 63.212 0.166 7.51 33.38 8.97
6/11/2022 2:15:00 PM 17.34 63.212 0.166 7.51 33.66 9.04
6/11/2022 2:30:00 PM 17.33 63.194 0.166 7.51 38.86 8.92
6/11/2022 2:45:00 PM 17.34 63.212 0.166 7.52 41.41 9.01
6/11/2022 3:00:00 PM 17.36 63.248 0.165 7.52 34.24 8.95
6/11/2022 3:15:00 PM 17.37 63.266 0.165 7.54 50.5 8.78
6/11/2022 3:30:00 PM 17.36 63.248 0.165 7.54 38.9 9.09
6/11/2022 3:45:00 PM 17.34 63.212 0.165 7.54 31.96 8.8
6/11/2022 4:00:00 PM 17.32 63.176 0.165 7.55 36.24 8.81
6/11/2022 4:15:00 PM 17.3 63.14 0.165 7.54 40.32 8.68
6/11/2022 4:30:00 PM 17.3 63.14 0.166 7.54 59.64 8.5
6/11/2022 4:45:00 PM 17.31 63.158 0.165 7.53 90.92 8.58
6/11/2022 5:00:00 PM 17.33 63.194 0.166 7.55 77.28 8.51
6/11/2022 5:15:00 PM 17.34 63.212 0.166 7.53 35.64 8.66
6/11/2022 5:30:00 PM 17.37 63.266 0.166 7.56 43.13 8.78
6/11/2022 5:45:00 PM 17.4 63.32 0.165 7.58 36.69 8.99
6/11/2022 6:00:00 PM 17.43 63.374 0.166 7.57 38.86 8.74
6/11/2022 6:15:00 PM 17.43 63.374 0.166 7.59 39.71 9.03
6/11/2022 6:30:00 PM 17.39 63.302 0.166 7.58 39.01 9.08
6/11/2022 6:45:00 PM 17.35 63.23 0.166 7.57 44.95 8.59
6/11/2022 7:00:00 PM 17.31 63.158 0.166 7.55 38.85 8.64
6/11/2022 7:15:00 PM 17.28 63.104 0.166 7.53 51.62 8.7
6/11/2022 7:30:00 PM 17.23 63.014 0.166 7.52 35.4 8.19
6/11/2022 7:45:00 PM 17.19 62.942 0.166 7.49 48.07 8.49
6/11/2022 8:00:00 PM 17.15 62.87 0.166 7.48 45.57 8.55
6/11/2022 8:15:00 PM 17.1 62.78 0.166 7.47 33.36 8.6
6/11/2022 8:30:00 PM 17.05 62.69 0.166 7.46 38.15 8.59
6/11/2022 8:45:00 PM 17 62.6 0.166 7.44 43.19 8.45
6/11/2022 9:00:00 PM 16.93 62.474 0.166 7.43 35.94 8.71
6/11/2022 9:15:00 PM 16.87 62.366 0.166 7.42 33.34 8.48
6/11/2022 9:30:00 PM 16.81 62.258 0.166 7.41 35.58 8.55
6/11/2022 9:45:00 PM 16.74 62.132 0.166 7.39 27.42 8.46
6/11/2022 10:00:00 PM 16.68 62.024 0.166 7.38 46.62 8.4
6/11/2022 10:15:00 PM 16.62 61.916 0.166 7.36 49.95 8.25
6/11/2022 10:30:00 PM 16.56 61.808 0.166 7.36 47.7 8.21
6/11/2022 10:45:00 PM 16.51 61.718 0.166 7.34 135.3 8.32
6/11/2022 11:00:00 PM 16.45 61.61 0.166 7.35 32.4 8.54
6/11/2022 11:15:00 PM 16.4 61.52 0.166 7.32 40.89 8.36
6/11/2022 11:30:00 PM 16.35 61.43 0.166 7.33 59.71 8.43
6/11/2022 11:45:00 PM 16.29 61.322 0.166 7.32 47.08 8.43
6/12/2022 12:00:00 AM 16.24 61.232 0.166 7.33 37.81 8.26
6/12/2022 12:15:00 AM 16.2 61.16 0.166 7.32 34.33 8.3
6/12/2022 12:30:00 AM 16.15 61.07 0.166 7.32 39.11 8.41
6/12/2022 12:45:00 AM 16.1 60.98 0.162 7.33 38.14 8.36
6/12/2022 1:00:00 AM 16.06 60.908 0.166 7.32 32.7 8.31
6/12/2022 1:15:00 AM 16.01 60.818 0.166 7.32 58.79 8.44
6/12/2022 1:30:00 AM 15.97 60.746 0.166 7.32 41.17 8.38
6/12/2022 1:45:00 AM 15.93 60.674 0.166 7.31 30.45 8.47
6/12/2022 2:00:00 AM 15.89 60.602 0.166 7.3 78.2 8.51
6/12/2022 2:15:00 AM 15.85 60.53 0.166 7.31 35.99 8.46
6/12/2022 2:30:00 AM 15.82 60.476 0.166 7.31 47.35 8.48
6/12/2022 2:45:00 AM 15.79 60.422 0.166 7.3 35.17 8.61
6/12/2022 3:00:00 AM 15.76 60.368 0.166 7.3 31.44 8.54
6/12/2022 3:15:00 AM 15.74 60.332 0.166 7.3 44.27 8.62
6/12/2022 3:30:00 AM 15.71 60.278 0.166 7.29 67.53 8.71
6/12/2022 3:45:00 AM 15.69 60.242 0.166 7.31 48.12 8.58
6/12/2022 4:00:00 AM 15.66 60.188 0.166 7.3 42.4 8.44
6/12/2022 4:15:00 AM 15.65 60.17 0.165 7.29 54.59 8.6
6/12/2022 4:30:00 AM 15.62 60.116 0.165 7.29 54.66 8.57
6/12/2022 4:45:00 AM 15.61 60.098 0.164 7.28 47.93 8.66
6/12/2022 5:00:00 AM 15.59 60.062 0.164 7.28 39.24 8.65
6/12/2022 5:15:00 AM 15.58 60.044 0.164 7.28 55.29 8.54
6/12/2022 5:30:00 AM 15.57 60.026 0.164 7.27 46.28 8.5
6/12/2022 5:45:00 AM 15.56 60.008 0.164 7.26 57.89 8.56
6/12/2022 6:00:00 AM 15.55 59.99 0.164 7.27 37.42 8.68
6/12/2022 6:15:00 AM 15.55 59.99 0.164 7.28 43.72 8.42
6/12/2022 6:30:00 AM 15.54 59.972 0.164 7.28 53.51 8.34
6/12/2022 6:45:00 AM 15.53 59.954 0.164 7.26 44.58 8.57
6/12/2022 7:00:00 AM 15.52 59.936 0.163 7.27 41.71 8.47
6/12/2022 7:15:00 AM 15.5 59.9 0.162 7.27 61.94 8.49
6/12/2022 7:30:00 AM 15.5 59.9 0.159 7.26 50.53 8.4
6/12/2022 7:45:00 AM 15.49 59.882 0.158 7.25 45.22 8.55
6/12/2022 8:00:00 AM 15.49 59.882 0.158 7.26 47.26 8.77
6/12/2022 8:15:00 AM 15.49 59.882 0.158 7.26 61.71 8.34
6/12/2022 8:30:00 AM 15.49 59.882 0.158 7.26 58.2 8.66
6/12/2022 8:45:00 AM 15.49 59.882 0.158 7.26 56.49 8.72
6/12/2022 9:00:00 AM 15.5 59.9 0.158 7.26 54.77 8.75
6/12/2022 9:15:00 AM 15.51 59.918 0.157 7.28 45.21 8.67
6/12/2022 9:30:00 AM 15.53 59.954 0.157 7.27 60.05 8.68
6/12/2022 9:45:00 AM 15.56 60.008 0.156 7.27 62.52 8.77
6/12/2022 10:00:00 AM 15.58 60.044 0.154 7.27 70.74 8.85
6/12/2022 10:15:00 AM 15.62 60.116 0.154 7.26 121.1 8.79
6/12/2022 10:30:00 AM 15.67 60.206 0.155 7.25 119.1 8.64
6/12/2022 10:45:00 AM 15.74 60.332 0.155 7.25 107.9 8.68
6/12/2022 11:00:00 AM 15.82 60.476 0.156 7.27 110.1 8.85
6/12/2022 11:15:00 AM 15.89 60.602 0.157 7.3 68.82 8.81
6/12/2022 11:30:00 AM 15.96 60.728 0.158 7.29 90.31 8.81
6/12/2022 11:45:00 AM 16.06 60.908 0.158 7.3 65.32 8.81
6/12/2022 12:00:00 PM 16.17 61.106 0.158 7.33 86.58 8.92
6/12/2022 12:15:00 PM 16.25 61.25 0.158 7.34 65.96 9
6/12/2022 12:30:00 PM 16.35 61.43 0.157 7.35 67.98 9.01
6/12/2022 12:45:00 PM 16.46 61.628 0.157 7.37 85.03 8.9
6/12/2022 1:00:00 PM 16.58 61.844 0.157 7.36 66.08 8.88
6/12/2022 1:15:00 PM 16.68 62.024 0.157 7.36 77.58 8.57
6/12/2022 1:30:00 PM 16.73 62.114 0.158 7.38 60.01 8.96
6/12/2022 1:45:00 PM 16.77 62.186 0.158 7.39 76.29 8.75
6/12/2022 2:00:00 PM 16.83 62.294 0.158 7.39 65.08 8.77
6/12/2022 2:15:00 PM 16.93 62.474 0.159 7.37 76.93 8.86
6/12/2022 2:30:00 PM 17.06 62.708 0.159 7.38 79.69 8.99
6/12/2022 2:45:00 PM 17.12 62.816 0.159 7.38 66.69 8.87
6/12/2022 3:00:00 PM 17.23 63.014 0.159 7.39 72.14 8.99
6/12/2022 3:15:00 PM 17.33 63.194 0.159 7.4 86.54 8.78
6/12/2022 3:30:00 PM 17.65 63.77 0.159 7.41 78.82 8.74
6/12/2022 3:45:00 PM 17.71 63.878 0.159 7.43 86.78 8.86
6/12/2022 4:00:00 PM 17.82 64.076 0.159 7.42 87.99 8.96
6/12/2022 4:15:00 PM 17.94 64.292 0.159 7.44 108 9.01
6/12/2022 4:30:00 PM 18.04 64.472 0.159 7.43 74.36 8.98
6/12/2022 4:45:00 PM 18.06 64.508 0.159 7.43 178.3 8.96
6/12/2022 5:00:00 PM 18.09 64.562 0.159 7.42 158.3 9.01
6/12/2022 5:15:00 PM 18.14 64.652 0.159 7.41 73.13 8.83
6/12/2022 5:30:00 PM 18.21 64.778 0.158 7.43 55.64 8.88
6/12/2022 5:45:00 PM 18.29 64.922 0.158 7.41 93.61 8.71
6/12/2022 6:00:00 PM 18.32 64.976 0.158 7.41 66.94 8.72
6/12/2022 6:15:00 PM 18.33 64.994 0.158 7.41 110.7 8.78
6/12/2022 6:30:00 PM 18.31 64.958 0.158 7.41 67.35 8.66
6/12/2022 6:45:00 PM 18.28 64.904 0.159 7.41 79.52 8.56
6/12/2022 7:00:00 PM 18.26 64.868 0.159 7.4 88.75 8.61
6/12/2022 7:15:00 PM 18.25 64.85 0.16 7.39 71.25 8.49
6/12/2022 7:30:00 PM 18.24 64.832 0.16 7.4 58.03 8.47
6/12/2022 7:45:00 PM 18.22 64.796 0.161 7.38 121.7 8.53
6/12/2022 8:00:00 PM 18.2 64.76 0.161 7.37 103.2 8.41
6/12/2022 8:15:00 PM 18.16 64.688 0.161 7.36 79.96 8.38
6/12/2022 8:30:00 PM 18.12 64.616 0.162 7.36 138.3 8.32
6/12/2022 8:45:00 PM 18.08 64.544 0.162 7.35 71.51 8.21
6/12/2022 9:00:00 PM 18.03 64.454 0.162 7.33 119.5 8.15
6/12/2022 9:15:00 PM 17.98 64.364 0.162 7.32 63.62 8.09
6/12/2022 9:30:00 PM 17.95 64.31 0.162 7.31 63.85 8.19
6/12/2022 9:45:00 PM 17.91 64.238 0.162 7.31 79.7 7.98
6/12/2022 10:00:00 PM 17.88 64.184 0.161 7.29 104.6 8.12
6/12/2022 10:15:00 PM 17.85 64.13 0.161 7.29 111.7 8.23
6/12/2022 10:30:00 PM 17.82 64.076 0.161 7.27 117.3 8.2
6/12/2022 10:45:00 PM 17.79 64.022 0.16 7.27 80.08 8.03
6/12/2022 11:00:00 PM 17.76 63.968 0.16 7.26 79.01 8.1
6/12/2022 11:15:00 PM 17.73 63.914 0.16 7.26 144.6 8.04
6/12/2022 11:30:00 PM 17.71 63.878 0.16 7.26 83.52 7.99
6/12/2022 11:45:00 PM 17.69 63.842 0.159 7.25 95.4 8.07
6/13/2022 12:00:00 AM 17.67 63.806 0.159 7.26 77.47 8.16
6/13/2022 12:15:00 AM 17.64 63.752 0.159 7.25 71.07 8.04
6/13/2022 12:30:00 AM 17.63 63.734 0.159 7.23 46.92 8.04
6/13/2022 12:45:00 AM 17.61 63.698 0.159 7.23 132.6 8.15
6/13/2022 1:00:00 AM 17.59 63.662 0.159 7.24 72.1 8.09
6/13/2022 1:15:00 AM 17.57 63.626 0.159 7.25 51.56 8.15
6/13/2022 1:30:00 AM 17.54 63.572 0.159 7.23 57.57 8.08
6/13/2022 1:45:00 AM 17.52 63.536 0.16 7.24 54.29 8.06
6/13/2022 2:00:00 AM 17.5 63.5 0.16 7.23 118.1 8.08
6/13/2022 2:15:00 AM 17.47 63.446 0.16 7.25 45.97 8.15
6/13/2022 2:30:00 AM 17.45 63.41 0.16 7.23 80.52 8
6/13/2022 2:45:00 AM 17.43 63.374 0.16 7.24 65.09 7.97
6/13/2022 3:00:00 AM 17.41 63.338 0.16 7.22 72.59 7.98
6/13/2022 3:15:00 AM 17.39 63.302 0.161 7.22 69.5 7.91
6/13/2022 3:30:00 AM 17.37 63.266 0.161 7.23 66.4 7.89
6/13/2022 3:45:00 AM 17.35 63.23 0.161 7.23 65.42 8.18
6/13/2022 4:00:00 AM 17.33 63.194 0.161 7.22 70.69 8.12
6/13/2022 4:15:00 AM 17.31 63.158 0.162 7.24 60.08 7.98
6/13/2022 4:30:00 AM 17.3 63.14 0.162 7.22 57.2 8.13
6/13/2022 4:45:00 AM 17.28 63.104 0.162 7.23 43.95 8.14
6/13/2022 5:00:00 AM 17.26 63.068 0.162 7.22 46.97 8.03
6/13/2022 5:15:00 AM 17.24 63.032 0.162 7.23 53.71 7.62
6/13/2022 5:30:00 AM 17.23 63.014 0.162 7.22 54.55 8.12
6/13/2022 5:45:00 AM 17.21 62.978 0.162 7.23 67.39 8.01
6/13/2022 6:00:00 AM 17.19 62.942 0.162 7.23 65.66 8.09
6/13/2022 6:15:00 AM 17.18 62.924 0.162 7.23 77.07 7.38
6/13/2022 6:30:00 AM 17.17 62.906 0.162 7.23 66.04 7.58
6/13/2022 6:45:00 AM 17.16 62.888 0.162 7.21 93.99 7.57
6/13/2022 7:00:00 AM 17.15 62.87 0.162 7.21 57.11 7.67
6/13/2022 7:15:00 AM 17.15 62.87 0.162 7.23 57.71 7.86
6/13/2022 7:30:00 AM 17.14 62.852 0.162 7.22 63.39 8.09
6/13/2022 7:45:00 AM 17.14 62.852 0.162 7.24 50.69 7.88
6/13/2022 8:00:00 AM 17.14 62.852 0.162 7.23 68.29 8.06
6/13/2022 8:15:00 AM 17.15 62.87 0.163 7.23 55.22 8.22
6/13/2022 8:30:00 AM 17.16 62.888 0.163 7.24 51.72 7.9
6/13/2022 8:45:00 AM 17.18 62.924 0.163 7.23 51.55 8.29
6/13/2022 9:00:00 AM 17.21 62.978 0.163 7.25 57.95 7.57
6/13/2022 9:15:00 AM 17.24 63.032 0.163 7.24 61.03 7.86
6/13/2022 9:30:00 AM 17.26 63.068 0.163 7.26 56.68 8.34
6/13/2022 9:45:00 AM 17.29 63.122 0.163 7.26 122.1 8.19
6/13/2022 10:00:00 AM 17.33 63.194 0.163 7.29 112.8 8.48
6/13/2022 10:15:00 AM 17.41 63.338 0.163 7.29 104 8.27
6/13/2022 10:30:00 AM 17.53 63.554 0.163 7.33 68.24 8.73
6/13/2022 10:45:00 AM 17.68 63.824 0.163 7.34 94.01 8.78
6/13/2022 11:00:00 AM 17.85 64.13 0.164 7.37 81.04 8.77
6/13/2022 11:15:00 AM 18.04 64.472 0.164 7.38 81.85 8.81
6/13/2022 11:30:00 AM 18.27 64.886 0.164 7.39 73.54 8.59
6/13/2022 11:45:00 AM 18.52 65.336 0.164 7.41 153.9 8.7
6/13/2022 12:00:00 PM 18.79 65.82201 0.164 7.43 59.21 8.66
6/13/2022 12:15:00 PM 19.12 66.416 0.164 7.44 77.68 8.72
6/13/2022 12:30:00 PM 19.47 67.046 0.164 7.45 112.1 8.77
6/13/2022 12:45:00 PM 19.82 67.676 0.164 7.47 77.36 8.77
6/13/2022 1:00:00 PM 20.13 68.234 0.165 7.49 113.9 8.84
6/13/2022 1:15:00 PM 20.41 68.738 0.165 7.5 79.5 8.88
6/13/2022 1:30:00 PM 20.72 69.296 0.165 7.51 59.99 8.64
6/13/2022 1:45:00 PM 21.03 69.854 0.165 7.52 66.29 8.73
6/13/2022 2:00:00 PM 21.39 70.502 0.165 7.54 56.03 8.64
6/13/2022 2:15:00 PM 21.75 71.15 0.165 7.57 81.88 8.68
6/13/2022 2:30:00 PM 22.06 71.708 0.165 7.56 51.25 8.68
6/13/2022 2:45:00 PM 22.29 72.122 0.165 7.58 49.26 8.7
6/13/2022 3:00:00 PM 22.34 72.212 0.165 7.58 75.2 8.59
6/13/2022 3:15:00 PM 22.29 72.122 0.166 7.58 62.24 8.41
6/13/2022 3:30:00 PM 22.38 72.284 0.166 7.58 66.44 8.19
6/13/2022 3:45:00 PM 22.53 72.554 0.166 7.58 67.87 8.12
6/13/2022 4:00:00 PM 22.62 72.716 0.166 7.59 70.18 8.43
6/13/2022 4:15:00 PM 22.62 72.716 0.166 7.6 58.02 8.09
6/13/2022 4:30:00 PM 22.64 72.752 0.166 7.59 40 8.14
6/13/2022 4:45:00 PM 22.63 72.734 0.166 7.59 47.04 8.22
6/13/2022 5:00:00 PM 22.57 72.626 0.166 7.57 56.91 8.07
6/13/2022 5:15:00 PM 22.5 72.5 0.166 7.58 63.56 7.96
6/13/2022 5:30:00 PM 22.45 72.41 0.166 7.55 56.96 8.14
6/13/2022 5:45:00 PM 22.39 72.302 0.166 7.54 69.49 7.8
6/13/2022 6:00:00 PM 22.33 72.194 0.166 7.54 44.15 7.78
6/13/2022 6:15:00 PM 22.29 72.122 0.166 7.53 54.46 7.84
6/13/2022 6:30:00 PM 22.24 72.032 0.166 7.51 81.89 7.65
6/13/2022 6:45:00 PM 22.18 71.924 0.166 7.48 65.88 7.53
6/13/2022 7:00:00 PM 22.1 71.78 0.167 7.47 123 7.47
6/13/2022 7:15:00 PM 22.01 71.618 0.167 7.44 69.69 7.09
6/13/2022 7:30:00 PM 21.92 71.456 0.167 7.42 95.38 7.51
6/13/2022 7:45:00 PM 21.84 71.312 0.167 7.39 94.21 6.29
6/13/2022 8:00:00 PM 21.75 71.15 0.167 7.38 54.31 7.16
6/13/2022 8:15:00 PM 21.67 71.006 0.167 7.34 53.02 6.95
6/13/2022 8:30:00 PM 21.59 70.862 0.167 7.33 77.73 6.98
6/13/2022 8:45:00 PM 21.52 70.736 0.167 7.33 62.34 7.48
6/13/2022 9:00:00 PM 21.44 70.592 0.167 7.3 56.85 7.25
6/13/2022 9:15:00 PM 21.37 70.466 0.167 7.29 66.63 7.17
6/13/2022 9:30:00 PM 21.29 70.32201 0.168 7.29 45.43 7.39
6/13/2022 9:45:00 PM 21.22 70.196 0.168 7.26 63.75 7.23
6/13/2022 10:00:00 PM 21.15 70.07 0.168 7.25 121 7.19
6/13/2022 10:15:00 PM 21.08 69.944 0.168 7.23 52.85 7.29
6/13/2022 10:30:00 PM 21.01 69.818 0.168 7.22 51.9 7.13
6/13/2022 10:45:00 PM 20.94 69.692 0.168 7.24 87.88 7.2
6/13/2022 11:00:00 PM 20.87 69.566 0.168 7.22 69.22 7.18
6/13/2022 11:15:00 PM 20.79 69.422 0.168 7.2 73.94 7.16
6/13/2022 11:30:00 PM 20.73 69.314 0.168 7.19 86.09 7.22
6/13/2022 11:45:00 PM 20.66 69.188 0.168 7.2 74.73 7.16
6/14/2022 12:00:00 AM 20.6 69.08 0.168 7.2 46.34 7.07
6/14/2022 12:15:00 AM 20.53 68.954 0.168 7.2 53.92 7.2
6/14/2022 12:30:00 AM 20.47 68.846 0.168 7.19 54.54 6.94
6/14/2022 12:45:00 AM 20.41 68.738 0.168 7.2 51.42 7.1
6/14/2022 1:00:00 AM 20.35 68.63 0.168 7.2 68.3 7.13
6/14/2022 1:15:00 AM 20.3 68.54 0.168 7.19 59.04 7.24
6/14/2022 1:30:00 AM 20.25 68.45 0.168 7.18 51.27 7.13
6/14/2022 1:45:00 AM 20.2 68.36 0.168 7.18 71.83 7.15
6/14/2022 2:00:00 AM 20.16 68.288 0.168 7.18 72.4 7.34
6/14/2022 2:15:00 AM 20.12 68.216 0.168 7.18 54.43 7.29
6/14/2022 2:30:00 AM 20.09 68.162 0.168 7.15 61.39 7.38
6/14/2022 2:45:00 AM 20.05 68.09 0.168 7.16 48.16 7.52
6/14/2022 3:00:00 AM 20.02 68.036 0.168 7.18 53.05 7.13
6/14/2022 3:15:00 AM 20 68 0.168 7.16 104.3 7.26
6/14/2022 3:30:00 AM 19.97 67.946 0.168 7.17 80.54 7.25
6/14/2022 3:45:00 AM 19.95 67.91 0.168 7.16 64.06 7.16
6/14/2022 4:00:00 AM 19.92 67.856 0.168 7.14 98.14 7.31
6/14/2022 4:15:00 AM 19.89 67.802 0.168 7.16 141.2 7.31
6/14/2022 4:30:00 AM 19.87 67.766 0.168 7.14 75.85 7.43
6/14/2022 4:45:00 AM 19.84 67.712 0.168 7.15 78.97 7.26
6/14/2022 5:00:00 AM 19.81 67.658 0.168 7.16 65.93 7.25
6/14/2022 5:15:00 AM 19.78 67.604 0.168 7.15 87.4 7.44
6/14/2022 5:30:00 AM 19.75 67.55 0.168 7.15 91.47 7.34
6/14/2022 5:45:00 AM 19.72 67.496 0.168 7.15 106.5 7.42
6/14/2022 6:00:00 AM 19.69 67.442 0.168 7.14 87.23 7.49
6/14/2022 6:15:00 AM 19.65 67.37 0.167 7.16 118.8 7.33
6/14/2022 6:30:00 AM 19.61 67.298 0.166 7.16 196.5 7.5
6/14/2022 6:45:00 AM 19.58 67.244 0.165 7.15 73.96 7.44
6/14/2022 7:00:00 AM 19.53 67.154 0.164 7.16 98.19 7.57
6/14/2022 7:15:00 AM 19.49 67.082 0.164 7.15 92.85 7.44
6/14/2022 7:30:00 AM 19.46 67.028 0.164 7.16 114.9 7.42
6/14/2022 7:45:00 AM 19.41 66.938 0.164 7.17 93.15 7.27
6/14/2022 8:00:00 AM 19.37 66.866 0.164 7.18 139.8 7.5
6/14/2022 8:15:00 AM 19.32 66.776 0.164 7.19 136.5 7.38
6/14/2022 8:30:00 AM 19.29 66.722 0.163 7.21 90.67 7.35
6/14/2022 8:45:00 AM 19.26 66.668 0.163 7.21 124.8 7.24
6/14/2022 9:00:00 AM 19.22 66.596 0.162 7.23 93.23 6.61
6/14/2022 9:15:00 AM 19.18 66.524 0.161 7.24 146.7 7.27
6/14/2022 9:30:00 AM 19.14 66.452 0.161 7.26 167.8 7.59
6/14/2022 9:45:00 AM 19.11 66.398 0.16 7.25 138.1 7.78
6/14/2022 10:00:00 AM 19.07 66.326 0.16 7.27 153 7.85
6/14/2022 10:15:00 AM 19.05 66.29 0.16 7.26 146.2 7.89
6/14/2022 10:30:00 AM 19.05 66.29 0.16 7.28 110.6 7.5
6/14/2022 10:45:00 AM 19.05 66.29 0.16 7.29 498.1 7.92
6/14/2022 11:00:00 AM 19.07 66.326 0.161 7.31 137.8 8.26
6/14/2022 11:15:00 AM 19.09 66.362 0.161 7.33 133.6 8.45
6/14/2022 11:30:00 AM 19.07 66.326 0.161 7.33 140.5 8.48
6/14/2022 11:45:00 AM 19.04 66.272 0.162 7.33 283.2 8.45
6/14/2022 12:00:00 PM 19.03 66.254 0.161 7.32 155.8 8.16
6/14/2022 12:15:00 PM 19.04 66.272 0.161 7.33 209.1 8.2
6/14/2022 12:30:00 PM 19.06 66.308 0.161 7.31 209.2 8.14
6/14/2022 12:45:00 PM 19.06 66.308 0.162 7.33 159.2 8.17
6/14/2022 1:00:00 PM 19.05 66.29 0.162 7.32 191.5 8.23
6/14/2022 1:15:00 PM 19.08 66.344 0.162 7.32 225.6 8.05
6/14/2022 1:30:00 PM 19.11 66.398 0.161 7.34 261.1 8.14
6/14/2022 1:45:00 PM 19.17 66.506 0.161 7.32 275.6 8.15
6/14/2022 2:00:00 PM 19.33 66.794 0.16 7.33 161.3 8.23
6/14/2022 2:15:00 PM 19.55 67.19 0.16 7.34 166.4 8.4
6/14/2022 2:30:00 PM 19.72 67.496 0.161 7.34 202.8 8.41
6/14/2022 2:45:00 PM 19.9 67.82 0.161 7.36 175 8.31
6/14/2022 3:00:00 PM 20.03 68.054 0.161 7.38 205 8.38
6/14/2022 3:15:00 PM 20.21 68.378 0.161 7.37 178.8 8.37
6/14/2022 3:30:00 PM 20.34 68.612 0.161 7.36 194 8.39
6/14/2022 3:45:00 PM 20.45 68.81 0.162 7.37 185.5 8.36
6/14/2022 4:00:00 PM 20.56 69.008 0.162 7.38 200.9 8.35
6/14/2022 4:15:00 PM 20.61 69.098 0.162 7.37 177.4 8.05
6/14/2022 4:30:00 PM 20.64 69.152 0.163 7.36 172.3 8.12
6/14/2022 4:45:00 PM 20.65 69.17 0.163 7.37 184.7 7.53
6/14/2022 5:00:00 PM 20.67 69.206 0.163 7.36 134.6 7.76
6/14/2022 5:15:00 PM 20.69 69.242 0.164 7.36 97.23 7.7
6/14/2022 5:30:00 PM 20.71 69.278 0.164 7.35 106.3 7.55
6/14/2022 5:45:00 PM 20.69 69.242 0.164 7.35 149.8 7.76
6/14/2022 6:00:00 PM 20.67 69.206 0.165 7.35 135.3 7.66
6/14/2022 6:15:00 PM 20.63 69.134 0.165 7.33 146.3 7.72
6/14/2022 6:30:00 PM 20.57 69.026 0.165 7.32 116 7.36
6/14/2022 6:45:00 PM 20.5 68.9 0.165 7.3 115 7.64
6/14/2022 7:00:00 PM 20.43 68.774 0.164 7.3 125.3 7.38
6/14/2022 7:15:00 PM 20.36 68.648 0.164 7.28 132.8 7.53
6/14/2022 7:30:00 PM 20.3 68.54 0.163 7.27 119.7 7.25
6/14/2022 7:45:00 PM 20.24 68.432 0.162 7.27 132.8 7.54
6/14/2022 8:00:00 PM 20.19 68.342 0.162 7.27 135.9 7.32
6/14/2022 8:15:00 PM 20.13 68.234 0.161 7.25 103.7 7.37
6/14/2022 8:30:00 PM 20.07 68.126 0.16 7.25 107 6.96
6/14/2022 8:45:00 PM 20.02 68.036 0.16 7.24 116.9 7.17
6/14/2022 9:00:00 PM 19.96 67.92799 0.16 7.25 100.2 7.12
6/14/2022 9:15:00 PM 19.9 67.82 0.159 7.24 104 7.1
6/14/2022 9:30:00 PM 19.84 67.712 0.159 7.24 112.8 7.26
6/14/2022 9:45:00 PM 19.77 67.586 0.159 7.23 125.5 7.19
6/14/2022 10:00:00 PM 19.7 67.46 0.159 7.22 131.6 6.85
6/14/2022 10:15:00 PM 19.63 67.334 0.158 7.23 99.69 7.04
6/14/2022 10:30:00 PM 19.56 67.208 0.158 7.22 117.7 7.32
6/14/2022 10:45:00 PM 19.49 67.082 0.158 7.22 91.57 7.28
6/14/2022 11:00:00 PM 19.43 66.974 0.158 7.21 61.17 7.05
6/14/2022 11:15:00 PM 19.36 66.848 0.157 7.2 109.1 7.27
6/14/2022 11:30:00 PM 19.3 66.74 0.157 7.2 124.7 7.12
6/14/2022 11:45:00 PM 19.24 66.632 0.157 7.19 113.7 7.45
6/15/2022 12:00:00 AM 19.18 66.524 0.157 7.21 103.1 7.04
6/15/2022 12:15:00 AM 19.12 66.416 0.157 7.19 101.8 7.47
6/15/2022 12:30:00 AM 19.06 66.308 0.157 7.2 62.22 7.53
6/15/2022 12:45:00 AM 19.01 66.218 0.157 7.2 122 7.76
6/15/2022 1:00:00 AM 18.96 66.128 0.157 7.19 243.6 7.5
6/15/2022 1:15:00 AM 18.91 66.038 0.157 7.19 114.4 7.24
6/15/2022 1:30:00 AM 18.86 65.948 0.157 7.2 140.5 7.67
6/15/2022 1:45:00 AM 18.81 65.858 0.157 7.21 97.11 7.74
6/15/2022 2:00:00 AM 18.77 65.786 0.158 7.21 118.2 7.34
6/15/2022 2:15:00 AM 18.72 65.696 0.158 7.2 118.5 7.68
6/15/2022 2:30:00 AM 18.68 65.624 0.158 7.21 126.6 7.5
6/15/2022 2:45:00 AM 18.63 65.534 0.158 7.22 79.96 7.7
6/15/2022 3:00:00 AM 18.58 65.444 0.158 7.22 85.32 7.57
6/15/2022 3:15:00 AM 18.54 65.372 0.158 7.21 75.77 7.22
6/15/2022 3:30:00 AM 18.49 65.282 0.158 7.22 59.4 6.97
6/15/2022 3:45:00 AM 18.44 65.192 0.158 7.21 70.01 7.6
6/15/2022 4:00:00 AM 18.39 65.102 0.158 7.21 182.2 7.53
6/15/2022 4:15:00 AM 18.33 64.994 0.159 7.21 63.63 7.38
6/15/2022 4:30:00 AM 18.29 64.922 0.159 7.21 78.07 7.37
6/15/2022 4:45:00 AM 18.23 64.814 0.159 7.2 76.41 7.11
6/15/2022 5:00:00 AM 18.18 64.724 0.159 7.21 92.63 7.36
6/15/2022 5:15:00 AM 18.13 64.634 0.159 7.21 103.5 7.35
6/15/2022 5:30:00 AM 18.08 64.544 0.159 7.2 79.47 7.62
6/15/2022 5:45:00 AM 18.03 64.454 0.16 7.2 81.77 7.58
6/15/2022 6:00:00 AM 17.97 64.346 0.16 7.2 47.82 7.64
6/15/2022 6:15:00 AM 17.92 64.256 0.16 7.21 74.34 7.66
6/15/2022 6:30:00 AM 17.86 64.148 0.16 7.2 61.35 7.63
6/15/2022 6:45:00 AM 17.81 64.058 0.161 7.21 68.39 7.51
6/15/2022 7:00:00 AM 17.76 63.968 0.161 7.22 68.41 7.64
6/15/2022 7:15:00 AM 17.72 63.896 0.161 7.21 70.94 7.81
6/15/2022 7:30:00 AM 17.69 63.842 0.161 7.22 74.74 7.81
6/15/2022 7:45:00 AM 17.66 63.788 0.162 7.23 56.4 7.76
6/15/2022 8:00:00 AM 17.64 63.752 0.162 7.24 55.78 7.75
6/15/2022 8:15:00 AM 17.64 63.752 0.162 7.24 59.15 8.08
6/15/2022 8:30:00 AM 17.64 63.752 0.162 7.25 49.33 7.96
6/15/2022 8:45:00 AM 17.66 63.788 0.162 7.26 67.68 7.98
6/15/2022 9:00:00 AM 17.68 63.824 0.163 7.27 52.89 8.08
6/15/2022 9:15:00 AM 17.72 63.896 0.163 7.26 65.25 8.01
6/15/2022 9:30:00 AM 17.76 63.968 0.163 7.26 58.73 8.14
6/15/2022 9:45:00 AM 17.82 64.076 0.163 7.27 69 8.19
6/15/2022 10:00:00 AM 17.9 64.22 0.163 7.27 61.96 8.21
6/15/2022 10:15:00 AM 18 64.4 0.163 7.28 56.29 7.34
6/15/2022 10:30:00 AM 18.14 64.652 0.164 7.28 52.1 8.22
6/15/2022 10:45:00 AM 18.29 64.922 0.164 7.28 57.61 8.11
6/15/2022 11:00:00 AM 18.46 65.228 0.164 7.29 69.66 8.49
6/15/2022 11:15:00 AM 18.67 65.606 0.164 7.3 58.48 8.15
6/15/2022 11:30:00 AM 18.89 66.002 0.164 7.3 48.32 8.38
6/15/2022 11:45:00 AM 19.13 66.434 0.164 7.31 42.16 8.45
6/15/2022 12:00:00 PM 19.41 66.938 0.164 7.32 43.08 8.52
6/15/2022 12:15:00 PM 19.68 67.424 0.164 7.33 45.31 8.27
6/15/2022 12:30:00 PM 20.01 68.018 0.164 7.33 43.64 8.03
6/15/2022 12:45:00 PM 20.37 68.666 0.164 7.33 70.05 8.27
6/15/2022 1:00:00 PM 20.75 69.35 0.164 7.35 51.44 8.39
6/15/2022 1:15:00 PM 21.13 70.034 0.164 7.35 36.2 8.58
6/15/2022 1:30:00 PM 21.49 70.682 0.165 7.35 48.73 8.34
6/15/2022 1:45:00 PM 21.85 71.33 0.165 7.35 43.95 8.59
6/15/2022 2:00:00 PM 22.12 71.816 0.165 7.36 33.88 8.48
6/15/2022 2:15:00 PM 22.44 72.392 0.166 7.36 80.62 8.54
6/15/2022 2:30:00 PM 22.81 73.058 0.166 7.37 51.53 8.36
6/15/2022 2:45:00 PM 23.08 73.544 0.166 7.38 44.63 8.44
6/15/2022 3:00:00 PM 23.25 73.85 0.166 7.38 39.13 8.29
6/15/2022 3:15:00 PM 23.35 74.03 0.167 7.4 36.44 7.72
6/15/2022 3:30:00 PM 23.39 74.102 0.167 7.41 48.88 7.3
6/15/2022 3:45:00 PM 23.5 74.3 0.167 7.42 42.55 7.37
6/15/2022 4:00:00 PM 23.51 74.318 0.167 7.41 47.51 7.87
6/15/2022 4:15:00 PM 23.47 74.246 0.167 7.42 32.93 7.61
6/15/2022 4:30:00 PM 23.39 74.102 0.167 7.41 43.66 8.02
6/15/2022 4:45:00 PM 23.3 73.94 0.168 7.42 40.21 8.09
6/15/2022 5:00:00 PM 23.21 73.778 0.168 7.4 39.44 7.94
6/15/2022 5:15:00 PM 23.1 73.58 0.168 7.42 45.89 7.77
6/15/2022 5:30:00 PM 23.05 73.49 0.168 7.4 34.24 8.07
6/15/2022 5:45:00 PM 22.99 73.382 0.168 7.4 35.91 8.02
6/15/2022 6:00:00 PM 22.92 73.256 0.168 7.4 42.48 8.02
6/15/2022 6:15:00 PM 22.83 73.094 0.168 7.39 31.61 7.67
6/15/2022 6:30:00 PM 22.71 72.878 0.168 7.38 39.15 7.62
6/15/2022 6:45:00 PM 22.59 72.662 0.168 7.37 27.38 7.71
6/15/2022 7:00:00 PM 22.47 72.446 0.168 7.36 33.18 7.48
6/15/2022 7:15:00 PM 22.35 72.23 0.168 7.36 43.56 7.51
6/15/2022 7:30:00 PM 22.25 72.05 0.169 7.34 49.74 7.35
6/15/2022 7:45:00 PM 22.16 71.888 0.169 7.32 46.2 7.29
6/15/2022 8:00:00 PM 22.08 71.744 0.169 7.3 33.21 7.49
6/15/2022 8:15:00 PM 22.01 71.618 0.169 7.3 33.82 7.43
6/15/2022 8:30:00 PM 21.92 71.456 0.169 7.29 51.88 7.18
6/15/2022 8:45:00 PM 21.83 71.294 0.169 7.27 35.14 7.3
6/15/2022 9:00:00 PM 21.74 71.132 0.169 7.26 39.45 7.37
6/15/2022 9:15:00 PM 21.64 70.952 0.169 7.25 39.93 7.4
6/15/2022 9:30:00 PM 21.54 70.772 0.169 7.24 41.9 7.27
6/15/2022 9:45:00 PM 21.45 70.61 0.17 7.23 53.84 7.01
6/15/2022 10:00:00 PM 21.36 70.448 0.17 7.22 46.72 6.96
6/15/2022 10:15:00 PM 21.28 70.304 0.17 7.21 34.84 7.16
6/15/2022 10:30:00 PM 21.21 70.17799 0.17 7.21 43.48 6.98
6/15/2022 10:45:00 PM 21.13 70.034 0.17 7.2 57.8 7.33
6/15/2022 11:00:00 PM 21.06 69.908 0.17 7.2 59.42 7.27
6/15/2022 11:15:00 PM 20.99 69.782 0.169 7.2 48.22 7.16
6/15/2022 11:30:00 PM 20.92 69.656 0.169 7.21 60.14 7.07
6/15/2022 11:45:00 PM 20.85 69.53 0.169 7.19 65.07 6.62
6/16/2022 12:00:00 AM 20.79 69.422 0.169 7.2 56.99 7.23
6/16/2022 12:15:00 AM 20.73 69.314 0.169 7.2 63.35 7.14
6/16/2022 12:30:00 AM 20.67 69.206 0.169 7.19 48.87 7.17
6/16/2022 12:45:00 AM 20.62 69.116 0.169 7.19 51.49 7.3
6/16/2022 1:00:00 AM 20.57 69.026 0.169 7.19 44.8 6.93
6/16/2022 1:15:00 AM 20.53 68.954 0.169 7.18 64.95 7.22
6/16/2022 1:30:00 AM 20.48 68.864 0.169 7.19 64.15 7.38
6/16/2022 1:45:00 AM 20.43 68.774 0.169 7.19 53.37 7.38
6/16/2022 2:00:00 AM 20.39 68.702 0.17 7.19 47.52 7.12
6/16/2022 2:15:00 AM 20.35 68.63 0.17 7.19 35.73 6.95
6/16/2022 2:30:00 AM 20.32 68.576 0.17 7.18 46.42 7.5
6/16/2022 2:45:00 AM 20.28 68.504 0.17 7.19 39.92 7.21
6/16/2022 3:00:00 AM 20.24 68.432 0.169 7.19 44.76 7.34
6/16/2022 3:15:00 AM 20.21 68.378 0.169 7.2 63.4 7.52
6/16/2022 3:30:00 AM 20.17 68.306 0.169 7.19 46.08 7.45
6/16/2022 3:45:00 AM 20.13 68.234 0.169 7.19 40.36 7.37
6/16/2022 4:00:00 AM 20.1 68.18 0.169 7.19 60.67 7.41
6/16/2022 4:15:00 AM 20.07 68.126 0.169 7.19 61.07 7.47
6/16/2022 4:30:00 AM 20.03 68.054 0.169 7.19 55.21 7.36
6/16/2022 4:45:00 AM 20 68 0.169 7.19 47.31 7.52
6/16/2022 5:00:00 AM 19.96 67.92799 0.169 7.19 62.2 7.54
6/16/2022 5:15:00 AM 19.92 67.856 0.169 7.2 46.52 7.5
6/16/2022 5:30:00 AM 19.88 67.784 0.169 7.2 45.12 7.4
6/16/2022 5:45:00 AM 19.85 67.73 0.169 7.19 49.46 7.5
6/16/2022 6:00:00 AM 19.81 67.658 0.169 7.2 51.04 7.27
6/16/2022 6:15:00 AM 19.78 67.604 0.169 7.21 51.77 7.67
6/16/2022 6:30:00 AM 19.74 67.532 0.169 7.21 60.18 7.36
6/16/2022 6:45:00 AM 19.7 67.46 0.17 7.2 60.88 7.52
6/16/2022 7:00:00 AM 19.67 67.406 0.17 7.2 69.89 7.61
6/16/2022 7:15:00 AM 19.65 67.37 0.17 7.21 60.15 7.51
6/16/2022 7:30:00 AM 19.62 67.316 0.17 7.21 74.75 7.7
6/16/2022 7:45:00 AM 19.6 67.28 0.17 7.21 72.47 7.66
6/16/2022 8:00:00 AM 19.57 67.226 0.17 7.21 65.54 7.54
6/16/2022 8:15:00 AM 19.56 67.208 0.17 7.21 60.4 7.6
6/16/2022 8:30:00 AM 19.55 67.19 0.17 7.2 71.8 7.69
6/16/2022 8:45:00 AM 19.54 67.172 0.17 7.22 59.77 7.7
6/16/2022 9:00:00 AM 19.53 67.154 0.17 7.22 74.99 7.82
6/16/2022 9:15:00 AM 19.53 67.154 0.17 7.23 68.05 7.71
6/16/2022 9:30:00 AM 19.52 67.136 0.17 7.22 68.87 7.94
6/16/2022 9:45:00 AM 19.51 67.118 0.17 7.23 96.14 8.03
6/16/2022 10:00:00 AM 19.5 67.1 0.17 7.24 68.72 7.79
6/16/2022 10:15:00 AM 19.49 67.082 0.17 7.24 52.73 8.12
6/16/2022 10:30:00 AM 19.48 67.064 0.17 7.25 62.84 7.94
6/16/2022 10:45:00 AM 19.46 67.028 0.17 7.26 69.96 8.28
6/16/2022 11:00:00 AM 19.46 67.028 0.17 7.26 55.31 8.01
6/16/2022 11:15:00 AM 19.48 67.064 0.17 7.26 87.84 8.02
6/16/2022 11:30:00 AM 19.54 67.172 0.17 7.26 55.87 7.88
6/16/2022 11:45:00 AM 19.62 67.316 0.17 7.27 45.5 8.35
6/16/2022 12:00:00 PM 19.72 67.496 0.169 7.28 57.1 8.5
6/16/2022 12:15:00 PM 19.79 67.622 0.169 7.27 51.34 8.52
6/16/2022 12:30:00 PM 19.88 67.784 0.169 7.3 59.96 8.53
6/16/2022 12:45:00 PM 19.98 67.964 0.169 7.31 53.39 8.45
6/16/2022 1:00:00 PM 20.08 68.144 0.169 7.32 56.93 8.59
6/16/2022 1:15:00 PM 20.14 68.252 0.169 7.32 46.1 8.6
6/16/2022 1:30:00 PM 20.2 68.36 0.169 7.34 51.8 8.67
6/16/2022 1:45:00 PM 20.28 68.504 0.169 7.36 50.98 8.54
6/16/2022 2:00:00 PM 20.37 68.666 0.169 7.36 48.29 8.53
6/16/2022 2:15:00 PM 20.46 68.828 0.169 7.38 57.35 8.29
6/16/2022 2:30:00 PM 20.56 69.008 0.169 7.38 36.32 8.35
6/16/2022 2:45:00 PM 20.66 69.188 0.169 7.39 44.08 8.56
6/16/2022 3:00:00 PM 20.8 69.44 0.169 7.4 27.05 8.42
6/16/2022 3:15:00 PM 20.89 69.602 0.169 7.43 29.11 8.66
6/16/2022 3:30:00 PM 20.97 69.746 0.169 7.42 37.33 8.39
6/16/2022 3:45:00 PM 21.06 69.908 0.169 7.42 37.16 8.37
6/16/2022 4:00:00 PM 21.07 69.926 0.169 7.43 29.74 8.42
6/16/2022 4:15:00 PM 21.03 69.854 0.169 7.43 34.53 8.3
6/16/2022 4:30:00 PM 20.98 69.764 0.169 7.42 28.01 8.23
6/16/2022 4:45:00 PM 20.95 69.71 0.169 7.42 212.7 8.05
6/16/2022 5:00:00 PM 20.91 69.638 0.169 7.39 36.43 8.14
6/16/2022 5:15:00 PM 20.89 69.602 0.169 7.38 32.96 7.9
6/16/2022 5:30:00 PM 20.86 69.548 0.169 7.37 48.02 7.75
6/16/2022 5:45:00 PM 20.84 69.512 0.169 7.37 49.52 8.2
6/16/2022 6:00:00 PM 20.82 69.476 0.169 7.35 34.34 8.02
6/16/2022 6:15:00 PM 20.81 69.458 0.169 7.35 49 8.04
6/16/2022 6:30:00 PM 20.8 69.44 0.169 7.35 25.7 8.04
6/16/2022 6:45:00 PM 20.78 69.404 0.169 7.35 34.54 8.14
6/16/2022 7:00:00 PM 20.74 69.332 0.169 7.33 29.61 7.98
6/16/2022 7:15:00 PM 20.69 69.242 0.169 7.35 31.46 7.99
6/16/2022 7:30:00 PM 20.63 69.134 0.169 7.33 30.53 7.99
6/16/2022 7:45:00 PM 20.58 69.044 0.169 7.32 36.58 7.85
6/16/2022 8:00:00 PM 20.53 68.954 0.169 7.32 45.25 7.46
6/16/2022 8:15:00 PM 20.47 68.846 0.17 7.3 26.56 7.67
6/16/2022 8:30:00 PM 20.41 68.738 0.17 7.29 48.02 7.62
6/16/2022 8:45:00 PM 20.35 68.63 0.17 7.29 29.32 7.69
6/16/2022 9:00:00 PM 20.29 68.522 0.17 7.27 38.71 6.82
6/16/2022 9:15:00 PM 20.24 68.432 0.17 7.26 40.75 7.58
6/16/2022 9:30:00 PM 20.19 68.342 0.17 7.25 21.03 7.17
6/16/2022 9:45:00 PM 20.14 68.252 0.17 7.24 45.71 7.59
6/16/2022 10:00:00 PM 20.09 68.162 0.17 7.22 33.65 7.15
6/16/2022 10:15:00 PM 20.04 68.07201 0.17 7.23 41.8 7.42
6/16/2022 10:30:00 PM 20 68 0.17 7.2 29.22 7.58
6/16/2022 10:45:00 PM 19.95 67.91 0.17 7.21 29.94 7.48
6/16/2022 11:00:00 PM 19.91 67.838 0.17 7.21 29.7 7.58
6/16/2022 11:15:00 PM 19.87 67.766 0.17 7.2 33.49 7.68
6/16/2022 11:30:00 PM 19.84 67.712 0.17 7.2 31.48 7.52
6/16/2022 11:45:00 PM 19.81 67.658 0.17 7.19 25.55 7.35
6/17/2022 12:00:00 AM 19.78 67.604 0.17 7.18 34.15 7.48
6/17/2022 12:15:00 AM 19.75 67.55 0.17 7.17 42.11 7.59
6/17/2022 12:30:00 AM 19.72 67.496 0.17 7.18 37.13 7.41
6/17/2022 12:45:00 AM 19.69 67.442 0.17 7.17 30.19 7.62
6/17/2022 1:00:00 AM 19.66 67.388 0.17 7.15 24.69 7.2
6/17/2022 1:15:00 AM 19.63 67.334 0.17 7.16 30.74 7.37
6/17/2022 1:30:00 AM 19.6 67.28 0.17 7.12 28 7.5
6/17/2022 1:45:00 AM 19.58 67.244 0.169 7.16 30.01 7.46
6/17/2022 2:00:00 AM 19.54 67.172 0.169 7.15 41.01 7.48
6/17/2022 2:15:00 AM 19.52 67.136 0.169 7.15 42.43 7.48
6/17/2022 2:30:00 AM 19.49 67.082 0.17 7.14 27.83 7.35
6/17/2022 2:45:00 AM 19.46 67.028 0.17 7.14 29.13 6.69
6/17/2022 3:00:00 AM 19.43 66.974 0.17 7.13 25.79 6.96
6/17/2022 3:15:00 AM 19.4 66.92 0.17 7.13 20.62 7.31
6/17/2022 3:30:00 AM 19.37 66.866 0.17 7.11 24.95 7.15
6/17/2022 3:45:00 AM 19.33 66.794 0.17 7.11 24.5 7.45
6/17/2022 4:00:00 AM 19.3 66.74 0.17 7.12 35.7 7.12
6/17/2022 4:15:00 AM 19.27 66.686 0.17 7.11 37.84 7.13
6/17/2022 4:30:00 AM 19.23 66.614 0.17 7.12 25.11 7
6/17/2022 4:45:00 AM 19.2 66.56 0.17 7.11 27.13 7.06
6/17/2022 5:00:00 AM 19.17 66.506 0.17 7.1 30.9 7
6/17/2022 5:15:00 AM 19.13 66.434 0.17 7.12 34.88 6.81
6/17/2022 5:30:00 AM 19.1 66.38 0.17 7.12 39.95 7.23
6/17/2022 5:45:00 AM 19.06 66.308 0.17 7.12 32.7 7.08
6/17/2022 6:00:00 AM 19.03 66.254 0.17 7.12 26.36 7.1
6/17/2022 6:15:00 AM 18.99 66.182 0.17 7.13 27.46 6.82
6/17/2022 6:30:00 AM 18.96 66.128 0.17 7.13 32.87 6.83
6/17/2022 6:45:00 AM 18.93 66.074 0.17 7.13 29.58 7.04
6/17/2022 7:00:00 AM 18.9 66.02 0.17 7.12 25.65 7.07
6/17/2022 7:15:00 AM 18.88 65.984 0.17 7.12 22.69 7.1
6/17/2022 7:30:00 AM 18.86 65.948 0.17 7.13 23.62 7.32
6/17/2022 7:45:00 AM 18.85 65.93 0.17 7.13 28.48 6.95
6/17/2022 8:00:00 AM 18.84 65.912 0.17 7.13 21.26 6.93
6/17/2022 8:15:00 AM 18.84 65.912 0.17 7.13 26.24 7.11
6/17/2022 8:30:00 AM 18.85 65.93 0.17 7.13 31.75 7.61
6/17/2022 8:45:00 AM 18.87 65.966 0.17 7.14 38.45 7.28
6/17/2022 9:00:00 AM 18.91 66.038 0.17 7.14 41.16 7.42
6/17/2022 9:15:00 AM 18.96 66.128 0.17 7.13 21.05 7.7
6/17/2022 9:30:00 AM 19.03 66.254 0.17 7.15 25.61 7.52
6/17/2022 9:45:00 AM 19.1 66.38 0.17 7.15 16.08 7.71
6/17/2022 10:00:00 AM 19.21 66.578 0.17 7.15 51.94 7.3
6/17/2022 10:15:00 AM 19.34 66.812 0.17 7.16 30.81 7.87
6/17/2022 10:30:00 AM 19.48 67.064 0.17 7.16 84.38 7.49
6/17/2022 10:45:00 AM 19.64 67.352 0.17 7.17 29.19 7.78
6/17/2022 11:00:00 AM 19.84 67.712 0.17 7.18 33.03 7.85
6/17/2022 11:15:00 AM 20.07 68.126 0.17 7.18 31.25 8.18
6/17/2022 11:30:00 AM 20.32 68.576 0.17 7.18 26.98 8.25
6/17/2022 11:45:00 AM 20.56 69.008 0.17 7.19 33.65 8.36
6/17/2022 12:00:00 PM 20.85 69.53 0.17 7.18 27.54 8.11
6/17/2022 12:15:00 PM 21.13 70.034 0.17 7.19 29.09 8.32
6/17/2022 12:30:00 PM 21.43 70.574 0.17 7.2 40.51 7.92
6/17/2022 12:45:00 PM 21.79 71.222 0.17 7.2 19.44 8.23
6/17/2022 1:00:00 PM 22.15 71.87 0.17 7.19 27.69 8.26
6/17/2022 1:15:00 PM 22.52 72.536 0.17 7.21 20.11 8.12
6/17/2022 1:30:00 PM 22.83 73.094 0.17 7.24 28.58 8.15
6/17/2022 1:45:00 PM 23.11 73.598 0.17 7.21 26.53 7.68
6/17/2022 2:00:00 PM 23.43 74.174 0.17 7.2 41.81 7.99
6/17/2022 2:15:00 PM 23.7 74.66 0.17 7.21 26.97 8.05
6/17/2022 2:30:00 PM 23.91 75.038 0.17 7.2 32.74 7.69
6/17/2022 2:45:00 PM 24.09 75.362 0.17 7.2 27.78 7.81
6/17/2022 3:00:00 PM 24.22 75.596 0.17 7.2 31.07 7.46
6/17/2022 3:15:00 PM 24.27 75.686 0.17 7.2 23.6 7.1
6/17/2022 3:30:00 PM 24.44 75.992 0.17 7.21 23.03 7.26
6/17/2022 3:45:00 PM 24.58 76.244 0.17 7.2 50.76 7.19
6/17/2022 4:00:00 PM 24.64 76.352 0.17 7.2 24.9 7.44
6/17/2022 4:15:00 PM 24.61 76.298 0.171 7.19 26.04 7.42
6/17/2022 4:30:00 PM 24.56 76.208 0.171 7.19 28.43 7.82
6/17/2022 4:45:00 PM 24.47 76.046 0.171 7.2 22.22 7.06
6/17/2022 5:00:00 PM 24.34 75.812 0.171 7.2 28.28 7.07
6/17/2022 5:15:00 PM 24.24 75.632 0.171 7.18 22.79 7.09
6/17/2022 5:30:00 PM 24.16 75.488 0.171 7.21 27.56 7.19
6/17/2022 5:45:00 PM 24.07 75.326 0.171 7.21 24.31 7.15
6/17/2022 6:00:00 PM 23.99 75.182 0.171 7.21 31.29 6.52
6/17/2022 6:15:00 PM 23.9 75.02 0.171 7.2 21.85 6.37
6/17/2022 6:30:00 PM 23.78 74.804 0.171 7.2 26.59 6.69
6/17/2022 6:45:00 PM 23.66 74.588 0.171 7.19 25.6 7.28
6/17/2022 7:00:00 PM 23.52 74.336 0.171 7.18 28.36 7.3
6/17/2022 7:15:00 PM 23.39 74.102 0.171 7.18 18.16 6.59
6/17/2022 7:30:00 PM 23.25 73.85 0.171 7.18 24.6 6.5
6/17/2022 7:45:00 PM 23.11 73.598 0.171 7.17 20.34 6.33
6/17/2022 8:00:00 PM 22.98 73.364 0.171 7.17 35.25 6.48
6/17/2022 8:15:00 PM 22.86 73.148 0.171 7.17 25.77 6.13
6/17/2022 8:30:00 PM 22.75 72.95 0.171 7.16 24.51 6.2
6/17/2022 8:45:00 PM 22.63 72.734 0.171 7.15 32.13 6.54
6/17/2022 9:00:00 PM 22.53 72.554 0.171 7.14 48.57 6.49
6/17/2022 9:15:00 PM 22.43 72.374 0.171 7.13 36.3 6.59
6/17/2022 9:30:00 PM 22.33 72.194 0.171 7.13 31.76 6.65
6/17/2022 9:45:00 PM 22.23 72.014 0.171 7.13 21.38 6.53
6/17/2022 10:00:00 PM 22.13 71.834 0.171 7.12 24.3 6.44
6/17/2022 10:15:00 PM 22.03 71.654 0.171 7.11 34.67 5.8
6/17/2022 10:30:00 PM 21.92 71.456 0.171 7.11 25.42 6.46
6/17/2022 10:45:00 PM 21.8 71.24 0.171 7.11 49.46 6.22
6/17/2022 11:00:00 PM 21.68 71.024 0.171 7.11 28.84 6.63
6/17/2022 11:15:00 PM 21.57 70.826 0.171 7.11 26.56 6.78
6/17/2022 11:30:00 PM 21.45 70.61 0.171 7.09 27.03 7.03
6/17/2022 11:45:00 PM 21.34 70.412 0.171 7.1 30.83 7.2
6/18/2022 12:00:00 AM 21.23 70.214 0.171 7.1 27.66 7.17
6/18/2022 12:15:00 AM 21.11 69.998 0.171 7.11 27.62 7.27
6/18/2022 12:30:00 AM 20.99 69.782 0.171 7.11 36.34 6.97
6/18/2022 12:45:00 AM 20.88 69.584 0.171 7.1 26.42 6.8
6/18/2022 1:00:00 AM 20.77 69.386 0.171 7.11 34.53 7.05
6/18/2022 1:15:00 AM 20.67 69.206 0.171 7.1 22.12 6.62
6/18/2022 1:30:00 AM 20.57 69.026 0.17 7.09 38.67 6.86
6/18/2022 1:45:00 AM 20.46 68.828 0.17 7.11 43.16 6.68
6/18/2022 2:00:00 AM 20.36 68.648 0.17 7.1 47.38 6.94
6/18/2022 2:15:00 AM 20.25 68.45 0.17 7.1 28.08 7.3
6/18/2022 2:30:00 AM 20.15 68.27 0.17 7.11 29.35 7.38
6/18/2022 2:45:00 AM 20.07 68.126 0.17 7.1 40 7.33
6/18/2022 3:00:00 AM 19.98 67.964 0.17 7.11 35.02 7.33
6/18/2022 3:15:00 AM 19.89 67.802 0.17 7.11 28.55 6.97
6/18/2022 3:30:00 AM 19.8 67.64 0.17 7.11 42.7 7.09
6/18/2022 3:45:00 AM 19.73 67.514 0.171 7.11 38.71 7.56
6/18/2022 4:00:00 AM 19.66 67.388 0.17 7.11 34.13 7.43
6/18/2022 4:15:00 AM 19.6 67.28 0.17 7.12 27.78 7.37
6/18/2022 4:30:00 AM 19.53 67.154 0.17 7.13 26.03 7.36
6/18/2022 4:45:00 AM 19.46 67.028 0.17 7.13 26.13 7.44
6/18/2022 5:00:00 AM 19.4 66.92 0.17 7.12 21.22 7.19
6/18/2022 5:15:00 AM 19.32 66.776 0.17 7.11 32.14 7.43
6/18/2022 5:30:00 AM 19.26 66.668 0.17 7.13 27.48 7.35
6/18/2022 5:45:00 AM 19.2 66.56 0.17 7.14 39.82 7.32
6/18/2022 6:00:00 AM 19.14 66.452 0.17 7.14 27.26 7.43
6/18/2022 6:15:00 AM 19.09 66.362 0.17 7.13 37.76 7.29
6/18/2022 6:30:00 AM 19.04 66.272 0.17 7.14 41.3 7.48
6/18/2022 6:45:00 AM 19 66.2 0.17 7.14 37.22 7.64
6/18/2022 7:00:00 AM 18.97 66.146 0.17 7.13 33 7.69
6/18/2022 7:15:00 AM 18.94 66.092 0.17 7.12 39 7.71
6/18/2022 7:30:00 AM 18.9 66.02 0.17 7.14 38.88 7.7
6/18/2022 7:45:00 AM 18.86 65.948 0.17 7.15 32.14 7.62
6/18/2022 8:00:00 AM 18.81 65.858 0.17 7.14 48.99 7.72
6/18/2022 8:15:00 AM 18.77 65.786 0.17 7.16 29.9 7.77
6/18/2022 8:30:00 AM 18.73 65.714 0.17 7.15 23.85 7.99
6/18/2022 8:45:00 AM 18.72 65.696 0.17 7.16 27.2 8.04
6/18/2022 9:00:00 AM 18.7 65.66 0.17 7.17 42.64 7.87
6/18/2022 9:15:00 AM 18.68 65.624 0.17 7.18 23.49 8.1
6/18/2022 9:30:00 AM 18.69 65.642 0.17 7.18 29.12 8.29
6/18/2022 9:45:00 AM 18.69 65.642 0.17 7.19 29.75 8.35
6/18/2022 10:00:00 AM 18.72 65.696 0.17 7.19 28.09 8.3
6/18/2022 10:15:00 AM 18.76 65.768 0.169 7.2 47.43 8.34
6/18/2022 10:30:00 AM 18.78 65.804 0.169 7.19 25.82 8.31
6/18/2022 10:45:00 AM 18.82 65.876 0.169 7.22 34.07 8.19
6/18/2022 11:00:00 AM 18.83 65.894 0.169 7.23 18.22 8.49
6/18/2022 11:15:00 AM 18.84 65.912 0.169 7.23 23.5 8.57
6/18/2022 11:30:00 AM 18.84 65.912 0.169 7.23 24.9 8.51
6/18/2022 11:45:00 AM 18.84 65.912 0.169 7.24 18.84 8.5
6/18/2022 12:00:00 PM 18.84 65.912 0.169 7.25 23.87 8.49
6/18/2022 12:15:00 PM 18.87 65.966 0.169 7.25 30.39 8.58
6/18/2022 12:30:00 PM 19.01 66.218 0.169 7.24 25.54 8.62
6/18/2022 12:45:00 PM 19.2 66.56 0.169 7.24 24.94 8.7
6/18/2022 1:00:00 PM 19.39 66.902 0.169 7.26 20.25 8.75
6/18/2022 1:15:00 PM 19.53 67.154 0.169 7.27 36.18 8.6
6/18/2022 1:30:00 PM 19.73 67.514 0.169 7.28 33.82 8.56
6/18/2022 1:45:00 PM 19.88 67.784 0.169 7.28 19.49 8.83
6/18/2022 2:00:00 PM 20.08 68.144 0.169 7.28 28.56 8.64
6/18/2022 2:15:00 PM 20.29 68.522 0.169 7.29 29.83 8.77
6/18/2022 2:30:00 PM 20.46 68.828 0.169 7.29 19.13 8.57
6/18/2022 2:45:00 PM 20.63 69.134 0.169 7.29 27.85 8.52
6/18/2022 3:00:00 PM 20.77 69.386 0.169 7.3 28.1 8.78
6/18/2022 3:15:00 PM 21.03 69.854 0.169 7.3 17.69 8.3
6/18/2022 3:30:00 PM 21.21 70.17799 0.169 7.31 17.43 8.64
6/18/2022 3:45:00 PM 21.34 70.412 0.169 7.31 22.87 8.51
6/18/2022 4:00:00 PM 21.38 70.484 0.17 7.31 32.71 8.35
6/18/2022 4:15:00 PM 21.32 70.376 0.17 7.32 29.28 8.34
6/18/2022 4:30:00 PM 21.23 70.214 0.17 7.31 19.37 8.36
6/18/2022 4:45:00 PM 21.12 70.016 0.17 7.31 25.66 8.36
6/18/2022 5:00:00 PM 21.02 69.836 0.17 7.31 29 7.76
6/18/2022 5:15:00 PM 20.93 69.674 0.17 7.31 23.41 7.98
6/18/2022 5:30:00 PM 20.85 69.53 0.17 7.32 18.12 8.19
6/18/2022 5:45:00 PM 20.75 69.35 0.17 7.31 18.98 8.19
6/18/2022 6:00:00 PM 20.69 69.242 0.17 7.31 17 8.31
6/18/2022 6:15:00 PM 20.59 69.062 0.17 7.31 19.2 8.32
6/18/2022 6:30:00 PM 20.47 68.846 0.17 7.31 15.14 8.05
6/18/2022 6:45:00 PM 20.32 68.576 0.17 7.31 25.44 7.96
6/18/2022 7:00:00 PM 20.17 68.306 0.17 7.3 25.3 8.25
6/18/2022 7:15:00 PM 20.04 68.07201 0.17 7.3 22.64 7.86
6/18/2022 7:30:00 PM 19.89 67.802 0.17 7.3 18.88 7.13
6/18/2022 7:45:00 PM 19.74 67.532 0.17 7.29 16.09 7.79
6/18/2022 8:00:00 PM 19.59 67.262 0.17 7.29 17.99 8.04
6/18/2022 8:15:00 PM 19.46 67.028 0.17 7.27 18.27 8.06
6/18/2022 8:30:00 PM 19.31 66.758 0.17 7.27 18.73 7.6
6/18/2022 8:45:00 PM 19.19 66.542 0.17 7.26 18.54 7.42
6/18/2022 9:00:00 PM 19.06 66.308 0.17 7.26 26.47 8.04
6/18/2022 9:15:00 PM 18.96 66.128 0.17 7.25 19 7.96
6/18/2022 9:30:00 PM 18.84 65.912 0.17 7.25 20.4 7.76
6/18/2022 9:45:00 PM 18.73 65.714 0.17 7.24 35.5 7.29
6/18/2022 10:00:00 PM 18.63 65.534 0.17 7.24 28.76 7.1
6/18/2022 10:15:00 PM 18.53 65.354 0.17 7.23 25.42 7.3
6/18/2022 10:30:00 PM 18.41 65.138 0.17 7.22 25.82 7.2
6/18/2022 10:45:00 PM 18.29 64.922 0.17 7.22 23.46 7.53
6/18/2022 11:00:00 PM 18.18 64.724 0.17 7.22 18.34 7.05
6/18/2022 11:15:00 PM 18.05 64.49 0.17 7.23 24.98 6.7
6/18/2022 11:30:00 PM 17.91 64.238 0.17 7.21 20.78 7.07
6/18/2022 11:45:00 PM 17.78 64.004 0.169 7.21 26.59 7.13
6/19/2022 12:00:00 AM 17.67 63.806 0.169 7.21 19.47 7.84
6/19/2022 12:15:00 AM 17.56 63.608 0.169 7.2 15.67 8.16
6/19/2022 12:30:00 AM 17.45 63.41 0.169 7.19 16.17 7.55
6/19/2022 12:45:00 AM 17.34 63.212 0.169 7.2 25.49 6.98
6/19/2022 1:00:00 AM 17.23 63.014 0.17 7.19 14.64 7.2
6/19/2022 1:15:00 AM 17.14 62.852 0.17 7.19 19.88 7.27
6/19/2022 1:30:00 AM 17.03 62.654 0.169 7.19 15.27 7.96
6/19/2022 1:45:00 AM 16.91 62.438 0.169 7.2 14.68 7.69
6/19/2022 2:00:00 AM 16.81 62.258 0.169 7.21 16.12 7.36
6/19/2022 2:15:00 AM 16.7 62.06 0.169 7.2 12.27 7.37
6/19/2022 2:30:00 AM 16.62 61.916 0.169 7.19 19.05 7.22
6/19/2022 2:45:00 AM 16.52 61.736 0.169 7.19 13.07 7.66
6/19/2022 3:00:00 AM 16.44 61.592 0.169 7.2 17.6 8.22
6/19/2022 3:15:00 AM 16.36 61.448 0.169 7.19 16.59 8.27
6/19/2022 3:30:00 AM 16.28 61.304 0.169 7.19 13.85 6.92
6/19/2022 3:45:00 AM 16.21 61.178 0.169 7.2 20.76 6.88
6/19/2022 4:00:00 AM 16.13 61.034 0.169 7.2 10.28 7.6
6/19/2022 4:15:00 AM 16.05 60.89 0.169 7.2 19.78 8.03
6/19/2022 4:30:00 AM 15.97 60.746 0.169 7.2 18.11 7.09
6/19/2022 4:45:00 AM 15.9 60.62 0.169 7.2 17.61 7.83
6/19/2022 5:00:00 AM 15.82 60.476 0.169 7.21 16.51 7.67
6/19/2022 5:15:00 AM 15.75 60.35 0.169 7.19 18.86 7.11
6/19/2022 5:30:00 AM 15.68 60.224 0.169 7.2 20.6 7.44
6/19/2022 5:45:00 AM 15.61 60.098 0.169 7.21 19.76 6.99
6/19/2022 6:00:00 AM 15.54 59.972 0.169 7.21 15.17 7.39
6/19/2022 6:15:00 AM 15.47 59.846 0.169 7.22 12.84 7.37
6/19/2022 6:30:00 AM 15.4 59.72 0.169 7.22 11.85 7.47
6/19/2022 6:45:00 AM 15.32 59.576 0.169 7.23 8.98 7.71
6/19/2022 7:00:00 AM 15.26 59.468 0.169 7.23 11.76 8.34
6/19/2022 7:15:00 AM 15.21 59.378 0.169 7.24 15.7 8.07
6/19/2022 7:30:00 AM 15.16 59.288 0.169 7.24 10.66 8.21
6/19/2022 7:45:00 AM 15.12 59.216 0.169 7.23 18.98 8.38
6/19/2022 8:00:00 AM 15.1 59.18 0.169 7.24 14.97 8.28
6/19/2022 8:15:00 AM 15.1 59.18 0.169 7.25 15.44 8.57
6/19/2022 8:30:00 AM 15.11 59.198 0.169 7.25 15.44 8.42
6/19/2022 8:45:00 AM 15.11 59.198 0.169 7.25 13.43 8.67
6/19/2022 9:00:00 AM 15.12 59.216 0.169 7.26 14.93 8.62
6/19/2022 9:15:00 AM 15.12 59.216 0.169 7.25 10.81 8.62
6/19/2022 9:30:00 AM 15.14 59.252 0.169 7.25 8.71 8.75
6/19/2022 9:45:00 AM 15.16 59.288 0.169 7.26 12.58 8.79
6/19/2022 10:00:00 AM 15.2 59.36 0.169 7.26 19.5 8.74
6/19/2022 10:15:00 AM 15.28 59.504 0.169 7.27 17.57 8.72
6/19/2022 10:30:00 AM 15.38 59.684 0.169 7.26 19.43 8.99
6/19/2022 10:45:00 AM 15.52 59.936 0.169 7.27 16.55 8.87
6/19/2022 11:00:00 AM 15.67 60.206 0.169 7.27 9.43 8.88
6/19/2022 11:15:00 AM 15.85 60.53 0.169 7.26 29.87 8.85
6/19/2022 11:30:00 AM 16.06 60.908 0.169 7.27 20.02 8.88
6/19/2022 11:45:00 AM 16.28 61.304 0.169 7.27 9.98 8.89
6/19/2022 12:00:00 PM 16.55 61.79 0.169 7.28 23.51 8.87
6/19/2022 12:15:00 PM 16.85 62.33 0.169 7.27 11.49 9.11
6/19/2022 12:30:00 PM 17.17 62.906 0.169 7.27 8.7 9.15
6/19/2022 12:45:00 PM 17.54 63.572 0.169 7.27 17.41 9.24
6/19/2022 1:00:00 PM 17.9 64.22 0.169 7.27 12.59 9.07
6/19/2022 1:15:00 PM 18.31 64.958 0.168 7.29 11.88 9.07
6/19/2022 1:30:00 PM 18.71 65.67799 0.168 7.28 21.35 8.93
6/19/2022 1:45:00 PM 19.11 66.398 0.168 7.28 23.99 9
6/19/2022 2:00:00 PM 19.5 67.1 0.169 7.29 15.33 8.85
6/19/2022 2:15:00 PM 19.86 67.748 0.169 7.29 15.75 8.99
6/19/2022 2:30:00 PM 20.18 68.324 0.169 7.27 15.54 9.13
6/19/2022 2:45:00 PM 20.49 68.882 0.169 7.3 15.33 9.07
6/19/2022 3:00:00 PM 20.64 69.152 0.169 7.29 14.36 8.98
6/19/2022 3:15:00 PM 20.81 69.458 0.169 7.29 15.43 8.76
6/19/2022 3:30:00 PM 20.96 69.728 0.169 7.3 12.63 8.86
6/19/2022 3:45:00 PM 21.05 69.89 0.169 7.31 17.63 8.79
6/19/2022 4:00:00 PM 21.07 69.926 0.169 7.31 13.56 8.52
6/19/2022 4:15:00 PM 21.06 69.908 0.169 7.33 17.71 8.08
6/19/2022 4:30:00 PM 20.97 69.746 0.17 7.33 20.92 8.5
6/19/2022 4:45:00 PM 20.88 69.584 0.17 7.33 13.3 8.49
6/19/2022 5:00:00 PM 20.75 69.35 0.17 7.33 25.49 8.57
6/19/2022 5:15:00 PM 20.64 69.152 0.17 7.33 11.45 8.51
6/19/2022 5:30:00 PM 20.54 68.972 0.17 7.34 15.03 8.33
6/19/2022 5:45:00 PM 20.45 68.81 0.17 7.34 16.04 8.17
6/19/2022 6:00:00 PM 20.35 68.63 0.17 7.33 12.5 8.34
6/19/2022 6:15:00 PM 20.22 68.396 0.17 7.32 13.29 8.27
6/19/2022 6:30:00 PM 20.06 68.108 0.17 7.32 13.53 7.84
6/19/2022 6:45:00 PM 19.91 67.838 0.17 7.31 21.13 8.25
6/19/2022 7:00:00 PM 19.75 67.55 0.17 7.31 11.5 8.15
6/19/2022 7:15:00 PM 19.61 67.298 0.17 7.3 22.84 7.91
6/19/2022 7:30:00 PM 19.47 67.046 0.17 7.3 10.25 7.9
6/19/2022 7:45:00 PM 19.34 66.812 0.17 7.28 10.26 7.71
6/19/2022 8:00:00 PM 19.22 66.596 0.17 7.28 9.76 8.05
6/19/2022 8:15:00 PM 19.09 66.362 0.17 7.26 10.85 8.2
6/19/2022 8:30:00 PM 18.95 66.11 0.17 7.25 12.41 8.12
6/19/2022 8:45:00 PM 18.82 65.876 0.17 7.25 10.21 7.99
6/19/2022 9:00:00 PM 18.7 65.66 0.17 7.24 8.46 7.85
6/19/2022 9:15:00 PM 18.57 65.426 0.17 7.25 18.07 7.58
6/19/2022 9:30:00 PM 18.48 65.264 0.171 7.24 28.3 7.82
6/19/2022 9:45:00 PM 18.34 65.012 0.171 7.23 14.34 7.44
6/19/2022 10:00:00 PM 18.21 64.778 0.17 7.22 9.79 7.74
6/19/2022 10:15:00 PM 18.09 64.562 0.17 7.2 12.24 7.53
6/19/2022 10:30:00 PM 17.99 64.382 0.17 7.2 10.34 7.48
6/19/2022 10:45:00 PM 17.86 64.148 0.17 7.19 14.56 7.94
6/19/2022 11:00:00 PM 17.76 63.968 0.17 7.2 17 7.89
6/19/2022 11:15:00 PM 17.64 63.752 0.17 7.2 16.04 7.87
6/19/2022 11:30:00 PM 17.51 63.518 0.17 7.2 11.97 7.93
6/19/2022 11:45:00 PM 17.4 63.32 0.17 7.18 11.4 7.81
6/20/2022 12:00:00 AM 17.28 63.104 0.17 7.17 13.36 7.83
6/20/2022 12:15:00 AM 17.18 62.924 0.17 7.18 41.08 7.88
6/20/2022 12:30:00 AM 17.04 62.672 0.17 7.18 16.75 7.68
6/20/2022 12:45:00 AM 16.94 62.492 0.17 7.18 20.6 7.97
6/20/2022 1:00:00 AM 16.79 62.222 0.17 7.17 16.5 7.94
6/20/2022 1:15:00 AM 16.69 62.042 0.17 7.18 9.29 8.32
6/20/2022 1:30:00 AM 16.58 61.844 0.17 7.18 22.4 7.92
6/20/2022 1:45:00 AM 16.45 61.61 0.17 7.19 19.63 7.97
6/20/2022 2:00:00 AM 16.34 61.412 0.17 7.18 11.62 7.93
6/20/2022 2:15:00 AM 16.25 61.25 0.17 7.19 21.26 8.09
6/20/2022 2:30:00 AM 16.14 61.052 0.17 7.2 18.87 8.48
6/20/2022 2:45:00 AM 16.04 60.872 0.17 7.18 12.69 8.05
6/20/2022 3:00:00 AM 15.95 60.71 0.17 7.19 11.14 7.94
6/20/2022 3:15:00 AM 15.84 60.512 0.17 7.17 9.41 8.24
6/20/2022 3:30:00 AM 15.77 60.386 0.17 7.19 14.06 8.11
6/20/2022 3:45:00 AM 15.67 60.206 0.17 7.17 9.98 7.97
6/20/2022 4:00:00 AM 15.6 60.08 0.169 7.2 16.74 8.54
6/20/2022 4:15:00 AM 15.52 59.936 0.169 7.17 13.21 8.64
6/20/2022 4:30:00 AM 15.45 59.81 0.169 7.18 23.07 8.54
6/20/2022 4:45:00 AM 15.35 59.63 0.169 7.18 8.54 8.37
6/20/2022 5:00:00 AM 15.28 59.504 0.169 7.17 10.98 8.5
6/20/2022 5:15:00 AM 15.2 59.36 0.169 7.17 6.56 8.61
6/20/2022 5:30:00 AM 15.12 59.216 0.169 7.17 6.95 8.57
6/20/2022 5:45:00 AM 15.04 59.072 0.169 7.17 9.28 8.38
6/20/2022 6:00:00 AM 14.97 58.946 0.169 7.16 9.71 8.66
6/20/2022 6:15:00 AM 14.89 58.802 0.169 7.17 13.48 8.57
6/20/2022 6:30:00 AM 14.82 58.676 0.169 7.17 15.17 8.71
6/20/2022 6:45:00 AM 14.77 58.586 0.169 7.17 9.81 8.86
6/20/2022 7:00:00 AM 14.7 58.46 0.169 7.16 15.71 8.87
6/20/2022 7:15:00 AM 14.65 58.37 0.169 7.15 16.91 8.89
6/20/2022 7:30:00 AM 14.61 58.298 0.169 7.16 22.59 9
6/20/2022 7:45:00 AM 14.58 58.244 0.169 7.17 9.91 8.82
6/20/2022 8:00:00 AM 14.56 58.208 0.169 7.16 13.48 8.93
6/20/2022 8:15:00 AM 14.54 58.172 0.169 7.17 8.32 8.96
6/20/2022 8:30:00 AM 14.54 58.172 0.169 7.16 8.68 9.06
6/20/2022 8:45:00 AM 14.55 58.19 0.169 7.17 13.72 8.98
6/20/2022 9:00:00 AM 14.59 58.262 0.169 7.16 7.93 9.16
6/20/2022 9:15:00 AM 14.65 58.37 0.169 7.18 12.67 9.19
6/20/2022 9:30:00 AM 14.7 58.46 0.169 7.16 12.09 9.16
6/20/2022 9:45:00 AM 14.78 58.604 0.169 7.15 8.02 9.23
6/20/2022 10:00:00 AM 14.86 58.748 0.169 7.15 8.53 9.23
6/20/2022 10:15:00 AM 14.97 58.946 0.169 7.15 10.87 9.16
6/20/2022 10:30:00 AM 15.12 59.216 0.169 7.15 9.27 9.25
6/20/2022 10:45:00 AM 15.25 59.45 0.169 7.15 15.52 9.16
6/20/2022 11:00:00 AM 15.45 59.81 0.168 7.16 10.49 9.37
6/20/2022 11:15:00 AM 15.65 60.17 0.168 7.18 7.84 9.29
6/20/2022 11:30:00 AM 15.9 60.62 0.168 7.19 22.35 9.28
6/20/2022 11:45:00 AM 16.15 61.07 0.168 7.2 11.42 9.09
6/20/2022 12:00:00 PM 16.46 61.628 0.168 7.2 20.28 9.33
6/20/2022 12:15:00 PM 16.76 62.168 0.168 7.19 11.54 9.21
6/20/2022 12:30:00 PM 17.12 62.816 0.168 7.2 9.13 9.23
6/20/2022 12:45:00 PM 17.49 63.482 0.168 7.23 12.57 9.03
6/20/2022 1:00:00 PM 17.89 64.202 0.168 7.22 22.61 8.82
6/20/2022 1:15:00 PM 18.27 64.886 0.168 7.21 21.64 9.34
6/20/2022 1:30:00 PM 18.7 65.66 0.168 7.22 22.3 9.24
6/20/2022 1:45:00 PM 19.13 66.434 0.168 7.22 9.35 9.34
6/20/2022 2:00:00 PM 19.5 67.1 0.168 7.21 19.78 9.27
6/20/2022 2:15:00 PM 19.9 67.82 0.168 7.21 17.12 9.13
6/20/2022 2:30:00 PM 20.31 68.558 0.168 7.21 14.3 9.14
6/20/2022 2:45:00 PM 20.58 69.044 0.168 7.21 15.43 9.07
6/20/2022 3:00:00 PM 20.81 69.458 0.169 7.2 9.3 8.98
6/20/2022 3:15:00 PM 21 69.8 0.169 7.18 20.12 8.98
6/20/2022 3:30:00 PM 21.13 70.034 0.169 7.16 18.06 9.08
6/20/2022 3:45:00 PM 21.27 70.286 0.169 7.16 10.71 8.94
6/20/2022 4:00:00 PM 21.28 70.304 0.169 7.13 12.24 9.01
6/20/2022 4:15:00 PM 21.26 70.268 0.17 7.13 12.6 8.83
6/20/2022 4:30:00 PM 21.24 70.232 0.17 7.11 17.85 8.85
6/20/2022 4:45:00 PM 21.19 70.142 0.17 7.1 10.14 8.74
6/20/2022 5:00:00 PM 21.09 69.962 0.17 7.09 10.63 8.77
6/20/2022 5:15:00 PM 20.98 69.764 0.17 7.09 18.58 8.72
6/20/2022 5:30:00 PM 20.88 69.584 0.17 7.08 15.7 8.7
6/20/2022 5:45:00 PM 20.79 69.422 0.17 7.09 14.5 8.6
6/20/2022 6:00:00 PM 20.7 69.26 0.17 7.09 25.8 8.57
6/20/2022 6:15:00 PM 20.6 69.08 0.17 7.09 12.58 8.48
6/20/2022 6:30:00 PM 20.46 68.828 0.17 7.1 11.55 8.42
6/20/2022 6:45:00 PM 20.31 68.558 0.171 7.09 21.24 8.37
6/20/2022 7:00:00 PM 20.15 68.27 0.171 7.09 13.72 8.46
6/20/2022 7:15:00 PM 20.01 68.018 0.171 7.09 19.44 8.28
6/20/2022 7:30:00 PM 19.86 67.748 0.171 7.1 15.91 8.37
6/20/2022 7:45:00 PM 19.72 67.496 0.171 7.11 11.79 8.24
6/20/2022 8:00:00 PM 19.61 67.298 0.171 7.11 9.02 8.16
6/20/2022 8:15:00 PM 19.45 67.01 0.171 7.11 17.34 8.24
6/20/2022 8:30:00 PM 19.32 66.776 0.171 7.11 14.34 8.31
6/20/2022 8:45:00 PM 19.18 66.524 0.171 7.1 13.05 8.32
6/20/2022 9:00:00 PM 19.06 66.308 0.171 7.12 20.25 8.11
6/20/2022 9:15:00 PM 18.93 66.074 0.171 7.13 20.07 8.17
6/20/2022 9:30:00 PM 18.82 65.876 0.171 7.13 13.77 8.09
6/20/2022 9:45:00 PM 18.71 65.67799 0.171 7.13 17.99 7.96
6/20/2022 10:00:00 PM 18.6 65.48 0.171 7.14 21.83 8.18
6/20/2022 10:15:00 PM 18.49 65.282 0.171 7.14 35.16 7.91
6/20/2022 10:30:00 PM 18.37 65.066 0.171 7.15 19.1 7.88
6/20/2022 10:45:00 PM 18.27 64.886 0.171 7.15 12.76 8.12
6/20/2022 11:00:00 PM 18.17 64.706 0.171 7.15 13.07 8.16
6/20/2022 11:15:00 PM 18.06 64.508 0.171 7.14 26.74 8.11
6/20/2022 11:30:00 PM 17.97 64.346 0.171 7.13 21.06 8.05
6/20/2022 11:45:00 PM 17.87 64.166 0.171 7.14 23.77 7.94
6/21/2022 12:00:00 AM 17.77 63.986 0.171 7.15 14.03 7.85
6/21/2022 12:15:00 AM 17.67 63.806 0.171 7.14 14.52 7.95
6/21/2022 12:30:00 AM 17.56 63.608 0.171 7.14 21.55 8.12
6/21/2022 12:45:00 AM 17.47 63.446 0.171 7.15 14.98 8.03
6/21/2022 1:00:00 AM 17.37 63.266 0.171 7.14 13.99 8.1
6/21/2022 1:15:00 AM 17.28 63.104 0.171 7.14 20.26 8.24
6/21/2022 1:30:00 AM 17.18 62.924 0.171 7.14 16.16 7.92
6/21/2022 1:45:00 AM 17.1 62.78 0.171 7.14 25.01 7.71
6/21/2022 2:00:00 AM 17.03 62.654 0.172 7.13 23.51 8.09
6/21/2022 2:15:00 AM 16.92 62.456 0.171 7.13 19.95 7.99
6/21/2022 2:30:00 AM 16.85 62.33 0.171 7.14 26.24 7.99
6/21/2022 2:45:00 AM 16.78 62.204 0.171 7.12 13.29 8.19
6/21/2022 3:00:00 AM 16.7 62.06 0.171 7.12 18.56 8.34
6/21/2022 3:15:00 AM 16.64 61.952 0.171 7.14 12.26 8.19
6/21/2022 3:30:00 AM 16.57 61.826 0.171 7.13 15.46 8.18
6/21/2022 3:45:00 AM 16.51 61.718 0.17 7.16 17.27 8.35
6/21/2022 4:00:00 AM 16.45 61.61 0.17 7.16 26.25 8.46
6/21/2022 4:15:00 AM 16.4 61.52 0.17 7.15 26.45 8.28
6/21/2022 4:30:00 AM 16.35 61.43 0.17 7.15 14.59 8.39
6/21/2022 4:45:00 AM 16.29 61.322 0.17 7.16 21.56 8.43
6/21/2022 5:00:00 AM 16.24 61.232 0.17 7.17 25.73 8.3
6/21/2022 5:15:00 AM 16.18 61.124 0.17 7.16 28.04 8.5
6/21/2022 5:30:00 AM 16.14 61.052 0.17 7.16 21.23 8.38
6/21/2022 5:45:00 AM 16.1 60.98 0.17 7.17 91.18 8.25
6/21/2022 6:00:00 AM 16.06 60.908 0.17 7.18 25.68 8.55
6/21/2022 6:15:00 AM 16.04 60.872 0.17 7.18 12.9 8.6
6/21/2022 6:30:00 AM 16.02 60.836 0.17 7.17 20.19 8.36
6/21/2022 6:45:00 AM 16 60.8 0.17 7.19 9.58 7.92
6/21/2022 7:00:00 AM 16 60.8 0.17 7.19 11.35 8.37
6/21/2022 7:15:00 AM 15.99 60.782 0.17 7.18 15.35 8.52
6/21/2022 7:30:00 AM 16 60.8 0.17 7.2 11.15 8.5
6/21/2022 7:45:00 AM 16 60.8 0.17 7.19 16.78 8.61
6/21/2022 8:00:00 AM 16 60.8 0.17 7.19 9.56 8.63
6/21/2022 8:15:00 AM 16 60.8 0.17 7.19 28.28 8.76
6/21/2022 8:30:00 AM 16.02 60.836 0.17 7.2 15.02 8.77
6/21/2022 8:45:00 AM 16.03 60.854 0.17 7.21 17.38 8.48
6/21/2022 9:00:00 AM 16.04 60.872 0.17 7.2 7.37 8.65
6/21/2022 9:15:00 AM 16.06 60.908 0.17 7.2 8.95 8.78
6/21/2022 9:30:00 AM 16.1 60.98 0.17 7.21 8.48 8.84
6/21/2022 9:45:00 AM 16.15 61.07 0.17 7.23 8.51 8.93
6/21/2022 10:00:00 AM -99999.99 -179968 -99999.99 -99999.99 -99999.99 -99999.99
6/21/2022 10:15:00 AM 16.29 61.322 0 7 0 0
6/21/2022 10:30:00 AM 16.35 61.43 0.168 7.86 3.55 9.88
6/21/2022 10:45:00 AM 16.43 61.574 0.168 7.82 2.69 9.92
6/21/2022 11:00:00 AM 16.49 61.682 0.168 7.79 3.24 9.94
6/21/2022 11:15:00 AM 16.54 61.772 0.168 7.76 3.13 9.95
6/21/2022 11:30:00 AM 16.56 61.808 0.168 7.77 2.86 9.91
6/21/2022 11:45:00 AM 16.59 61.862 0.168 7.73 2.35 9.86
6/21/2022 12:00:00 PM 16.65 61.97 0.168 7.7 2.05 9.87
6/21/2022 12:15:00 PM 16.73 62.114 0.168 7.7 2.66 9.91
6/21/2022 12:30:00 PM 16.9 62.42 0.168 7.68 3.59 9.98
6/21/2022 12:45:00 PM 17.17 62.906 0.167 7.69 2.44 10.09
6/21/2022 1:00:00 PM 17.48 63.464 0.168 7.71 2.82 10.15
6/21/2022 1:15:00 PM 17.78 64.004 0.167 7.7 2.53 10.16
6/21/2022 1:30:00 PM 18.02 64.436 0.167 7.74 3.15 10.17
6/21/2022 1:45:00 PM 18.27 64.886 0.167 7.77 2.85 10.16
6/21/2022 2:00:00 PM 18.5 65.3 0.167 7.76 3.19 10.15
6/21/2022 2:15:00 PM 18.67 65.606 0.167 7.77 3.15 10.13
6/21/2022 2:30:00 PM 18.74 65.732 0.167 7.79 2.51 10.07
6/21/2022 2:45:00 PM 18.93 66.074 0.167 7.79 2.94 10.02
6/21/2022 3:00:00 PM 19.26 66.668 0.167 7.84 2.84 10.01
6/21/2022 3:15:00 PM 19.57 67.226 0.167 7.89 2.05 10
6/21/2022 3:30:00 PM 19.85 67.73 0.167 7.88 2.37 9.99
6/21/2022 3:45:00 PM 20.07 68.126 0.167 7.92 2.32 9.95
6/21/2022 4:00:00 PM 20.18 68.324 0.167 7.93 2.54 9.87
6/21/2022 4:15:00 PM 20.32 68.576 0.167 7.93 5.01 9.82
6/21/2022 4:30:00 PM 20.37 68.666 0.167 7.93 2.38 9.77
6/21/2022 4:45:00 PM 20.36 68.648 0.167 7.95 3.66 9.7
6/21/2022 5:00:00 PM 20.34 68.612 0.167 7.97 2.88 9.62
6/21/2022 5:15:00 PM 20.33 68.594 0.167 7.97 3.88 9.53
6/21/2022 5:30:00 PM 20.34 68.612 0.168 7.93 3.6 9.48
6/21/2022 5:45:00 PM 20.34 68.612 0.168 7.92 3.26 9.4
6/21/2022 6:00:00 PM 20.34 68.612 0.168 7.9 3.02 9.32
6/21/2022 6:15:00 PM 20.33 68.594 0.168 7.88 3.46 9.27
6/21/2022 6:30:00 PM 20.3 68.54 0.168 7.91 3.71 9.2
6/21/2022 6:45:00 PM 20.21 68.378 0.168 7.86 3.48 9.15
6/21/2022 7:00:00 PM 20.14 68.252 0.168 7.85 2.88 9.09
6/21/2022 7:15:00 PM 20.04 68.07201 0.168 7.82 5.06 9.02
6/21/2022 7:30:00 PM 19.95 67.91 0.168 7.81 4.01 8.95
6/21/2022 7:45:00 PM 19.85 67.73 0.168 7.76 2.86 8.92
6/21/2022 8:00:00 PM 19.78 67.604 0.168 7.75 3.23 8.88
6/21/2022 8:15:00 PM 19.7 67.46 0.168 7.69 2.22 8.84
6/21/2022 8:30:00 PM 19.61 67.298 0.168 7.66 3.6 8.81
6/21/2022 8:45:00 PM 19.53 67.154 0.168 7.65 2.35 8.78
6/21/2022 9:00:00 PM 19.45 67.01 0.168 7.62 2.85 8.73
6/21/2022 9:15:00 PM 19.37 66.866 0.168 7.61 3.61 8.69
6/21/2022 9:30:00 PM 19.28 66.704 0.168 7.58 4.53 8.64
6/21/2022 9:45:00 PM 19.21 66.578 0.168 7.56 3.49 8.62
6/21/2022 10:00:00 PM 19.13 66.434 0.168 7.54 3.61 8.6
6/21/2022 10:15:00 PM 19.05 66.29 0.168 7.51 4.53 8.59
6/21/2022 10:30:00 PM 18.98 66.164 0.168 7.5 5.19 8.59
6/21/2022 10:45:00 PM 18.91 66.038 0.168 7.48 5.36 8.58
6/21/2022 11:00:00 PM 18.84 65.912 0.168 7.44 3.89 8.58
6/21/2022 11:15:00 PM 18.77 65.786 0.168 7.43 4.18 8.57
6/21/2022 11:30:00 PM 18.7 65.66 0.168 7.44 4.8 8.56
6/21/2022 11:45:00 PM 18.62 65.516 0.168 7.39 15.2 8.58
6/22/2022 12:00:00 AM 18.55 65.39 0.168 7.43 5.26 8.58
6/22/2022 12:15:00 AM 18.48 65.264 0.168 7.4 5.37 8.6
6/22/2022 12:30:00 AM 18.4 65.12 0.168 7.4 6.17 8.6
6/22/2022 12:45:00 AM 18.32 64.976 0.168 7.37 6.38 8.61
6/22/2022 1:00:00 AM 18.25 64.85 0.168 7.36 4.42 8.62
6/22/2022 1:15:00 AM 18.18 64.724 0.168 7.37 5.22 8.64
6/22/2022 1:30:00 AM 18.1 64.58 0.168 7.36 4.12 8.65
6/22/2022 1:45:00 AM 18.03 64.454 0.168 7.34 5.33 8.66
6/22/2022 2:00:00 AM 17.96 64.328 0.168 7.36 5.62 8.68
6/22/2022 2:15:00 AM 17.89 64.202 0.168 7.34 5.38 8.7
6/22/2022 2:30:00 AM 17.83 64.094 0.168 7.33 5.28 8.71
6/22/2022 2:45:00 AM 17.77 63.986 0.168 7.34 6.91 8.7
6/22/2022 3:00:00 AM 17.72 63.896 0.168 7.33 4.57 8.72
6/22/2022 3:15:00 AM 17.66 63.788 0.168 7.32 6.86 8.73
6/22/2022 3:30:00 AM 17.62 63.716 0.168 7.32 5.21 8.74
6/22/2022 3:45:00 AM 17.57 63.626 0.168 7.33 5.1 8.75
6/22/2022 4:00:00 AM 17.54 63.572 0.168 7.31 5.53 8.76
6/22/2022 4:15:00 AM 17.5 63.5 0.168 7.33 4.92 8.77
6/22/2022 4:30:00 AM 17.47 63.446 0.168 7.32 4.84 8.77
6/22/2022 4:45:00 AM 17.43 63.374 0.168 7.31 3.67 8.79
6/22/2022 5:00:00 AM 17.4 63.32 0.168 7.3 4.36 8.8
6/22/2022 5:15:00 AM 17.37 63.266 0.168 7.29 3.53 8.79
6/22/2022 5:30:00 AM 17.34 63.212 0.168 7.3 4.65 8.78
6/22/2022 5:45:00 AM 17.32 63.176 0.168 7.29 4.47 8.8
6/22/2022 6:00:00 AM 17.3 63.14 0.168 7.3 5.95 8.82
6/22/2022 6:15:00 AM 17.29 63.122 0.168 7.29 5.25 8.8
6/22/2022 6:30:00 AM 17.28 63.104 0.168 7.28 4.99 8.84
6/22/2022 6:45:00 AM 17.27 63.086 0.168 7.29 5.37 8.84
6/22/2022 7:00:00 AM 17.27 63.086 0.168 7.29 4.86 8.88
6/22/2022 7:15:00 AM 17.27 63.086 0.168 7.3 4.6 8.92
6/22/2022 7:30:00 AM 17.29 63.122 0.168 7.3 5.94 8.96
6/22/2022 7:45:00 AM 17.31 63.158 0.168 7.3 3.65 9.03
6/22/2022 8:00:00 AM 17.34 63.212 0.168 7.28 3.62 9.07
6/22/2022 8:15:00 AM 17.38 63.284 0.168 7.3 4.95 9.13
6/22/2022 8:30:00 AM 17.42 63.356 0.168 7.34 4.15 9.19
6/22/2022 8:45:00 AM 17.47 63.446 0.168 7.33 5.25 9.24
6/22/2022 9:00:00 AM 17.55 63.59 0.168 7.34 2.86 9.31
6/22/2022 9:15:00 AM 17.65 63.77 0.168 7.36 2.92 9.36
6/22/2022 9:30:00 AM 17.75 63.95 0.168 7.38 3.9 9.47
6/22/2022 9:45:00 AM 17.88 64.184 0.168 7.4 3.94 9.54
6/22/2022 10:00:00 AM 18 64.4 0.168 7.42 4.51 9.6
6/22/2022 10:15:00 AM 18.14 64.652 0.168 7.44 4.68 9.65
6/22/2022 10:30:00 AM 18.27 64.886 0.168 7.44 3.41 9.67
6/22/2022 10:45:00 AM 18.39 65.102 0.168 7.49 2.78 9.71
6/22/2022 11:00:00 AM 18.52 65.336 0.168 7.49 4.14 9.73
6/22/2022 11:15:00 AM 18.63 65.534 0.168 7.54 4.16 9.74
6/22/2022 11:30:00 AM 18.74 65.732 0.168 7.55 3.16 9.76
6/22/2022 11:45:00 AM 18.87 65.966 0.168 7.57 3.97 9.75
6/22/2022 12:00:00 PM 19 66.2 0.168 7.6 3.96 9.77
6/22/2022 12:15:00 PM 19.17 66.506 0.168 7.63 3.79 9.78
6/22/2022 12:30:00 PM 19.39 66.902 0.168 7.67 3.44 9.81
6/22/2022 12:45:00 PM 19.64 67.352 0.168 7.69 3.89 9.81
6/22/2022 1:00:00 PM 19.9 67.82 0.168 7.72 4.36 9.84
6/22/2022 1:15:00 PM 20.21 68.378 0.168 7.75 3.9 9.83
6/22/2022 1:30:00 PM 20.49 68.882 0.168 7.8 4.25 9.82
6/22/2022 1:45:00 PM 20.64 69.152 0.168 7.82 4.72 9.8
6/22/2022 2:00:00 PM 20.69 69.242 0.168 7.85 3.22 9.72
6/22/2022 2:15:00 PM 20.7 69.26 0.168 7.88 2.99 9.63
6/22/2022 2:30:00 PM 20.75 69.35 0.168 7.87 3.49 9.49
6/22/2022 2:45:00 PM 20.91 69.638 0.168 7.88 3.9 9.47
6/22/2022 3:00:00 PM 21.04 69.872 0.168 7.89 4.02 9.48
6/22/2022 3:15:00 PM 21.07 69.926 0.168 7.91 3.71 9.42
6/22/2022 3:30:00 PM 21.02 69.836 0.168 7.89 4.09 9.28
6/22/2022 3:45:00 PM 20.97 69.746 0.168 7.88 4.57 9.13
6/22/2022 4:00:00 PM 20.95 69.71 0.168 7.88 3.01 9.03
6/22/2022 4:15:00 PM 20.98 69.764 0.168 7.84 3.15 9.02
6/22/2022 4:30:00 PM 21.01 69.818 0.168 7.82 3.81 9.07
6/22/2022 4:45:00 PM 21.05 69.89 0.168 7.82 3.42 9.14
6/22/2022 5:00:00 PM 21.06 69.908 0.168 7.85 4.5 9.19
6/22/2022 5:15:00 PM 21 69.8 0.168 7.84 3.88 9.16
6/22/2022 5:30:00 PM 20.92 69.656 0.168 7.83 3.52 9.08
6/22/2022 5:45:00 PM 20.84 69.512 0.168 7.83 4.21 8.96
6/22/2022 6:00:00 PM 20.76 69.368 0.168 7.8 4.14 8.89
6/22/2022 6:15:00 PM 20.66 69.188 0.168 7.8 3.63 8.8
6/22/2022 6:30:00 PM 20.56 69.008 0.168 7.75 5.16 8.71
6/22/2022 6:45:00 PM 20.48 68.864 0.168 7.72 2.99 8.64
6/22/2022 7:00:00 PM 20.41 68.738 0.168 7.71 4.61 8.59
6/22/2022 7:15:00 PM 20.33 68.594 0.168 7.67 3.84 8.57
6/22/2022 7:30:00 PM 20.25 68.45 0.168 7.66 2.91 8.56
6/22/2022 7:45:00 PM 20.18 68.324 0.168 7.63 2.7 8.54
6/22/2022 8:00:00 PM 20.1 68.18 0.168 7.62 3.81 8.49
6/22/2022 8:15:00 PM 20.03 68.054 0.168 7.59 3.96 8.47
6/22/2022 8:30:00 PM 19.96 67.92799 0.168 7.57 4 8.45
6/22/2022 8:45:00 PM 19.88 67.784 0.168 7.56 4.3 8.43
6/22/2022 9:00:00 PM 19.82 67.676 0.168 7.55 3.52 8.42
6/22/2022 9:15:00 PM 19.76 67.568 0.168 7.52 3.85 8.4
6/22/2022 9:30:00 PM 19.7 67.46 0.168 7.49 4.22 8.39
6/22/2022 9:45:00 PM 19.65 67.37 0.168 7.48 6.16 8.38
6/22/2022 10:00:00 PM 19.59 67.262 0.168 7.47 4.58 8.36
6/22/2022 10:15:00 PM 19.54 67.172 0.168 7.46 6.55 8.37
6/22/2022 10:30:00 PM 19.49 67.082 0.168 7.44 6.88 8.36
6/22/2022 10:45:00 PM 19.44 66.992 0.168 7.43 10.15 8.36
6/22/2022 11:00:00 PM 19.39 66.902 0.168 7.41 4.07 8.36
6/22/2022 11:15:00 PM 19.34 66.812 0.168 7.42 9.09 8.36
6/22/2022 11:30:00 PM 19.29 66.722 0.168 7.4 5.28 8.35
6/22/2022 11:45:00 PM 19.24 66.632 0.167 7.41 6.03 8.37
6/23/2022 12:00:00 AM 19.2 66.56 0.166 7.38 7.73 8.37
6/23/2022 12:15:00 AM 19.15 66.47 0.165 7.37 8.85 8.37
6/23/2022 12:30:00 AM 19.12 66.416 0.165 7.36 5.94 8.36
6/23/2022 12:45:00 AM 19.08 66.344 0.164 7.35 8.62 8.36
6/23/2022 1:00:00 AM 19.04 66.272 0.164 7.36 7.45 8.38
6/23/2022 1:15:00 AM 19.01 66.218 0.164 7.33 7.21 8.39
6/23/2022 1:30:00 AM 18.97 66.146 0.163 7.33 9.26 8.38
6/23/2022 1:45:00 AM 18.93 66.074 0.163 7.33 6.9 8.4
6/23/2022 2:00:00 AM 18.9 66.02 0.163 7.32 6.83 8.4
6/23/2022 2:15:00 AM 18.86 65.948 0.163 7.31 7.31 8.39
6/23/2022 2:30:00 AM 18.83 65.894 0.163 7.31 9.09 8.39
6/23/2022 2:45:00 AM 18.8 65.84 0.163 7.29 8.54 8.41
6/23/2022 3:00:00 AM 18.77 65.786 0.163 7.29 7.82 8.4
6/23/2022 3:15:00 AM 18.74 65.732 0.163 7.3 6.77 8.42
6/23/2022 3:30:00 AM 18.71 65.67799 0.163 7.28 23.65 8.39
6/23/2022 3:45:00 AM 18.67 65.606 0.163 7.28 10.82 8.43
6/23/2022 4:00:00 AM 18.64 65.552 0.163 7.27 7.5 8.43
6/23/2022 4:15:00 AM 18.61 65.498 0.163 7.27 10.43 8.44
6/23/2022 4:30:00 AM 18.58 65.444 0.163 7.29 8.56 8.45
6/23/2022 4:45:00 AM 18.55 65.39 0.163 7.26 9.9 8.48
6/23/2022 5:00:00 AM 18.52 65.336 0.163 7.27 9.53 8.49
6/23/2022 5:15:00 AM 18.49 65.282 0.163 7.28 10.97 8.49
6/23/2022 5:30:00 AM 18.45 65.21 0.163 7.26 9.84 8.51
6/23/2022 5:45:00 AM 18.42 65.156 0.163 7.26 11.76 8.51
6/23/2022 6:00:00 AM 18.39 65.102 0.163 7.27 8.38 8.54
6/23/2022 6:15:00 AM 18.36 65.048 0.163 7.27 10.22 8.55
6/23/2022 6:30:00 AM 18.33 64.994 0.163 7.28 9.33 8.56
6/23/2022 6:45:00 AM 18.29 64.922 0.163 7.28 9.76 8.57
6/23/2022 7:00:00 AM 18.27 64.886 0.164 7.26 11.45 8.59
6/23/2022 7:15:00 AM 18.24 64.832 0.164 7.28 12.39 8.6
6/23/2022 7:30:00 AM 18.21 64.778 0.164 7.29 13.07 8.61
6/23/2022 7:45:00 AM 18.18 64.724 0.164 7.28 15.06 8.65
6/23/2022 8:00:00 AM 18.14 64.652 0.164 7.28 16.02 8.66
6/23/2022 8:15:00 AM 18.12 64.616 0.164 7.28 14.64 8.68
6/23/2022 8:30:00 AM 18.1 64.58 0.164 7.28 12.06 8.7
6/23/2022 8:45:00 AM 18.08 64.544 0.164 7.3 17.4 8.74
6/23/2022 9:00:00 AM 18.06 64.508 0.164 7.3 14.6 8.77
6/23/2022 9:15:00 AM 18.05 64.49 0.164 7.3 18.06 8.78
6/23/2022 9:30:00 AM 18.03 64.454 0.165 7.32 12.95 8.82
6/23/2022 9:45:00 AM 18.03 64.454 0.165 7.31 15.68 8.85
6/23/2022 10:00:00 AM 18.02 64.436 0.165 7.32 16.13 8.89
6/23/2022 10:15:00 AM 18.01 64.418 0.165 7.33 10.89 8.91
6/23/2022 10:30:00 AM 18.01 64.418 0.165 7.34 9.68 8.93
6/23/2022 10:45:00 AM 18 64.4 0.164 7.35 11.39 8.97
6/23/2022 11:00:00 AM 18.01 64.418 0.164 7.37 10.43 9.02
6/23/2022 11:15:00 AM 18.01 64.418 0.164 7.37 11.57 9.07
6/23/2022 11:30:00 AM 18.02 64.436 0.164 7.38 8.87 9.1
6/23/2022 11:45:00 AM 18.01 64.418 0.164 7.39 10.85 9.13
6/23/2022 12:00:00 PM 18.02 64.436 0.164 7.41 12.37 9.15
6/23/2022 12:15:00 PM 18.02 64.436 0.163 7.42 8.15 9.18
6/23/2022 12:30:00 PM 18.03 64.454 0.163 7.42 11.16 9.21
6/23/2022 12:45:00 PM 18.03 64.454 0.163 7.43 9 9.24
6/23/2022 1:00:00 PM 18.04 64.472 0.163 7.43 9 9.26
6/23/2022 1:15:00 PM 18.06 64.508 0.163 7.45 9.33 9.32
6/23/2022 1:30:00 PM 18.08 64.544 0.163 7.45 9.54 9.35
6/23/2022 1:45:00 PM 18.11 64.598 0.163 7.48 8.28 9.4
6/23/2022 2:00:00 PM 18.11 64.598 0.163 7.48 8.8 9.44
6/23/2022 2:15:00 PM 18.12 64.616 0.163 7.5 7.75 9.42
6/23/2022 2:30:00 PM 18.15 64.67 0.163 7.51 10.76 9.42
6/23/2022 2:45:00 PM 18.2 64.76 0.163 7.52 8.61 9.46
6/23/2022 3:00:00 PM 18.24 64.832 0.163 7.53 8.17 9.52
6/23/2022 3:15:00 PM 18.25 64.85 0.163 7.55 8.16 9.53
6/23/2022 3:30:00 PM 18.27 64.886 0.163 7.55 8.06 9.5
6/23/2022 3:45:00 PM 18.27 64.886 0.163 7.56 8.5 9.49
6/23/2022 4:00:00 PM 18.27 64.886 0.163 7.58 6.69 9.46
6/23/2022 4:15:00 PM 18.27 64.886 0.164 7.58 8.98 9.4
6/23/2022 4:30:00 PM 18.27 64.886 0.164 7.57 9.12 9.37
6/23/2022 4:45:00 PM 18.27 64.886 0.164 7.56 7.89 9.37
6/23/2022 5:00:00 PM 18.27 64.886 0.164 7.57 6.85 9.36
6/23/2022 5:15:00 PM 18.26 64.868 0.164 7.57 8.5 9.34
6/23/2022 5:30:00 PM 18.27 64.886 0.164 7.58 7.14 9.34
6/23/2022 5:45:00 PM 18.27 64.886 0.164 7.57 8.75 9.35
6/23/2022 6:00:00 PM 18.26 64.868 0.164 7.57 8.97 9.36
6/23/2022 6:15:00 PM 18.27 64.886 0.164 7.56 7.51 9.35
6/23/2022 6:30:00 PM 18.27 64.886 0.164 7.58 7.2 9.35
6/23/2022 6:45:00 PM 18.25 64.85 0.164 7.58 6.36 9.32
6/23/2022 7:00:00 PM 18.24 64.832 0.164 7.58 8.13 9.29
6/23/2022 7:15:00 PM 18.22 64.796 0.165 7.55 7.89 9.26
6/23/2022 7:30:00 PM 18.2 64.76 0.165 7.56 8.74 9.23
6/23/2022 7:45:00 PM 18.18 64.724 0.165 7.56 6.46 9.19
6/23/2022 8:00:00 PM 18.16 64.688 0.166 7.54 6.08 9.13
6/23/2022 8:15:00 PM 18.13 64.634 0.166 7.55 7.27 9.09
6/23/2022 8:30:00 PM 18.09 64.562 0.166 7.52 6.93 9.06
6/23/2022 8:45:00 PM 18.06 64.508 0.166 7.5 8.88 9.03
6/23/2022 9:00:00 PM 18.03 64.454 0.167 7.49 7.32 8.98
6/23/2022 9:15:00 PM 18 64.4 0.167 7.48 10.64 8.94
6/23/2022 9:30:00 PM 17.95 64.31 0.167 7.46 7.39 8.9
6/23/2022 9:45:00 PM 17.91 64.238 0.167 7.46 6.89 8.9
6/23/2022 10:00:00 PM 17.87 64.166 0.167 7.44 8.14 8.88
6/23/2022 10:15:00 PM 17.82 64.076 0.167 7.42 12.07 8.86
6/23/2022 10:30:00 PM 17.78 64.004 0.167 7.42 7.75 8.85
6/23/2022 10:45:00 PM 17.75 63.95 0.167 7.4 10.73 8.82
6/23/2022 11:00:00 PM 17.71 63.878 0.166 7.41 6.69 8.82
6/23/2022 11:15:00 PM 17.67 63.806 0.166 7.4 10.98 8.81
6/23/2022 11:30:00 PM 17.64 63.752 0.166 7.39 8.19 8.82
6/23/2022 11:45:00 PM 17.6 63.68 0.166 7.38 8.4 8.81
6/24/2022 12:00:00 AM 17.56 63.608 0.166 7.37 10.41 8.81
6/24/2022 12:15:00 AM 17.53 63.554 0.166 7.36 9.88 8.8
6/24/2022 12:30:00 AM 17.49 63.482 0.166 7.36 9.82 8.81
6/24/2022 12:45:00 AM 17.46 63.428 0.166 7.35 7.43 8.83
6/24/2022 1:00:00 AM 17.43 63.374 0.166 7.35 7.76 8.83
6/24/2022 1:15:00 AM 17.4 63.32 0.165 7.35 7.98 8.82
6/24/2022 1:30:00 AM 17.37 63.266 0.165 7.34 11.54 8.83
6/24/2022 1:45:00 AM 17.35 63.23 0.165 7.35 9.35 8.82
6/24/2022 2:00:00 AM 17.32 63.176 0.165 7.34 9.7 8.84
6/24/2022 2:15:00 AM 17.3 63.14 0.165 7.33 4.84 8.85
6/24/2022 2:30:00 AM 17.27 63.086 0.165 7.33 10.12 8.85
6/24/2022 2:45:00 AM 17.24 63.032 0.165 7.33 10.87 8.87
6/24/2022 3:00:00 AM 17.21 62.978 0.164 7.32 7.25 8.88
6/24/2022 3:15:00 AM 17.18 62.924 0.164 7.33 8.24 8.87
6/24/2022 3:30:00 AM 17.15 62.87 0.164 7.33 6.92 8.87
6/24/2022 3:45:00 AM 17.12 62.816 0.164 7.33 7.58 8.87
6/24/2022 4:00:00 AM 17.08 62.744 0.164 7.34 9.97 8.89
6/24/2022 4:15:00 AM 17.04 62.672 0.164 7.31 8.72 8.89
6/24/2022 4:30:00 AM 17.01 62.618 0.164 7.31 7.37 8.9
6/24/2022 4:45:00 AM 16.97 62.546 0.164 7.32 9.32 8.92
6/24/2022 5:00:00 AM 16.93 62.474 0.164 7.32 6.8 8.94
6/24/2022 5:15:00 AM 16.9 62.42 0.164 7.32 7.81 8.94
6/24/2022 5:30:00 AM 16.87 62.366 0.164 7.33 6.86 8.95
6/24/2022 5:45:00 AM 16.84 62.312 0.164 7.31 7.47 8.96
6/24/2022 6:00:00 AM 16.81 62.258 0.164 7.32 6.29 8.96
6/24/2022 6:15:00 AM 16.78 62.204 0.164 7.32 6.59 8.98
6/24/2022 6:30:00 AM 16.76 62.168 0.164 7.32 5.18 9
6/24/2022 6:45:00 AM 16.74 62.132 0.164 7.31 6.79 9.03
6/24/2022 7:00:00 AM 16.73 62.114 0.164 7.31 5.64 9.05
6/24/2022 7:15:00 AM 16.72 62.096 0.164 7.32 9.32 9.09
6/24/2022 7:30:00 AM 16.71 62.078 0.164 7.32 6.41 9.11
6/24/2022 7:45:00 AM 16.71 62.078 0.164 7.33 5.99 9.14
6/24/2022 8:00:00 AM 16.72 62.096 0.164 7.33 6.3 9.19
6/24/2022 8:15:00 AM 16.73 62.114 0.164 7.32 6.5 9.23
6/24/2022 8:30:00 AM 16.76 62.168 0.165 7.33 5.52 9.28
6/24/2022 8:45:00 AM 16.79 62.222 0.165 7.34 7.57 9.36
6/24/2022 9:00:00 AM 16.83 62.294 0.165 7.35 7.22 9.41
6/24/2022 9:15:00 AM 16.87 62.366 0.165 7.36 5.62 9.49
6/24/2022 9:30:00 AM 16.92 62.456 0.165 7.37 4.56 9.55
6/24/2022 9:45:00 AM 16.99 62.582 0.165 7.39 5.97 9.61
6/24/2022 10:00:00 AM 17.06 62.708 0.165 7.41 5.1 9.66
6/24/2022 10:15:00 AM 17.14 62.852 0.165 7.42 6.14 9.72
6/24/2022 10:30:00 AM 17.23 63.014 0.165 7.44 5.37 9.77
6/24/2022 10:45:00 AM 17.33 63.194 0.165 7.45 5.34 9.82
6/24/2022 11:00:00 AM 17.43 63.374 0.165 7.47 7.91 9.87
6/24/2022 11:15:00 AM 17.53 63.554 0.165 7.49 5.68 9.91
6/24/2022 11:30:00 AM 17.6 63.68 0.165 7.52 4.83 9.91
6/24/2022 11:45:00 AM 17.69 63.842 0.165 7.53 5.14 9.9
6/24/2022 12:00:00 PM 17.79 64.022 0.165 7.55 7.21 9.91
6/24/2022 12:15:00 PM 17.89 64.202 0.165 7.58 4.71 9.93
6/24/2022 12:30:00 PM 17.99 64.382 0.165 7.59 4.45 9.95
6/24/2022 12:45:00 PM 18.08 64.544 0.165 7.61 4.43 9.96
6/24/2022 1:00:00 PM 18.14 64.652 0.165 7.63 4.46 9.94
6/24/2022 1:15:00 PM 18.22 64.796 0.165 7.66 6.91 9.87
6/24/2022 1:30:00 PM 18.36 65.048 0.165 7.65 4.02 9.89
6/24/2022 1:45:00 PM 18.54 65.372 0.165 7.67 4.13 9.93
6/24/2022 2:00:00 PM 18.74 65.732 0.165 7.7 5.55 9.96
6/24/2022 2:15:00 PM 18.81 65.858 0.165 7.7 4.83 9.97
6/24/2022 2:30:00 PM 18.94 66.092 0.165 7.7 5.19 9.97
6/24/2022 2:45:00 PM 19.12 66.416 0.166 7.77 4.2 9.95
6/24/2022 3:00:00 PM 19.23 66.614 0.165 7.76 5.68 9.93
6/24/2022 3:15:00 PM 19.46 67.028 0.165 7.77 4.66 9.91
6/24/2022 3:30:00 PM 19.66 67.388 0.166 7.78 4.01 9.9
6/24/2022 3:45:00 PM 19.72 67.496 0.166 7.81 4.78 9.85
6/24/2022 4:00:00 PM 19.7 67.46 0.166 7.8 6.22 9.77
6/24/2022 4:15:00 PM 19.67 67.406 0.166 7.81 6.31 9.7
6/24/2022 4:30:00 PM 19.77 67.586 0.166 7.81 7.92 9.66
6/24/2022 4:45:00 PM 19.82 67.676 0.166 7.83 4.71 9.63
6/24/2022 5:00:00 PM 19.74 67.532 0.166 7.82 4.05 9.55
6/24/2022 5:15:00 PM 19.7 67.46 0.166 7.82 4.46 9.48
6/24/2022 5:30:00 PM 19.75 67.55 0.166 7.81 5.13 9.43
6/24/2022 5:45:00 PM 19.78 67.604 0.166 7.79 5.64 9.39
6/24/2022 6:00:00 PM 19.8 67.64 0.166 7.78 5.38 9.34
6/24/2022 6:15:00 PM 19.82 67.676 0.166 7.78 5.16 9.26
6/24/2022 6:30:00 PM 19.84 67.712 0.166 7.77 5.9 9.22
6/24/2022 6:45:00 PM 19.82 67.676 0.166 7.75 7.78 9.16
6/24/2022 7:00:00 PM 19.78 67.604 0.167 7.74 4.62 9.09
6/24/2022 7:15:00 PM 19.71 67.478 0.167 7.71 4.13 9.03
6/24/2022 7:30:00 PM 19.64 67.352 0.167 7.69 5.59 8.97
6/24/2022 7:45:00 PM 19.58 67.244 0.167 7.67 5.85 8.91
6/24/2022 8:00:00 PM 19.52 67.136 0.167 7.65 4.88 8.88
6/24/2022 8:15:00 PM 19.47 67.046 0.167 7.63 4.29 8.83
6/24/2022 8:30:00 PM 19.42 66.956 0.167 7.6 5.82 8.78
6/24/2022 8:45:00 PM 19.36 66.848 0.167 7.59 4.08 8.74
6/24/2022 9:00:00 PM 19.31 66.758 0.167 7.55 4.63 8.7
6/24/2022 9:15:00 PM 19.25 66.65 0.167 7.55 4.31 8.67
6/24/2022 9:30:00 PM 19.2 66.56 0.167 7.52 6.1 8.64
6/24/2022 9:45:00 PM 19.14 66.452 0.167 7.5 5.06 8.61
6/24/2022 10:00:00 PM 19.08 66.344 0.168 7.48 8.95 8.59
6/24/2022 10:15:00 PM 19.02 66.236 0.168 7.46 7.95 8.58
6/24/2022 10:30:00 PM 18.96 66.128 0.168 7.44 6.26 8.57
6/24/2022 10:45:00 PM 18.89 66.002 0.168 7.44 5.15 8.57
6/24/2022 11:00:00 PM 18.82 65.876 0.168 7.43 3.99 8.58
6/24/2022 11:15:00 PM 18.76 65.768 0.168 7.42 8.32 8.57
6/24/2022 11:30:00 PM 18.69 65.642 0.168 7.39 9.84 8.59
6/24/2022 11:45:00 PM 18.62 65.516 0.168 7.39 6.99 8.59
6/25/2022 12:00:00 AM 18.55 65.39 0.168 7.38 6.51 8.61
6/25/2022 12:15:00 AM 18.49 65.282 0.168 7.38 5.1 8.61
6/25/2022 12:30:00 AM 18.43 65.174 0.168 7.36 8.81 8.6
6/25/2022 12:45:00 AM 18.38 65.084 0.168 7.35 9.8 8.62
6/25/2022 1:00:00 AM 18.32 64.976 0.168 7.35 5.49 8.64
6/25/2022 1:15:00 AM 18.26 64.868 0.168 7.35 7.91 8.65
6/25/2022 1:30:00 AM 18.2 64.76 0.168 7.34 6.48 8.66
6/25/2022 1:45:00 AM 18.13 64.634 0.168 7.34 7.83 8.66
6/25/2022 2:00:00 AM 18.07 64.526 0.168 7.33 6.55 8.68
6/25/2022 2:15:00 AM 18.02 64.436 0.168 7.33 5.63 8.69
6/25/2022 2:30:00 AM 17.97 64.346 0.168 7.33 6.64 8.7
6/25/2022 2:45:00 AM 17.92 64.256 0.168 7.33 5.3 8.72
6/25/2022 3:00:00 AM 17.87 64.166 0.168 7.32 6.16 8.71
6/25/2022 3:15:00 AM 17.83 64.094 0.168 7.31 6.92 8.72
6/25/2022 3:30:00 AM 17.78 64.004 0.168 7.31 5.9 8.74
6/25/2022 3:45:00 AM 17.74 63.932 0.168 7.31 7.89 8.73
6/25/2022 4:00:00 AM 17.7 63.86 0.168 7.31 7.08 8.76
6/25/2022 4:15:00 AM 17.65 63.77 0.168 7.3 10.24 8.77
6/25/2022 4:30:00 AM 17.61 63.698 0.168 7.31 5.71 8.78
6/25/2022 4:45:00 AM 17.57 63.626 0.168 7.29 6.99 8.78
6/25/2022 5:00:00 AM 17.52 63.536 0.168 7.3 9.39 8.79
6/25/2022 5:15:00 AM 17.47 63.446 0.168 7.29 6.43 8.8
6/25/2022 5:30:00 AM 17.43 63.374 0.168 7.29 6 8.81
6/25/2022 5:45:00 AM 17.39 63.302 0.168 7.28 7.1 8.82
6/25/2022 6:00:00 AM 17.35 63.23 0.168 7.29 5.55 8.83
6/25/2022 6:15:00 AM 17.31 63.158 0.168 7.28 5.87 8.86
6/25/2022 6:30:00 AM 17.27 63.086 0.168 7.28 5.35 8.88
6/25/2022 6:45:00 AM 17.24 63.032 0.168 7.28 8.17 8.9
6/25/2022 7:00:00 AM 17.21 62.978 0.168 7.28 7.68 8.92
6/25/2022 7:15:00 AM 17.18 62.924 0.168 7.27 8.44 8.97
6/25/2022 7:30:00 AM 17.16 62.888 0.168 7.28 6.18 8.99
6/25/2022 7:45:00 AM 17.15 62.87 0.168 7.28 6.94 9.01
6/25/2022 8:00:00 AM 17.14 62.852 0.168 7.28 6.81 9.02
6/25/2022 8:15:00 AM 17.15 62.87 0.168 7.28 6.46 9.08
6/25/2022 8:30:00 AM 17.16 62.888 0.168 7.29 5.13 9.11
6/25/2022 8:45:00 AM 17.19 62.942 0.168 7.29 6.52 9.15
6/25/2022 9:00:00 AM 17.23 63.014 0.168 7.31 5.65 9.17
6/25/2022 9:15:00 AM 17.27 63.086 0.168 7.31 5.4 9.21
6/25/2022 9:30:00 AM 17.33 63.194 0.168 7.3 5.78 9.25
6/25/2022 9:45:00 AM 17.4 63.32 0.168 7.31 4.68 9.28
6/25/2022 10:00:00 AM 17.48 63.464 0.168 7.32 5.33 9.32
6/25/2022 10:15:00 AM 17.59 63.662 0.168 7.33 5.17 9.37
6/25/2022 10:30:00 AM 17.73 63.914 0.168 7.34 5.26 9.41
6/25/2022 10:45:00 AM 17.89 64.202 0.168 7.36 4.8 9.44
6/25/2022 11:00:00 AM 18.08 64.544 0.168 7.36 4.9 9.47
6/25/2022 11:15:00 AM 18.29 64.922 0.168 7.39 4.36 9.48
6/25/2022 11:30:00 AM 18.53 65.354 0.168 7.41 4.66 9.54
6/25/2022 11:45:00 AM 18.82 65.876 0.168 7.42 3.49 9.57
6/25/2022 12:00:00 PM 19.11 66.398 0.168 7.44 4.62 9.58
6/25/2022 12:15:00 PM 19.44 66.992 0.168 7.46 4.81 9.58
6/25/2022 12:30:00 PM 19.79 67.622 0.168 7.46 15.52 9.6
6/25/2022 12:45:00 PM 20.18 68.324 0.168 7.48 4.99 9.61
6/25/2022 1:00:00 PM 20.51 68.918 0.168 7.5 6.28 9.6
6/25/2022 1:15:00 PM 20.77 69.386 0.168 7.54 10.36 9.52
6/25/2022 1:30:00 PM 21.07 69.926 0.168 7.53 5.97 9.46
6/25/2022 1:45:00 PM 21.54 70.772 0.168 7.56 4.38 9.51
6/25/2022 2:00:00 PM 22 71.6 0.168 7.57 4.41 9.54
6/25/2022 2:15:00 PM 22.41 72.338 0.168 7.6 4.72 9.53
6/25/2022 2:30:00 PM 22.85 73.13 0.169 7.63 4.51 9.52
6/25/2022 2:45:00 PM 23.21 73.778 0.168 7.65 5.94 9.49
6/25/2022 3:00:00 PM 23.43 74.174 0.169 7.67 4.09 9.46
6/25/2022 3:15:00 PM 23.66 74.588 0.169 7.68 4.82 9.37
6/25/2022 3:30:00 PM 23.71 74.67799 0.169 7.7 6.49 9.3
6/25/2022 3:45:00 PM 23.91 75.038 0.169 7.7 5.54 9.21
6/25/2022 4:00:00 PM 24 75.2 0.169 7.74 6.8 9.16
6/25/2022 4:15:00 PM 24.04 75.272 0.169 7.76 4.59 9.08
6/25/2022 4:30:00 PM 23.99 75.182 0.169 7.76 4.73 9
6/25/2022 4:45:00 PM 23.93 75.074 0.169 7.75 6.62 8.94
6/25/2022 5:00:00 PM 23.84 74.912 0.169 7.76 5.74 8.88
6/25/2022 5:15:00 PM 23.73 74.714 0.169 7.75 5.66 8.86
6/25/2022 5:30:00 PM 23.65 74.57 0.169 7.76 4.6 8.83
6/25/2022 5:45:00 PM 23.56 74.408 0.169 7.76 4.85 8.79
6/25/2022 6:00:00 PM 23.48 74.264 0.169 7.76 5.59 8.75
6/25/2022 6:15:00 PM 23.4 74.12 0.169 7.74 5.47 8.69
6/25/2022 6:30:00 PM 23.28 73.904 0.169 7.74 5.27 8.61
6/25/2022 6:45:00 PM 23.13 73.634 0.169 7.74 3.97 8.53
6/25/2022 7:00:00 PM 22.98 73.364 0.169 7.71 5.99 8.46
6/25/2022 7:15:00 PM 22.81 73.058 0.169 7.69 3.98 8.41
6/25/2022 7:30:00 PM 22.64 72.752 0.17 7.68 5.09 8.36
6/25/2022 7:45:00 PM 22.48 72.464 0.17 7.65 4.42 8.33
6/25/2022 8:00:00 PM 22.34 72.212 0.17 7.61 3.65 8.29
6/25/2022 8:15:00 PM 22.22 71.996 0.17 7.59 5.17 8.25
6/25/2022 8:30:00 PM 22.1 71.78 0.17 7.59 4.22 8.22
6/25/2022 8:45:00 PM 21.99 71.582 0.17 7.56 6.2 8.19
6/25/2022 9:00:00 PM 21.9 71.42 0.17 7.53 4.75 8.15
6/25/2022 9:15:00 PM 21.8 71.24 0.17 7.5 6.98 8.11
6/25/2022 9:30:00 PM 21.7 71.06 0.17 7.5 4.35 8.1
6/25/2022 9:45:00 PM 21.6 70.88 0.17 7.47 5.7 8.09
6/25/2022 10:00:00 PM 21.51 70.718 0.17 7.45 9.26 8.08
6/25/2022 10:15:00 PM 21.42 70.556 0.17 7.44 8.77 8.06
6/25/2022 10:30:00 PM 21.32 70.376 0.169 7.42 7.01 8.05
6/25/2022 10:45:00 PM 21.23 70.214 0.17 7.42 8.31 8.04
6/25/2022 11:00:00 PM 21.15 70.07 0.17 7.41 5.69 8.07
6/25/2022 11:15:00 PM 21.06 69.908 0.17 7.37 103.3 8.05
6/25/2022 11:30:00 PM 20.98 69.764 0.17 7.38 6.31 8.05
6/25/2022 11:45:00 PM 20.9 69.62 0.17 7.37 8.27 8.07
6/26/2022 12:00:00 AM 20.81 69.458 0.17 7.36 7.42 8.08
6/26/2022 12:15:00 AM 20.73 69.314 0.17 7.34 9.28 8.1
6/26/2022 12:30:00 AM 20.64 69.152 0.169 7.33 21.1 8.11
6/26/2022 12:45:00 AM 20.56 69.008 0.169 7.33 6.25 8.13
6/26/2022 1:00:00 AM 20.47 68.846 0.169 7.33 5.89 8.15
6/26/2022 1:15:00 AM 20.39 68.702 0.169 7.31 7.81 8.15
6/26/2022 1:30:00 AM 20.3 68.54 0.169 7.31 7.18 8.17
6/26/2022 1:45:00 AM 20.22 68.396 0.169 7.3 7.2 8.19
6/26/2022 2:00:00 AM 20.15 68.27 0.169 7.29 8.2 8.21
6/26/2022 2:15:00 AM 20.08 68.144 0.169 7.29 7.81 8.23
6/26/2022 2:30:00 AM 20.01 68.018 0.169 7.29 4.81 8.24
6/26/2022 2:45:00 AM 19.93 67.874 0.169 7.28 9.24 8.26
6/26/2022 3:00:00 AM 19.87 67.766 0.169 7.28 7.63 8.25
6/26/2022 3:15:00 AM 19.8 67.64 0.17 7.29 5.93 8.27
6/26/2022 3:30:00 AM 19.74 67.532 0.169 7.28 6.23 8.3
6/26/2022 3:45:00 AM 19.68 67.424 0.169 7.27 12.48 8.3
6/26/2022 4:00:00 AM 19.62 67.316 0.169 7.27 7.44 8.32
6/26/2022 4:15:00 AM 19.57 67.226 0.169 7.27 6.25 8.33
6/26/2022 4:30:00 AM 19.51 67.118 0.169 7.27 7.41 8.35
6/26/2022 4:45:00 AM 19.46 67.028 0.17 7.27 7.76 8.35
6/26/2022 5:00:00 AM 19.41 66.938 0.17 7.26 7.47 8.37
6/26/2022 5:15:00 AM 19.36 66.848 0.17 7.25 4.14 8.39
6/26/2022 5:30:00 AM 19.31 66.758 0.17 7.26 7.15 8.38
6/26/2022 5:45:00 AM 19.27 66.686 0.17 7.25 8.83 8.39
6/26/2022 6:00:00 AM 19.22 66.596 0.17 7.26 10 8.4
6/26/2022 6:15:00 AM 19.18 66.524 0.17 7.25 7.73 8.42
6/26/2022 6:30:00 AM 19.14 66.452 0.17 7.25 5.48 8.45
6/26/2022 6:45:00 AM 19.11 66.398 0.17 7.26 7.46 8.47
6/26/2022 7:00:00 AM 19.09 66.362 0.17 7.26 9.06 8.51
6/26/2022 7:15:00 AM 19.08 66.344 0.17 7.26 6.87 8.57
6/26/2022 7:30:00 AM 19.07 66.326 0.17 7.26 8.99 8.62
6/26/2022 7:45:00 AM 19.08 66.344 0.17 7.26 6.77 8.67
6/26/2022 8:00:00 AM 19.09 66.362 0.17 7.27 6.24 8.73
6/26/2022 8:15:00 AM 19.12 66.416 0.169 7.27 6.27 8.8
6/26/2022 8:30:00 AM 19.14 66.452 0.17 7.29 6.71 8.84
6/26/2022 8:45:00 AM 19.16 66.488 0.17 7.3 5.17 8.86
6/26/2022 9:00:00 AM 19.19 66.542 0.17 7.3 5.97 8.89
6/26/2022 9:15:00 AM 19.25 66.65 0.17 7.3 7.6 8.96
6/26/2022 9:30:00 AM 19.33 66.794 0.17 7.32 5.46 9.04
6/26/2022 9:45:00 AM 19.42 66.956 0.169 7.33 6.36 9.15
6/26/2022 10:00:00 AM 19.51 67.118 0.169 7.36 4.88 9.23
6/26/2022 10:15:00 AM 19.59 67.262 0.169 7.37 4.67 9.27
6/26/2022 10:30:00 AM 19.65 67.37 0.169 7.39 5.65 9.31
6/26/2022 10:45:00 AM 19.75 67.55 0.169 7.42 4.5 9.29
6/26/2022 11:00:00 AM 19.89 67.802 0.169 7.44 4.93 9.29
6/26/2022 11:15:00 AM 20.07 68.126 0.169 7.43 6.51 9.3
6/26/2022 11:30:00 AM 20.27 68.486 0.169 7.47 5.09 9.33
6/26/2022 11:45:00 AM 20.49 68.882 0.169 7.49 4.92 9.33
6/26/2022 12:00:00 PM 20.73 69.314 0.169 7.5 5.83 9.36
6/26/2022 12:15:00 PM 21.01 69.818 0.169 7.52 5.8 9.36
6/26/2022 12:30:00 PM 21.3 70.34 0.169 7.54 4.4 9.38
6/26/2022 12:45:00 PM 21.63 70.934 0.169 7.57 10.66 9.41
6/26/2022 1:00:00 PM 21.97 71.546 0.169 7.59 4.94 9.41
6/26/2022 1:15:00 PM 22.34 72.212 0.169 7.6 4.34 9.42
6/26/2022 1:30:00 PM 22.73 72.914 0.169 7.61 5.33 9.41
6/26/2022 1:45:00 PM 23.13 73.634 0.169 7.63 4.99 9.39
6/26/2022 2:00:00 PM 23.51 74.318 0.169 7.66 6.56 9.38
6/26/2022 2:15:00 PM 23.85 74.93 0.169 7.69 4.76 9.34
6/26/2022 2:30:00 PM 24.2 75.56 0.169 7.71 4.67 9.35
6/26/2022 2:45:00 PM 24.48 76.064 0.169 7.75 5.56 9.3
6/26/2022 3:00:00 PM 24.68 76.424 0.169 7.76 5.29 9.26
6/26/2022 3:15:00 PM 24.89 76.802 0.169 7.77 5.4 9.21
6/26/2022 3:30:00 PM 25.06 77.108 0.17 7.8 4.64 9.14
6/26/2022 3:45:00 PM 25.18 77.324 0.17 7.8 5.37 9.06
6/26/2022 4:00:00 PM 25.25 77.45 0.17 7.82 4.89 9.02
6/26/2022 4:15:00 PM 25.16 77.288 0.17 7.83 4.61 8.93
6/26/2022 4:30:00 PM 25.07 77.126 0.17 7.85 4.89 8.84
6/26/2022 4:45:00 PM 24.98 76.964 0.17 7.86 30.01 8.76
6/26/2022 5:00:00 PM 24.92 76.856 0.17 7.86 5.79 8.74
6/26/2022 5:15:00 PM 24.81 76.658 0.17 7.86 6.07 8.69
6/26/2022 5:30:00 PM 24.65 76.37 0.17 7.86 4.83 8.61
6/26/2022 5:45:00 PM 24.52 76.136 0.17 7.85 5.67 8.51
6/26/2022 6:00:00 PM 24.39 75.902 0.17 7.84 5.82 8.4
6/26/2022 6:15:00 PM 24.24 75.632 0.17 7.83 4.8 8.29
6/26/2022 6:30:00 PM 24.1 75.38 0.17 7.8 5.3 8.22
6/26/2022 6:45:00 PM 23.96 75.128 0.171 7.79 4.27 8.16
6/26/2022 7:00:00 PM 23.82 74.876 0.171 7.75 6.67 8.13
6/26/2022 7:15:00 PM 23.68 74.624 0.171 7.71 4.98 8.09
6/26/2022 7:30:00 PM 23.54 74.372 0.171 7.7 4.89 8.03
6/26/2022 7:45:00 PM 23.38 74.084 0.171 7.66 5.18 8
6/26/2022 8:00:00 PM 23.25 73.85 0.17 7.63 5.21 7.95
6/26/2022 8:15:00 PM 23.12 73.616 0.17 7.62 5.85 7.9
6/26/2022 8:30:00 PM 22.98 73.364 0.169 7.59 4.59 7.86
6/26/2022 8:45:00 PM 22.87 73.166 0.169 7.56 4.71 7.84
6/26/2022 9:00:00 PM 22.76 72.968 0.169 7.52 5.43 7.8
6/26/2022 9:15:00 PM 22.66 72.788 0.169 7.49 7.25 7.78
6/26/2022 9:30:00 PM 22.57 72.626 0.169 7.47 10.39 7.76
6/26/2022 9:45:00 PM 22.49 72.482 0.169 7.45 5.95 7.77
6/26/2022 10:00:00 PM 22.41 72.338 0.169 7.44 6.13 7.74
6/26/2022 10:15:00 PM 22.32 72.176 0.169 7.42 8.77 7.74
6/26/2022 10:30:00 PM 22.24 72.032 0.169 7.4 9.13 7.75
6/26/2022 10:45:00 PM 22.16 71.888 0.169 7.38 8.42 7.76
6/26/2022 11:00:00 PM 22.08 71.744 0.168 7.37 12.25 7.79
6/26/2022 11:15:00 PM 21.99 71.582 0.168 7.36 9.06 7.79
6/26/2022 11:30:00 PM 21.91 71.438 0.168 7.35 7.85 7.8
6/26/2022 11:45:00 PM 21.84 71.312 0.168 7.34 7.34 7.82
6/27/2022 12:00:00 AM 21.76 71.168 0.168 7.33 6.79 7.84
6/27/2022 12:15:00 AM 21.69 71.042 0.168 7.32 7.53 7.84
6/27/2022 12:30:00 AM 21.61 70.898 0.168 7.31 8.02 7.86
6/27/2022 12:45:00 AM 21.54 70.772 0.168 7.3 10.79 7.88
6/27/2022 1:00:00 AM 21.47 70.646 0.168 7.3 7.49 7.89
6/27/2022 1:15:00 AM 21.4 70.52 0.168 7.29 8.01 7.91
6/27/2022 1:30:00 AM 21.34 70.412 0.168 7.28 9.13 7.92
6/27/2022 1:45:00 AM 21.29 70.32201 0.168 7.27 9.21 7.94
6/27/2022 2:00:00 AM 21.24 70.232 0.168 7.27 5.93 7.95
6/27/2022 2:15:00 AM 21.19 70.142 0.168 7.27 10.39 7.96
6/27/2022 2:30:00 AM 21.15 70.07 0.168 7.26 7.48 7.98
6/27/2022 2:45:00 AM 21.11 69.998 0.168 7.26 7.99 8
6/27/2022 3:00:00 AM 21.08 69.944 0.168 7.26 8.52 8
6/27/2022 3:15:00 AM 21.04 69.872 0.169 7.25 10.14 8.01
6/27/2022 3:30:00 AM 21.01 69.818 0.169 7.26 11.87 8.02
6/27/2022 3:45:00 AM 20.98 69.764 0.169 7.24 15.52 8.02
6/27/2022 4:00:00 AM 20.96 69.728 0.169 7.24 12.11 8.03
6/27/2022 4:15:00 AM 20.93 69.674 0.169 7.24 11.9 8.03
6/27/2022 4:30:00 AM 20.91 69.638 0.169 7.23 10.45 8.06
6/27/2022 4:45:00 AM 20.89 69.602 0.169 7.23 11.82 8.05
6/27/2022 5:00:00 AM 20.86 69.548 0.169 7.23 9.54 8.05
6/27/2022 5:15:00 AM 20.84 69.512 0.169 7.23 8.65 8.05
6/27/2022 5:30:00 AM 20.82 69.476 0.169 7.23 9.83 8.07
6/27/2022 5:45:00 AM 20.79 69.422 0.169 7.22 10.1 8.07
6/27/2022 6:00:00 AM 20.76 69.368 0.169 7.22 10.4 8.08
6/27/2022 6:15:00 AM 20.74 69.332 0.17 7.22 8.56 8.08
6/27/2022 6:30:00 AM 20.71 69.278 0.17 7.22 9.01 8.09
6/27/2022 6:45:00 AM 20.69 69.242 0.17 7.22 10.14 8.12
6/27/2022 7:00:00 AM 20.66 69.188 0.17 7.23 10.08 8.15
6/27/2022 7:15:00 AM 20.64 69.152 0.17 7.22 9.25 8.18
6/27/2022 7:30:00 AM 20.62 69.116 0.17 7.23 9.45 8.17
6/27/2022 7:45:00 AM 20.61 69.098 0.17 7.23 7.66 8.2
6/27/2022 8:00:00 AM 20.6 69.08 0.17 7.23 9.14 8.26
6/27/2022 8:15:00 AM 20.6 69.08 0.17 7.24 7.32 8.31
6/27/2022 8:30:00 AM 20.61 69.098 0.17 7.25 9.11 8.37
6/27/2022 8:45:00 AM 20.63 69.134 0.17 7.26 6.76 8.45
6/27/2022 9:00:00 AM 20.65 69.17 0.17 7.28 6.72 8.55
6/27/2022 9:15:00 AM 20.68 69.224 0.169 7.3 6.95 8.64
6/27/2022 9:30:00 AM 20.7 69.26 0.169 7.3 7.31 8.69
6/27/2022 9:45:00 AM 20.72 69.296 0.169 7.31 6.54 8.73
6/27/2022 10:00:00 AM